<?xml version="1.0" encoding="UTF-8" standalone="no" ?>
<gpx xmlns="http://www.topografix.com/GPX/1/1" xmlns:xsi="http://www.w3.org/2001/XMLSchema-instance" xsi:schemaLocation="http://www.topografix.com/GPX/1/1 http://www.topografix.com/GPX/1/1/gpx.xsd" version="1.1" creator="VisuGPX - https://www.visugpx.com">
  <metadata>
    <name>Bergerie de la Tapi Sud Luberon</name>
    <desc><![CDATA[Grande Combe - GR97 - Bergerie de la Tapi - Petit Devens - Grand Devens
Les Hautes Baumes]]></desc>
  </metadata>
  <trk>
    <name><![CDATA[LESBORRYS175:54:35]]></name>
    <trkseg>
      <trkpt lat="43.75869" lon="5.23581">
        <ele>149.62</ele>
        <time>2017-02-23T09:00:31Z</time>
      </trkpt>
      <trkpt lat="43.75869" lon="5.23581">
        <ele>148.18</ele>
        <time>2017-02-23T09:00:49Z</time>
      </trkpt>
      <trkpt lat="43.75869" lon="5.23581">
        <ele>148.18</ele>
        <time>2017-02-23T09:01:11Z</time>
      </trkpt>
      <trkpt lat="43.75869" lon="5.23581">
        <ele>148.18</ele>
        <time>2017-02-23T09:01:31Z</time>
      </trkpt>
      <trkpt lat="43.75869" lon="5.2358">
        <ele>148.66</ele>
        <time>2017-02-23T09:02:01Z</time>
      </trkpt>
      <trkpt lat="43.75869" lon="5.23579">
        <ele>152.03</ele>
        <time>2017-02-23T09:02:08Z</time>
      </trkpt>
      <trkpt lat="43.75869" lon="5.23579">
        <ele>148.66</ele>
        <time>2017-02-23T09:02:09Z</time>
      </trkpt>
      <trkpt lat="43.7587" lon="5.23576">
        <ele>148.66</ele>
        <time>2017-02-23T09:02:15Z</time>
      </trkpt>
      <trkpt lat="43.7587" lon="5.23572">
        <ele>148.66</ele>
        <time>2017-02-23T09:02:18Z</time>
      </trkpt>
      <trkpt lat="43.75874" lon="5.23555">
        <ele>149.14</ele>
        <time>2017-02-23T09:02:32Z</time>
      </trkpt>
      <trkpt lat="43.75878" lon="5.23553">
        <ele>149.62</ele>
        <time>2017-02-23T09:02:46Z</time>
      </trkpt>
      <trkpt lat="43.75878" lon="5.23553">
        <ele>149.62</ele>
        <time>2017-02-23T09:02:47Z</time>
      </trkpt>
      <trkpt lat="43.75878" lon="5.23552">
        <ele>149.14</ele>
        <time>2017-02-23T09:02:49Z</time>
      </trkpt>
      <trkpt lat="43.75871" lon="5.23535">
        <ele>149.14</ele>
        <time>2017-02-23T09:03:03Z</time>
      </trkpt>
      <trkpt lat="43.75867" lon="5.23522">
        <ele>149.14</ele>
        <time>2017-02-23T09:03:15Z</time>
      </trkpt>
      <trkpt lat="43.75863" lon="5.23524">
        <ele>149.14</ele>
        <time>2017-02-23T09:03:26Z</time>
      </trkpt>
      <trkpt lat="43.75864" lon="5.23527">
        <ele>149.14</ele>
        <time>2017-02-23T09:03:40Z</time>
      </trkpt>
      <trkpt lat="43.75861" lon="5.23529">
        <ele>149.14</ele>
        <time>2017-02-23T09:03:51Z</time>
      </trkpt>
      <trkpt lat="43.75862" lon="5.23527">
        <ele>149.14</ele>
        <time>2017-02-23T09:04:11Z</time>
      </trkpt>
      <trkpt lat="43.75862" lon="5.23527">
        <ele>149.14</ele>
        <time>2017-02-23T09:04:24Z</time>
      </trkpt>
      <trkpt lat="43.75865" lon="5.23524">
        <ele>149.62</ele>
        <time>2017-02-23T09:04:38Z</time>
      </trkpt>
      <trkpt lat="43.75866" lon="5.2352">
        <ele>149.14</ele>
        <time>2017-02-23T09:04:50Z</time>
      </trkpt>
      <trkpt lat="43.75863" lon="5.23513">
        <ele>149.14</ele>
        <time>2017-02-23T09:05:03Z</time>
      </trkpt>
      <trkpt lat="43.75859" lon="5.235">
        <ele>149.14</ele>
        <time>2017-02-23T09:05:14Z</time>
      </trkpt>
      <trkpt lat="43.75853" lon="5.23483">
        <ele>149.14</ele>
        <time>2017-02-23T09:05:29Z</time>
      </trkpt>
      <trkpt lat="43.75848" lon="5.23467">
        <ele>148.66</ele>
        <time>2017-02-23T09:05:42Z</time>
      </trkpt>
      <trkpt lat="43.75844" lon="5.2345">
        <ele>146.26</ele>
        <time>2017-02-23T09:05:57Z</time>
      </trkpt>
      <trkpt lat="43.75842" lon="5.23442">
        <ele>145.78</ele>
        <time>2017-02-23T09:06:03Z</time>
      </trkpt>
      <trkpt lat="43.75838" lon="5.23425">
        <ele>144.34</ele>
        <time>2017-02-23T09:06:16Z</time>
      </trkpt>
      <trkpt lat="43.7583" lon="5.23404">
        <ele>142.89</ele>
        <time>2017-02-23T09:06:32Z</time>
      </trkpt>
      <trkpt lat="43.75827" lon="5.23389">
        <ele>141.93</ele>
        <time>2017-02-23T09:06:43Z</time>
      </trkpt>
      <trkpt lat="43.75833" lon="5.23383">
        <ele>142.41</ele>
        <time>2017-02-23T09:06:56Z</time>
      </trkpt>
      <trkpt lat="43.75835" lon="5.23385">
        <ele>142.41</ele>
        <time>2017-02-23T09:06:59Z</time>
      </trkpt>
      <trkpt lat="43.75845" lon="5.23388">
        <ele>143.37</ele>
        <time>2017-02-23T09:07:10Z</time>
      </trkpt>
      <trkpt lat="43.7585" lon="5.23389">
        <ele>143.37</ele>
        <time>2017-02-23T09:07:17Z</time>
      </trkpt>
      <trkpt lat="43.75856" lon="5.23387">
        <ele>143.85</ele>
        <time>2017-02-23T09:07:29Z</time>
      </trkpt>
      <trkpt lat="43.75868" lon="5.23384">
        <ele>144.34</ele>
        <time>2017-02-23T09:07:48Z</time>
      </trkpt>
      <trkpt lat="43.75881" lon="5.23379">
        <ele>144.82</ele>
        <time>2017-02-23T09:08:05Z</time>
      </trkpt>
      <trkpt lat="43.75882" lon="5.23379">
        <ele>144.82</ele>
        <time>2017-02-23T09:08:07Z</time>
      </trkpt>
      <trkpt lat="43.75891" lon="5.23377">
        <ele>144.82</ele>
        <time>2017-02-23T09:08:15Z</time>
      </trkpt>
      <trkpt lat="43.75907" lon="5.23372">
        <ele>145.78</ele>
        <time>2017-02-23T09:08:30Z</time>
      </trkpt>
      <trkpt lat="43.75909" lon="5.23371">
        <ele>145.78</ele>
        <time>2017-02-23T09:08:32Z</time>
      </trkpt>
      <trkpt lat="43.75912" lon="5.23371">
        <ele>146.26</ele>
        <time>2017-02-23T09:08:45Z</time>
      </trkpt>
      <trkpt lat="43.75913" lon="5.23371">
        <ele>145.78</ele>
        <time>2017-02-23T09:09:08Z</time>
      </trkpt>
      <trkpt lat="43.75912" lon="5.2337">
        <ele>145.78</ele>
        <time>2017-02-23T09:09:28Z</time>
      </trkpt>
      <trkpt lat="43.75912" lon="5.2337">
        <ele>145.78</ele>
        <time>2017-02-23T09:09:50Z</time>
      </trkpt>
      <trkpt lat="43.75912" lon="5.23371">
        <ele>145.78</ele>
        <time>2017-02-23T09:10:11Z</time>
      </trkpt>
      <trkpt lat="43.75913" lon="5.23371">
        <ele>145.78</ele>
        <time>2017-02-23T09:10:37Z</time>
      </trkpt>
      <trkpt lat="43.75914" lon="5.23371">
        <ele>145.78</ele>
        <time>2017-02-23T09:10:53Z</time>
      </trkpt>
      <trkpt lat="43.75915" lon="5.23371">
        <ele>145.78</ele>
        <time>2017-02-23T09:11:06Z</time>
      </trkpt>
      <trkpt lat="43.75916" lon="5.23371">
        <ele>145.78</ele>
        <time>2017-02-23T09:11:37Z</time>
      </trkpt>
      <trkpt lat="43.75919" lon="5.23368">
        <ele>145.78</ele>
        <time>2017-02-23T09:11:53Z</time>
      </trkpt>
      <trkpt lat="43.75931" lon="5.23366">
        <ele>146.74</ele>
        <time>2017-02-23T09:12:08Z</time>
      </trkpt>
      <trkpt lat="43.75936" lon="5.23364">
        <ele>147.22</ele>
        <time>2017-02-23T09:12:24Z</time>
      </trkpt>
      <trkpt lat="43.7594" lon="5.23363">
        <ele>147.22</ele>
        <time>2017-02-23T09:12:37Z</time>
      </trkpt>
      <trkpt lat="43.75941" lon="5.23365">
        <ele>147.22</ele>
        <time>2017-02-23T09:12:54Z</time>
      </trkpt>
      <trkpt lat="43.75942" lon="5.23365">
        <ele>147.22</ele>
        <time>2017-02-23T09:13:08Z</time>
      </trkpt>
      <trkpt lat="43.75942" lon="5.23366">
        <ele>147.22</ele>
        <time>2017-02-23T09:13:27Z</time>
      </trkpt>
      <trkpt lat="43.75943" lon="5.23366">
        <ele>147.22</ele>
        <time>2017-02-23T09:13:49Z</time>
      </trkpt>
      <trkpt lat="43.75943" lon="5.23365">
        <ele>147.22</ele>
        <time>2017-02-23T09:14:09Z</time>
      </trkpt>
      <trkpt lat="43.75955" lon="5.23362">
        <ele>147.7</ele>
        <time>2017-02-23T09:14:23Z</time>
      </trkpt>
      <trkpt lat="43.75966" lon="5.23358">
        <ele>148.66</ele>
        <time>2017-02-23T09:14:36Z</time>
      </trkpt>
      <trkpt lat="43.75973" lon="5.2335">
        <ele>148.66</ele>
        <time>2017-02-23T09:14:47Z</time>
      </trkpt>
      <trkpt lat="43.75991" lon="5.2334">
        <ele>149.14</ele>
        <time>2017-02-23T09:15:05Z</time>
      </trkpt>
      <trkpt lat="43.76005" lon="5.23337">
        <ele>150.1</ele>
        <time>2017-02-23T09:15:19Z</time>
      </trkpt>
      <trkpt lat="43.76019" lon="5.23334">
        <ele>150.58</ele>
        <time>2017-02-23T09:15:34Z</time>
      </trkpt>
      <trkpt lat="43.76029" lon="5.23333">
        <ele>151.06</ele>
        <time>2017-02-23T09:15:48Z</time>
      </trkpt>
      <trkpt lat="43.76043" lon="5.23332">
        <ele>151.54</ele>
        <time>2017-02-23T09:16:04Z</time>
      </trkpt>
      <trkpt lat="43.76056" lon="5.2333">
        <ele>152.51</ele>
        <time>2017-02-23T09:16:19Z</time>
      </trkpt>
      <trkpt lat="43.76068" lon="5.23324">
        <ele>152.99</ele>
        <time>2017-02-23T09:16:31Z</time>
      </trkpt>
      <trkpt lat="43.7608" lon="5.23323">
        <ele>153.95</ele>
        <time>2017-02-23T09:16:45Z</time>
      </trkpt>
      <trkpt lat="43.7609" lon="5.2332">
        <ele>153.95</ele>
        <time>2017-02-23T09:16:59Z</time>
      </trkpt>
      <trkpt lat="43.76102" lon="5.23318">
        <ele>154.91</ele>
        <time>2017-02-23T09:17:14Z</time>
      </trkpt>
      <trkpt lat="43.76114" lon="5.23314">
        <ele>155.39</ele>
        <time>2017-02-23T09:17:29Z</time>
      </trkpt>
      <trkpt lat="43.76127" lon="5.23307">
        <ele>156.35</ele>
        <time>2017-02-23T09:17:43Z</time>
      </trkpt>
      <trkpt lat="43.76141" lon="5.23298">
        <ele>156.35</ele>
        <time>2017-02-23T09:17:59Z</time>
      </trkpt>
      <trkpt lat="43.76153" lon="5.23301">
        <ele>156.35</ele>
        <time>2017-02-23T09:18:13Z</time>
      </trkpt>
      <trkpt lat="43.76156" lon="5.23302">
        <ele>156.83</ele>
        <time>2017-02-23T09:18:17Z</time>
      </trkpt>
      <trkpt lat="43.76169" lon="5.23307">
        <ele>157.79</ele>
        <time>2017-02-23T09:18:31Z</time>
      </trkpt>
      <trkpt lat="43.76177" lon="5.2331">
        <ele>157.79</ele>
        <time>2017-02-23T09:18:45Z</time>
      </trkpt>
      <trkpt lat="43.76189" lon="5.23304">
        <ele>158.75</ele>
        <time>2017-02-23T09:19:00Z</time>
      </trkpt>
      <trkpt lat="43.76199" lon="5.23293">
        <ele>159.24</ele>
        <time>2017-02-23T09:19:14Z</time>
      </trkpt>
      <trkpt lat="43.76203" lon="5.23277">
        <ele>159.72</ele>
        <time>2017-02-23T09:19:29Z</time>
      </trkpt>
      <trkpt lat="43.76204" lon="5.23265">
        <ele>160.68</ele>
        <time>2017-02-23T09:19:38Z</time>
      </trkpt>
      <trkpt lat="43.76206" lon="5.23254">
        <ele>160.68</ele>
        <time>2017-02-23T09:19:47Z</time>
      </trkpt>
      <trkpt lat="43.76206" lon="5.23249">
        <ele>160.68</ele>
        <time>2017-02-23T09:19:50Z</time>
      </trkpt>
      <trkpt lat="43.76207" lon="5.23235">
        <ele>161.64</ele>
        <time>2017-02-23T09:20:02Z</time>
      </trkpt>
      <trkpt lat="43.76205" lon="5.23223">
        <ele>162.6</ele>
        <time>2017-02-23T09:20:13Z</time>
      </trkpt>
      <trkpt lat="43.76206" lon="5.23208">
        <ele>163.08</ele>
        <time>2017-02-23T09:20:25Z</time>
      </trkpt>
      <trkpt lat="43.76209" lon="5.23195">
        <ele>164.04</ele>
        <time>2017-02-23T09:20:38Z</time>
      </trkpt>
      <trkpt lat="43.76215" lon="5.23177">
        <ele>164.52</ele>
        <time>2017-02-23T09:20:53Z</time>
      </trkpt>
      <trkpt lat="43.76213" lon="5.23164">
        <ele>165.48</ele>
        <time>2017-02-23T09:21:06Z</time>
      </trkpt>
      <trkpt lat="43.76209" lon="5.2315">
        <ele>166.45</ele>
        <time>2017-02-23T09:21:21Z</time>
      </trkpt>
      <trkpt lat="43.76201" lon="5.2314">
        <ele>167.41</ele>
        <time>2017-02-23T09:21:34Z</time>
      </trkpt>
      <trkpt lat="43.76194" lon="5.23129">
        <ele>167.89</ele>
        <time>2017-02-23T09:21:48Z</time>
      </trkpt>
      <trkpt lat="43.76189" lon="5.23123">
        <ele>168.37</ele>
        <time>2017-02-23T09:22:01Z</time>
      </trkpt>
      <trkpt lat="43.76182" lon="5.23113">
        <ele>168.85</ele>
        <time>2017-02-23T09:22:13Z</time>
      </trkpt>
      <trkpt lat="43.76173" lon="5.23098">
        <ele>169.33</ele>
        <time>2017-02-23T09:22:27Z</time>
      </trkpt>
      <trkpt lat="43.76165" lon="5.23085">
        <ele>169.81</ele>
        <time>2017-02-23T09:22:40Z</time>
      </trkpt>
      <trkpt lat="43.7616" lon="5.23067">
        <ele>170.29</ele>
        <time>2017-02-23T09:22:54Z</time>
      </trkpt>
      <trkpt lat="43.76161" lon="5.23057">
        <ele>171.25</ele>
        <time>2017-02-23T09:23:06Z</time>
      </trkpt>
      <trkpt lat="43.76164" lon="5.23043">
        <ele>171.73</ele>
        <time>2017-02-23T09:23:17Z</time>
      </trkpt>
      <trkpt lat="43.76175" lon="5.23038">
        <ele>172.69</ele>
        <time>2017-02-23T09:23:30Z</time>
      </trkpt>
      <trkpt lat="43.76185" lon="5.23035">
        <ele>173.17</ele>
        <time>2017-02-23T09:23:43Z</time>
      </trkpt>
      <trkpt lat="43.762" lon="5.23032">
        <ele>173.66</ele>
        <time>2017-02-23T09:23:55Z</time>
      </trkpt>
      <trkpt lat="43.76209" lon="5.23031">
        <ele>174.14</ele>
        <time>2017-02-23T09:24:07Z</time>
      </trkpt>
      <trkpt lat="43.76221" lon="5.23031">
        <ele>175.1</ele>
        <time>2017-02-23T09:24:21Z</time>
      </trkpt>
      <trkpt lat="43.7623" lon="5.23031">
        <ele>175.58</ele>
        <time>2017-02-23T09:24:36Z</time>
      </trkpt>
      <trkpt lat="43.76237" lon="5.23027">
        <ele>176.06</ele>
        <time>2017-02-23T09:24:49Z</time>
      </trkpt>
      <trkpt lat="43.76248" lon="5.23019">
        <ele>176.54</ele>
        <time>2017-02-23T09:25:02Z</time>
      </trkpt>
      <trkpt lat="43.76254" lon="5.23011">
        <ele>177.02</ele>
        <time>2017-02-23T09:25:14Z</time>
      </trkpt>
      <trkpt lat="43.7626" lon="5.23">
        <ele>177.02</ele>
        <time>2017-02-23T09:25:27Z</time>
      </trkpt>
      <trkpt lat="43.76268" lon="5.22989">
        <ele>177.5</ele>
        <time>2017-02-23T09:25:39Z</time>
      </trkpt>
      <trkpt lat="43.76277" lon="5.22975">
        <ele>177.98</ele>
        <time>2017-02-23T09:25:53Z</time>
      </trkpt>
      <trkpt lat="43.76287" lon="5.2296">
        <ele>178.46</ele>
        <time>2017-02-23T09:26:09Z</time>
      </trkpt>
      <trkpt lat="43.76292" lon="5.22944">
        <ele>179.42</ele>
        <time>2017-02-23T09:26:23Z</time>
      </trkpt>
      <trkpt lat="43.763" lon="5.22928">
        <ele>180.38</ele>
        <time>2017-02-23T09:26:37Z</time>
      </trkpt>
      <trkpt lat="43.76307" lon="5.22915">
        <ele>180.38</ele>
        <time>2017-02-23T09:26:51Z</time>
      </trkpt>
      <trkpt lat="43.76315" lon="5.22901">
        <ele>180.87</ele>
        <time>2017-02-23T09:27:05Z</time>
      </trkpt>
      <trkpt lat="43.76323" lon="5.22881">
        <ele>181.83</ele>
        <time>2017-02-23T09:27:21Z</time>
      </trkpt>
      <trkpt lat="43.76324" lon="5.22879">
        <ele>181.83</ele>
        <time>2017-02-23T09:27:23Z</time>
      </trkpt>
      <trkpt lat="43.76333" lon="5.22865">
        <ele>182.31</ele>
        <time>2017-02-23T09:27:39Z</time>
      </trkpt>
      <trkpt lat="43.76338" lon="5.22853">
        <ele>182.79</ele>
        <time>2017-02-23T09:27:51Z</time>
      </trkpt>
      <trkpt lat="43.76341" lon="5.22838">
        <ele>183.75</ele>
        <time>2017-02-23T09:28:03Z</time>
      </trkpt>
      <trkpt lat="43.76342" lon="5.22837">
        <ele>183.75</ele>
        <time>2017-02-23T09:28:04Z</time>
      </trkpt>
      <trkpt lat="43.76344" lon="5.2283">
        <ele>183.75</ele>
        <time>2017-02-23T09:28:09Z</time>
      </trkpt>
      <trkpt lat="43.76353" lon="5.22811">
        <ele>184.71</ele>
        <time>2017-02-23T09:28:24Z</time>
      </trkpt>
      <trkpt lat="43.76355" lon="5.22807">
        <ele>184.71</ele>
        <time>2017-02-23T09:28:27Z</time>
      </trkpt>
      <trkpt lat="43.76364" lon="5.22796">
        <ele>185.19</ele>
        <time>2017-02-23T09:28:40Z</time>
      </trkpt>
      <trkpt lat="43.76374" lon="5.22788">
        <ele>186.15</ele>
        <time>2017-02-23T09:28:52Z</time>
      </trkpt>
      <trkpt lat="43.76381" lon="5.22775">
        <ele>186.63</ele>
        <time>2017-02-23T09:29:06Z</time>
      </trkpt>
      <trkpt lat="43.76389" lon="5.22762">
        <ele>187.59</ele>
        <time>2017-02-23T09:29:20Z</time>
      </trkpt>
      <trkpt lat="43.76393" lon="5.2276">
        <ele>187.59</ele>
        <time>2017-02-23T09:29:33Z</time>
      </trkpt>
      <trkpt lat="43.76393" lon="5.22765">
        <ele>186.63</ele>
        <time>2017-02-23T09:29:48Z</time>
      </trkpt>
      <trkpt lat="43.76393" lon="5.22764">
        <ele>186.63</ele>
        <time>2017-02-23T09:30:10Z</time>
      </trkpt>
      <trkpt lat="43.76391" lon="5.22762">
        <ele>186.63</ele>
        <time>2017-02-23T09:30:40Z</time>
      </trkpt>
      <trkpt lat="43.76391" lon="5.22762">
        <ele>186.63</ele>
        <time>2017-02-23T09:31:06Z</time>
      </trkpt>
      <trkpt lat="43.7639" lon="5.22764">
        <ele>187.59</ele>
        <time>2017-02-23T09:31:33Z</time>
      </trkpt>
      <trkpt lat="43.76392" lon="5.2276">
        <ele>187.59</ele>
        <time>2017-02-23T09:31:47Z</time>
      </trkpt>
      <trkpt lat="43.76394" lon="5.22757">
        <ele>188.08</ele>
        <time>2017-02-23T09:32:01Z</time>
      </trkpt>
      <trkpt lat="43.76393" lon="5.22756">
        <ele>187.59</ele>
        <time>2017-02-23T09:32:16Z</time>
      </trkpt>
      <trkpt lat="43.76393" lon="5.22753">
        <ele>188.08</ele>
        <time>2017-02-23T09:32:34Z</time>
      </trkpt>
      <trkpt lat="43.76393" lon="5.22752">
        <ele>188.08</ele>
        <time>2017-02-23T09:32:57Z</time>
      </trkpt>
      <trkpt lat="43.76394" lon="5.22752">
        <ele>188.08</ele>
        <time>2017-02-23T09:33:16Z</time>
      </trkpt>
      <trkpt lat="43.76395" lon="5.2275">
        <ele>188.08</ele>
        <time>2017-02-23T09:33:43Z</time>
      </trkpt>
      <trkpt lat="43.76395" lon="5.2275">
        <ele>188.08</ele>
        <time>2017-02-23T09:34:09Z</time>
      </trkpt>
      <trkpt lat="43.76397" lon="5.22746">
        <ele>188.08</ele>
        <time>2017-02-23T09:34:29Z</time>
      </trkpt>
      <trkpt lat="43.76405" lon="5.22731">
        <ele>189.04</ele>
        <time>2017-02-23T09:34:49Z</time>
      </trkpt>
      <trkpt lat="43.76416" lon="5.22716">
        <ele>190</ele>
        <time>2017-02-23T09:35:05Z</time>
      </trkpt>
      <trkpt lat="43.76427" lon="5.22707">
        <ele>191.44</ele>
        <time>2017-02-23T09:35:21Z</time>
      </trkpt>
      <trkpt lat="43.76436" lon="5.22703">
        <ele>192.88</ele>
        <time>2017-02-23T09:35:35Z</time>
      </trkpt>
      <trkpt lat="43.76447" lon="5.22692">
        <ele>194.32</ele>
        <time>2017-02-23T09:35:51Z</time>
      </trkpt>
      <trkpt lat="43.76448" lon="5.22691">
        <ele>194.32</ele>
        <time>2017-02-23T09:35:52Z</time>
      </trkpt>
      <trkpt lat="43.76455" lon="5.22676">
        <ele>195.28</ele>
        <time>2017-02-23T09:36:05Z</time>
      </trkpt>
      <trkpt lat="43.7646" lon="5.22655">
        <ele>195.77</ele>
        <time>2017-02-23T09:36:21Z</time>
      </trkpt>
      <trkpt lat="43.76467" lon="5.22635">
        <ele>196.25</ele>
        <time>2017-02-23T09:36:39Z</time>
      </trkpt>
      <trkpt lat="43.76471" lon="5.22624">
        <ele>196.73</ele>
        <time>2017-02-23T09:36:53Z</time>
      </trkpt>
      <trkpt lat="43.76482" lon="5.22607">
        <ele>196.73</ele>
        <time>2017-02-23T09:37:09Z</time>
      </trkpt>
      <trkpt lat="43.76489" lon="5.22592">
        <ele>197.21</ele>
        <time>2017-02-23T09:37:25Z</time>
      </trkpt>
      <trkpt lat="43.76498" lon="5.22574">
        <ele>197.21</ele>
        <time>2017-02-23T09:37:40Z</time>
      </trkpt>
      <trkpt lat="43.76503" lon="5.2255">
        <ele>197.69</ele>
        <time>2017-02-23T09:37:58Z</time>
      </trkpt>
      <trkpt lat="43.76509" lon="5.22533">
        <ele>198.65</ele>
        <time>2017-02-23T09:38:12Z</time>
      </trkpt>
      <trkpt lat="43.76518" lon="5.22519">
        <ele>198.65</ele>
        <time>2017-02-23T09:38:30Z</time>
      </trkpt>
      <trkpt lat="43.76535" lon="5.22505">
        <ele>199.61</ele>
        <time>2017-02-23T09:38:51Z</time>
      </trkpt>
      <trkpt lat="43.76544" lon="5.22494">
        <ele>200.09</ele>
        <time>2017-02-23T09:39:07Z</time>
      </trkpt>
      <trkpt lat="43.76556" lon="5.22495">
        <ele>201.05</ele>
        <time>2017-02-23T09:39:27Z</time>
      </trkpt>
      <trkpt lat="43.76582" lon="5.22492">
        <ele>202.01</ele>
        <time>2017-02-23T09:39:49Z</time>
      </trkpt>
      <trkpt lat="43.76596" lon="5.22488">
        <ele>202.98</ele>
        <time>2017-02-23T09:40:11Z</time>
      </trkpt>
      <trkpt lat="43.76609" lon="5.22502">
        <ele>203.94</ele>
        <time>2017-02-23T09:40:30Z</time>
      </trkpt>
      <trkpt lat="43.76621" lon="5.22527">
        <ele>204.42</ele>
        <time>2017-02-23T09:40:49Z</time>
      </trkpt>
      <trkpt lat="43.76639" lon="5.22525">
        <ele>205.38</ele>
        <time>2017-02-23T09:41:05Z</time>
      </trkpt>
      <trkpt lat="43.76651" lon="5.22528">
        <ele>207.3</ele>
        <time>2017-02-23T09:41:25Z</time>
      </trkpt>
      <trkpt lat="43.76669" lon="5.22519">
        <ele>208.74</ele>
        <time>2017-02-23T09:41:45Z</time>
      </trkpt>
      <trkpt lat="43.76672" lon="5.22499">
        <ele>209.22</ele>
        <time>2017-02-23T09:42:01Z</time>
      </trkpt>
      <trkpt lat="43.76673" lon="5.22495">
        <ele>209.22</ele>
        <time>2017-02-23T09:42:04Z</time>
      </trkpt>
      <trkpt lat="43.76676" lon="5.22474">
        <ele>210.19</ele>
        <time>2017-02-23T09:42:18Z</time>
      </trkpt>
      <trkpt lat="43.76679" lon="5.22466">
        <ele>210.67</ele>
        <time>2017-02-23T09:42:25Z</time>
      </trkpt>
      <trkpt lat="43.76689" lon="5.22451">
        <ele>211.15</ele>
        <time>2017-02-23T09:42:40Z</time>
      </trkpt>
      <trkpt lat="43.76696" lon="5.22436">
        <ele>212.11</ele>
        <time>2017-02-23T09:42:53Z</time>
      </trkpt>
      <trkpt lat="43.76701" lon="5.22422">
        <ele>212.59</ele>
        <time>2017-02-23T09:43:04Z</time>
      </trkpt>
      <trkpt lat="43.76706" lon="5.22404">
        <ele>213.07</ele>
        <time>2017-02-23T09:43:19Z</time>
      </trkpt>
      <trkpt lat="43.76712" lon="5.22386">
        <ele>213.55</ele>
        <time>2017-02-23T09:43:33Z</time>
      </trkpt>
      <trkpt lat="43.76717" lon="5.22371">
        <ele>214.03</ele>
        <time>2017-02-23T09:43:45Z</time>
      </trkpt>
      <trkpt lat="43.76719" lon="5.22362">
        <ele>214.51</ele>
        <time>2017-02-23T09:43:51Z</time>
      </trkpt>
      <trkpt lat="43.76723" lon="5.2235">
        <ele>214.51</ele>
        <time>2017-02-23T09:43:59Z</time>
      </trkpt>
      <trkpt lat="43.76728" lon="5.22329">
        <ele>215.47</ele>
        <time>2017-02-23T09:44:15Z</time>
      </trkpt>
      <trkpt lat="43.76732" lon="5.2232">
        <ele>215.95</ele>
        <time>2017-02-23T09:44:24Z</time>
      </trkpt>
      <trkpt lat="43.76741" lon="5.22307">
        <ele>216.43</ele>
        <time>2017-02-23T09:44:37Z</time>
      </trkpt>
      <trkpt lat="43.7675" lon="5.22294">
        <ele>217.4</ele>
        <time>2017-02-23T09:44:51Z</time>
      </trkpt>
      <trkpt lat="43.76761" lon="5.2228">
        <ele>217.4</ele>
        <time>2017-02-23T09:45:06Z</time>
      </trkpt>
      <trkpt lat="43.76773" lon="5.2227">
        <ele>218.36</ele>
        <time>2017-02-23T09:45:21Z</time>
      </trkpt>
      <trkpt lat="43.76774" lon="5.22268">
        <ele>217.88</ele>
        <time>2017-02-23T09:45:23Z</time>
      </trkpt>
      <trkpt lat="43.76787" lon="5.22256">
        <ele>218.84</ele>
        <time>2017-02-23T09:45:38Z</time>
      </trkpt>
      <trkpt lat="43.76796" lon="5.22248">
        <ele>219.8</ele>
        <time>2017-02-23T09:45:54Z</time>
      </trkpt>
      <trkpt lat="43.76796" lon="5.22247">
        <ele>218.84</ele>
        <time>2017-02-23T09:46:04Z</time>
      </trkpt>
      <trkpt lat="43.76793" lon="5.22248">
        <ele>218.36</ele>
        <time>2017-02-23T09:46:30Z</time>
      </trkpt>
      <trkpt lat="43.76793" lon="5.22248">
        <ele>218.84</ele>
        <time>2017-02-23T09:46:54Z</time>
      </trkpt>
      <trkpt lat="43.76794" lon="5.22247">
        <ele>219.8</ele>
        <time>2017-02-23T09:47:09Z</time>
      </trkpt>
      <trkpt lat="43.76794" lon="5.22248">
        <ele>220.28</ele>
        <time>2017-02-23T09:47:26Z</time>
      </trkpt>
      <trkpt lat="43.76795" lon="5.22248">
        <ele>219.8</ele>
        <time>2017-02-23T09:47:52Z</time>
      </trkpt>
      <trkpt lat="43.76795" lon="5.22248">
        <ele>220.28</ele>
        <time>2017-02-23T09:48:15Z</time>
      </trkpt>
      <trkpt lat="43.76795" lon="5.22248">
        <ele>220.28</ele>
        <time>2017-02-23T09:48:29Z</time>
      </trkpt>
      <trkpt lat="43.76796" lon="5.22249">
        <ele>220.28</ele>
        <time>2017-02-23T09:48:45Z</time>
      </trkpt>
      <trkpt lat="43.768" lon="5.22248">
        <ele>220.28</ele>
        <time>2017-02-23T09:49:00Z</time>
      </trkpt>
      <trkpt lat="43.76807" lon="5.22243">
        <ele>220.76</ele>
        <time>2017-02-23T09:49:12Z</time>
      </trkpt>
      <trkpt lat="43.76818" lon="5.22237">
        <ele>221.24</ele>
        <time>2017-02-23T09:49:26Z</time>
      </trkpt>
      <trkpt lat="43.76826" lon="5.22232">
        <ele>221.72</ele>
        <time>2017-02-23T09:49:35Z</time>
      </trkpt>
      <trkpt lat="43.76842" lon="5.22227">
        <ele>222.68</ele>
        <time>2017-02-23T09:49:52Z</time>
      </trkpt>
      <trkpt lat="43.76851" lon="5.22226">
        <ele>223.64</ele>
        <time>2017-02-23T09:50:05Z</time>
      </trkpt>
      <trkpt lat="43.76858" lon="5.22224">
        <ele>225.09</ele>
        <time>2017-02-23T09:50:16Z</time>
      </trkpt>
      <trkpt lat="43.76862" lon="5.2222">
        <ele>225.57</ele>
        <time>2017-02-23T09:50:21Z</time>
      </trkpt>
      <trkpt lat="43.76871" lon="5.22215">
        <ele>227.01</ele>
        <time>2017-02-23T09:50:35Z</time>
      </trkpt>
      <trkpt lat="43.76879" lon="5.22209">
        <ele>228.93</ele>
        <time>2017-02-23T09:50:49Z</time>
      </trkpt>
      <trkpt lat="43.7689" lon="5.222">
        <ele>230.37</ele>
        <time>2017-02-23T09:51:02Z</time>
      </trkpt>
      <trkpt lat="43.76894" lon="5.22197">
        <ele>231.33</ele>
        <time>2017-02-23T09:51:16Z</time>
      </trkpt>
      <trkpt lat="43.76899" lon="5.22203">
        <ele>232.78</ele>
        <time>2017-02-23T09:51:30Z</time>
      </trkpt>
      <trkpt lat="43.76899" lon="5.22207">
        <ele>234.22</ele>
        <time>2017-02-23T09:51:43Z</time>
      </trkpt>
      <trkpt lat="43.76898" lon="5.22221">
        <ele>237.1</ele>
        <time>2017-02-23T09:51:59Z</time>
      </trkpt>
      <trkpt lat="43.76895" lon="5.22228">
        <ele>238.54</ele>
        <time>2017-02-23T09:52:11Z</time>
      </trkpt>
      <trkpt lat="43.76891" lon="5.22236">
        <ele>241.43</ele>
        <time>2017-02-23T09:52:27Z</time>
      </trkpt>
      <trkpt lat="43.7689" lon="5.22243">
        <ele>243.35</ele>
        <time>2017-02-23T09:52:40Z</time>
      </trkpt>
      <trkpt lat="43.7689" lon="5.22245">
        <ele>245.27</ele>
        <time>2017-02-23T09:52:56Z</time>
      </trkpt>
      <trkpt lat="43.7689" lon="5.22247">
        <ele>246.23</ele>
        <time>2017-02-23T09:53:05Z</time>
      </trkpt>
      <trkpt lat="43.76893" lon="5.22253">
        <ele>247.68</ele>
        <time>2017-02-23T09:53:16Z</time>
      </trkpt>
      <trkpt lat="43.76893" lon="5.22255">
        <ele>249.6</ele>
        <time>2017-02-23T09:53:29Z</time>
      </trkpt>
      <trkpt lat="43.76892" lon="5.22259">
        <ele>250.56</ele>
        <time>2017-02-23T09:53:41Z</time>
      </trkpt>
      <trkpt lat="43.7689" lon="5.22262">
        <ele>252.48</ele>
        <time>2017-02-23T09:53:53Z</time>
      </trkpt>
      <trkpt lat="43.7689" lon="5.22263">
        <ele>253.93</ele>
        <time>2017-02-23T09:54:05Z</time>
      </trkpt>
      <trkpt lat="43.76889" lon="5.22265">
        <ele>253.93</ele>
        <time>2017-02-23T09:54:07Z</time>
      </trkpt>
      <trkpt lat="43.76887" lon="5.22269">
        <ele>254.89</ele>
        <time>2017-02-23T09:54:12Z</time>
      </trkpt>
      <trkpt lat="43.76883" lon="5.22275">
        <ele>256.81</ele>
        <time>2017-02-23T09:54:24Z</time>
      </trkpt>
      <trkpt lat="43.76879" lon="5.22282">
        <ele>258.73</ele>
        <time>2017-02-23T09:54:38Z</time>
      </trkpt>
      <trkpt lat="43.76876" lon="5.22291">
        <ele>260.65</ele>
        <time>2017-02-23T09:54:52Z</time>
      </trkpt>
      <trkpt lat="43.76873" lon="5.22299">
        <ele>262.1</ele>
        <time>2017-02-23T09:55:05Z</time>
      </trkpt>
      <trkpt lat="43.76869" lon="5.22307">
        <ele>263.06</ele>
        <time>2017-02-23T09:55:17Z</time>
      </trkpt>
      <trkpt lat="43.76869" lon="5.2231">
        <ele>264.5</ele>
        <time>2017-02-23T09:55:27Z</time>
      </trkpt>
      <trkpt lat="43.76868" lon="5.22314">
        <ele>264.98</ele>
        <time>2017-02-23T09:55:41Z</time>
      </trkpt>
      <trkpt lat="43.76868" lon="5.22321">
        <ele>266.9</ele>
        <time>2017-02-23T09:55:55Z</time>
      </trkpt>
      <trkpt lat="43.76873" lon="5.22329">
        <ele>269.31</ele>
        <time>2017-02-23T09:56:10Z</time>
      </trkpt>
      <trkpt lat="43.76877" lon="5.22337">
        <ele>270.75</ele>
        <time>2017-02-23T09:56:24Z</time>
      </trkpt>
      <trkpt lat="43.76881" lon="5.22351">
        <ele>272.19</ele>
        <time>2017-02-23T09:56:37Z</time>
      </trkpt>
      <trkpt lat="43.76884" lon="5.22366">
        <ele>273.63</ele>
        <time>2017-02-23T09:56:49Z</time>
      </trkpt>
      <trkpt lat="43.76888" lon="5.22374">
        <ele>275.07</ele>
        <time>2017-02-23T09:56:59Z</time>
      </trkpt>
      <trkpt lat="43.76891" lon="5.22374">
        <ele>276.04</ele>
        <time>2017-02-23T09:57:10Z</time>
      </trkpt>
      <trkpt lat="43.76894" lon="5.22383">
        <ele>277.96</ele>
        <time>2017-02-23T09:57:28Z</time>
      </trkpt>
      <trkpt lat="43.76891" lon="5.22413">
        <ele>277.96</ele>
        <time>2017-02-23T09:57:44Z</time>
      </trkpt>
      <trkpt lat="43.76897" lon="5.22431">
        <ele>278.92</ele>
        <time>2017-02-23T09:57:58Z</time>
      </trkpt>
      <trkpt lat="43.76897" lon="5.22433">
        <ele>279.4</ele>
        <time>2017-02-23T09:58:13Z</time>
      </trkpt>
      <trkpt lat="43.76897" lon="5.22433">
        <ele>279.4</ele>
        <time>2017-02-23T09:58:32Z</time>
      </trkpt>
      <trkpt lat="43.76897" lon="5.22434">
        <ele>278.92</ele>
        <time>2017-02-23T09:58:45Z</time>
      </trkpt>
      <trkpt lat="43.76893" lon="5.2244">
        <ele>279.4</ele>
        <time>2017-02-23T09:59:03Z</time>
      </trkpt>
      <trkpt lat="43.76889" lon="5.22446">
        <ele>278.92</ele>
        <time>2017-02-23T09:59:18Z</time>
      </trkpt>
      <trkpt lat="43.76886" lon="5.22449">
        <ele>278.92</ele>
        <time>2017-02-23T09:59:35Z</time>
      </trkpt>
      <trkpt lat="43.76886" lon="5.22449">
        <ele>278.44</ele>
        <time>2017-02-23T09:59:55Z</time>
      </trkpt>
      <trkpt lat="43.76886" lon="5.22449">
        <ele>278.92</ele>
        <time>2017-02-23T10:00:11Z</time>
      </trkpt>
      <trkpt lat="43.76883" lon="5.22453">
        <ele>278.44</ele>
        <time>2017-02-23T10:00:32Z</time>
      </trkpt>
      <trkpt lat="43.76881" lon="5.22459">
        <ele>278.44</ele>
        <time>2017-02-23T10:00:46Z</time>
      </trkpt>
      <trkpt lat="43.76879" lon="5.22461">
        <ele>278.44</ele>
        <time>2017-02-23T10:01:00Z</time>
      </trkpt>
      <trkpt lat="43.76878" lon="5.22462">
        <ele>278.92</ele>
        <time>2017-02-23T10:01:17Z</time>
      </trkpt>
      <trkpt lat="43.76877" lon="5.22463">
        <ele>278.44</ele>
        <time>2017-02-23T10:01:35Z</time>
      </trkpt>
      <trkpt lat="43.76877" lon="5.22464">
        <ele>279.88</ele>
        <time>2017-02-23T10:01:51Z</time>
      </trkpt>
      <trkpt lat="43.76883" lon="5.22471">
        <ele>280.84</ele>
        <time>2017-02-23T10:02:02Z</time>
      </trkpt>
      <trkpt lat="43.76883" lon="5.22471">
        <ele>280.84</ele>
        <time>2017-02-23T10:02:03Z</time>
      </trkpt>
      <trkpt lat="43.76887" lon="5.22486">
        <ele>279.88</ele>
        <time>2017-02-23T10:02:16Z</time>
      </trkpt>
      <trkpt lat="43.7689" lon="5.22493">
        <ele>279.4</ele>
        <time>2017-02-23T10:02:23Z</time>
      </trkpt>
      <trkpt lat="43.76896" lon="5.22508">
        <ele>277.96</ele>
        <time>2017-02-23T10:02:37Z</time>
      </trkpt>
      <trkpt lat="43.76901" lon="5.22517">
        <ele>276.04</ele>
        <time>2017-02-23T10:02:51Z</time>
      </trkpt>
      <trkpt lat="43.76902" lon="5.22527">
        <ele>274.59</ele>
        <time>2017-02-23T10:03:02Z</time>
      </trkpt>
      <trkpt lat="43.76903" lon="5.22539">
        <ele>272.19</ele>
        <time>2017-02-23T10:03:17Z</time>
      </trkpt>
      <trkpt lat="43.76907" lon="5.22548">
        <ele>269.31</ele>
        <time>2017-02-23T10:03:32Z</time>
      </trkpt>
      <trkpt lat="43.76912" lon="5.22565">
        <ele>268.35</ele>
        <time>2017-02-23T10:03:46Z</time>
      </trkpt>
      <trkpt lat="43.76912" lon="5.2258">
        <ele>265.46</ele>
        <time>2017-02-23T10:04:04Z</time>
      </trkpt>
      <trkpt lat="43.76923" lon="5.22595">
        <ele>263.54</ele>
        <time>2017-02-23T10:04:20Z</time>
      </trkpt>
      <trkpt lat="43.76929" lon="5.22599">
        <ele>263.06</ele>
        <time>2017-02-23T10:04:28Z</time>
      </trkpt>
      <trkpt lat="43.76932" lon="5.22607">
        <ele>261.14</ele>
        <time>2017-02-23T10:04:35Z</time>
      </trkpt>
      <trkpt lat="43.76933" lon="5.2261">
        <ele>259.69</ele>
        <time>2017-02-23T10:04:38Z</time>
      </trkpt>
      <trkpt lat="43.76933" lon="5.22612">
        <ele>259.69</ele>
        <time>2017-02-23T10:04:41Z</time>
      </trkpt>
      <trkpt lat="43.76931" lon="5.22621">
        <ele>257.29</ele>
        <time>2017-02-23T10:04:57Z</time>
      </trkpt>
      <trkpt lat="43.76924" lon="5.22631">
        <ele>255.37</ele>
        <time>2017-02-23T10:05:10Z</time>
      </trkpt>
      <trkpt lat="43.76923" lon="5.22632">
        <ele>254.41</ele>
        <time>2017-02-23T10:05:14Z</time>
      </trkpt>
      <trkpt lat="43.76917" lon="5.22637">
        <ele>252.48</ele>
        <time>2017-02-23T10:05:27Z</time>
      </trkpt>
      <trkpt lat="43.76912" lon="5.22641">
        <ele>250.56</ele>
        <time>2017-02-23T10:05:39Z</time>
      </trkpt>
      <trkpt lat="43.76908" lon="5.22647">
        <ele>249.12</ele>
        <time>2017-02-23T10:05:51Z</time>
      </trkpt>
      <trkpt lat="43.76904" lon="5.2265">
        <ele>247.2</ele>
        <time>2017-02-23T10:06:03Z</time>
      </trkpt>
      <trkpt lat="43.76894" lon="5.22653">
        <ele>245.27</ele>
        <time>2017-02-23T10:06:17Z</time>
      </trkpt>
      <trkpt lat="43.76887" lon="5.22659">
        <ele>243.35</ele>
        <time>2017-02-23T10:06:29Z</time>
      </trkpt>
      <trkpt lat="43.76881" lon="5.22666">
        <ele>241.91</ele>
        <time>2017-02-23T10:06:41Z</time>
      </trkpt>
      <trkpt lat="43.76877" lon="5.22671">
        <ele>240.47</ele>
        <time>2017-02-23T10:06:56Z</time>
      </trkpt>
      <trkpt lat="43.76875" lon="5.22675">
        <ele>239.02</ele>
        <time>2017-02-23T10:07:02Z</time>
      </trkpt>
      <trkpt lat="43.76874" lon="5.22686">
        <ele>238.54</ele>
        <time>2017-02-23T10:07:13Z</time>
      </trkpt>
      <trkpt lat="43.76871" lon="5.22698">
        <ele>237.58</ele>
        <time>2017-02-23T10:07:20Z</time>
      </trkpt>
      <trkpt lat="43.76867" lon="5.22718">
        <ele>236.14</ele>
        <time>2017-02-23T10:07:36Z</time>
      </trkpt>
      <trkpt lat="43.76864" lon="5.22731">
        <ele>233.74</ele>
        <time>2017-02-23T10:07:51Z</time>
      </trkpt>
      <trkpt lat="43.76863" lon="5.22747">
        <ele>232.78</ele>
        <time>2017-02-23T10:08:04Z</time>
      </trkpt>
      <trkpt lat="43.76861" lon="5.22759">
        <ele>231.33</ele>
        <time>2017-02-23T10:08:21Z</time>
      </trkpt>
      <trkpt lat="43.76858" lon="5.22772">
        <ele>230.37</ele>
        <time>2017-02-23T10:08:34Z</time>
      </trkpt>
      <trkpt lat="43.76853" lon="5.22782">
        <ele>229.41</ele>
        <time>2017-02-23T10:08:42Z</time>
      </trkpt>
      <trkpt lat="43.76851" lon="5.22798">
        <ele>227.97</ele>
        <time>2017-02-23T10:08:56Z</time>
      </trkpt>
      <trkpt lat="43.76848" lon="5.22812">
        <ele>227.01</ele>
        <time>2017-02-23T10:09:10Z</time>
      </trkpt>
      <trkpt lat="43.76842" lon="5.22823">
        <ele>225.09</ele>
        <time>2017-02-23T10:09:24Z</time>
      </trkpt>
      <trkpt lat="43.7684" lon="5.22829">
        <ele>223.64</ele>
        <time>2017-02-23T10:09:38Z</time>
      </trkpt>
      <trkpt lat="43.76839" lon="5.22835">
        <ele>223.16</ele>
        <time>2017-02-23T10:09:45Z</time>
      </trkpt>
      <trkpt lat="43.76839" lon="5.2285">
        <ele>221.72</ele>
        <time>2017-02-23T10:09:57Z</time>
      </trkpt>
      <trkpt lat="43.76838" lon="5.22863">
        <ele>220.28</ele>
        <time>2017-02-23T10:10:11Z</time>
      </trkpt>
      <trkpt lat="43.76835" lon="5.22872">
        <ele>219.32</ele>
        <time>2017-02-23T10:10:22Z</time>
      </trkpt>
      <trkpt lat="43.76834" lon="5.22882">
        <ele>218.36</ele>
        <time>2017-02-23T10:10:34Z</time>
      </trkpt>
      <trkpt lat="43.76835" lon="5.22893">
        <ele>217.4</ele>
        <time>2017-02-23T10:10:46Z</time>
      </trkpt>
      <trkpt lat="43.76832" lon="5.22907">
        <ele>215.95</ele>
        <time>2017-02-23T10:11:01Z</time>
      </trkpt>
      <trkpt lat="43.76828" lon="5.22921">
        <ele>214.51</ele>
        <time>2017-02-23T10:11:15Z</time>
      </trkpt>
      <trkpt lat="43.76824" lon="5.22934">
        <ele>213.55</ele>
        <time>2017-02-23T10:11:29Z</time>
      </trkpt>
      <trkpt lat="43.76819" lon="5.22944">
        <ele>212.59</ele>
        <time>2017-02-23T10:11:39Z</time>
      </trkpt>
      <trkpt lat="43.76816" lon="5.22954">
        <ele>210.67</ele>
        <time>2017-02-23T10:11:53Z</time>
      </trkpt>
      <trkpt lat="43.76816" lon="5.22955">
        <ele>210.19</ele>
        <time>2017-02-23T10:11:57Z</time>
      </trkpt>
      <trkpt lat="43.76812" lon="5.22963">
        <ele>209.7</ele>
        <time>2017-02-23T10:12:07Z</time>
      </trkpt>
      <trkpt lat="43.76809" lon="5.22974">
        <ele>208.26</ele>
        <time>2017-02-23T10:12:19Z</time>
      </trkpt>
      <trkpt lat="43.76805" lon="5.22982">
        <ele>206.34</ele>
        <time>2017-02-23T10:12:33Z</time>
      </trkpt>
      <trkpt lat="43.76806" lon="5.22999">
        <ele>204.42</ele>
        <time>2017-02-23T10:12:47Z</time>
      </trkpt>
      <trkpt lat="43.76806" lon="5.23">
        <ele>204.42</ele>
        <time>2017-02-23T10:12:48Z</time>
      </trkpt>
      <trkpt lat="43.76806" lon="5.23006">
        <ele>203.94</ele>
        <time>2017-02-23T10:12:52Z</time>
      </trkpt>
      <trkpt lat="43.76809" lon="5.23014">
        <ele>203.94</ele>
        <time>2017-02-23T10:13:05Z</time>
      </trkpt>
      <trkpt lat="43.76809" lon="5.23015">
        <ele>203.94</ele>
        <time>2017-02-23T10:13:20Z</time>
      </trkpt>
      <trkpt lat="43.76809" lon="5.23018">
        <ele>203.94</ele>
        <time>2017-02-23T10:13:32Z</time>
      </trkpt>
      <trkpt lat="43.76809" lon="5.23018">
        <ele>204.42</ele>
        <time>2017-02-23T10:13:34Z</time>
      </trkpt>
      <trkpt lat="43.76815" lon="5.23021">
        <ele>203.94</ele>
        <time>2017-02-23T10:13:44Z</time>
      </trkpt>
      <trkpt lat="43.76819" lon="5.23024">
        <ele>204.9</ele>
        <time>2017-02-23T10:13:56Z</time>
      </trkpt>
      <trkpt lat="43.76819" lon="5.23028">
        <ele>206.34</ele>
        <time>2017-02-23T10:14:08Z</time>
      </trkpt>
      <trkpt lat="43.76817" lon="5.2303">
        <ele>208.26</ele>
        <time>2017-02-23T10:14:25Z</time>
      </trkpt>
      <trkpt lat="43.76815" lon="5.23033">
        <ele>210.67</ele>
        <time>2017-02-23T10:14:41Z</time>
      </trkpt>
      <trkpt lat="43.76815" lon="5.23035">
        <ele>213.07</ele>
        <time>2017-02-23T10:14:57Z</time>
      </trkpt>
      <trkpt lat="43.76814" lon="5.23036">
        <ele>215.95</ele>
        <time>2017-02-23T10:15:14Z</time>
      </trkpt>
      <trkpt lat="43.76813" lon="5.23045">
        <ele>217.88</ele>
        <time>2017-02-23T10:15:31Z</time>
      </trkpt>
      <trkpt lat="43.76813" lon="5.23059">
        <ele>220.28</ele>
        <time>2017-02-23T10:15:45Z</time>
      </trkpt>
      <trkpt lat="43.76813" lon="5.23062">
        <ele>221.72</ele>
        <time>2017-02-23T10:15:53Z</time>
      </trkpt>
      <trkpt lat="43.76807" lon="5.23078">
        <ele>224.12</ele>
        <time>2017-02-23T10:16:09Z</time>
      </trkpt>
      <trkpt lat="43.76794" lon="5.23106">
        <ele>226.53</ele>
        <time>2017-02-23T10:16:24Z</time>
      </trkpt>
      <trkpt lat="43.76784" lon="5.23122">
        <ele>229.41</ele>
        <time>2017-02-23T10:16:40Z</time>
      </trkpt>
      <trkpt lat="43.76782" lon="5.23129">
        <ele>230.37</ele>
        <time>2017-02-23T10:16:50Z</time>
      </trkpt>
      <trkpt lat="43.76778" lon="5.23136">
        <ele>231.33</ele>
        <time>2017-02-23T10:16:57Z</time>
      </trkpt>
      <trkpt lat="43.76774" lon="5.23146">
        <ele>232.78</ele>
        <time>2017-02-23T10:17:05Z</time>
      </trkpt>
      <trkpt lat="43.76771" lon="5.23156">
        <ele>233.74</ele>
        <time>2017-02-23T10:17:12Z</time>
      </trkpt>
      <trkpt lat="43.76767" lon="5.23163">
        <ele>233.74</ele>
        <time>2017-02-23T10:17:22Z</time>
      </trkpt>
      <trkpt lat="43.76761" lon="5.23162">
        <ele>234.22</ele>
        <time>2017-02-23T10:17:37Z</time>
      </trkpt>
      <trkpt lat="43.76761" lon="5.23161">
        <ele>233.74</ele>
        <time>2017-02-23T10:17:49Z</time>
      </trkpt>
      <trkpt lat="43.7676" lon="5.23159">
        <ele>233.26</ele>
        <time>2017-02-23T10:18:21Z</time>
      </trkpt>
      <trkpt lat="43.76759" lon="5.23159">
        <ele>233.26</ele>
        <time>2017-02-23T10:18:46Z</time>
      </trkpt>
      <trkpt lat="43.76759" lon="5.23159">
        <ele>234.22</ele>
        <time>2017-02-23T10:19:07Z</time>
      </trkpt>
      <trkpt lat="43.76759" lon="5.23161">
        <ele>233.74</ele>
        <time>2017-02-23T10:19:25Z</time>
      </trkpt>
      <trkpt lat="43.76759" lon="5.23161">
        <ele>233.74</ele>
        <time>2017-02-23T10:19:48Z</time>
      </trkpt>
      <trkpt lat="43.7676" lon="5.23161">
        <ele>233.74</ele>
        <time>2017-02-23T10:20:07Z</time>
      </trkpt>
      <trkpt lat="43.7676" lon="5.23162">
        <ele>234.22</ele>
        <time>2017-02-23T10:20:24Z</time>
      </trkpt>
      <trkpt lat="43.76759" lon="5.23162">
        <ele>234.7</ele>
        <time>2017-02-23T10:20:36Z</time>
      </trkpt>
      <trkpt lat="43.76759" lon="5.23163">
        <ele>234.22</ele>
        <time>2017-02-23T10:20:57Z</time>
      </trkpt>
      <trkpt lat="43.76759" lon="5.23163">
        <ele>233.74</ele>
        <time>2017-02-23T10:21:17Z</time>
      </trkpt>
      <trkpt lat="43.76756" lon="5.23167">
        <ele>235.18</ele>
        <time>2017-02-23T10:21:32Z</time>
      </trkpt>
      <trkpt lat="43.76755" lon="5.2317">
        <ele>235.66</ele>
        <time>2017-02-23T10:21:35Z</time>
      </trkpt>
      <trkpt lat="43.76748" lon="5.23178">
        <ele>236.62</ele>
        <time>2017-02-23T10:21:44Z</time>
      </trkpt>
      <trkpt lat="43.7674" lon="5.23188">
        <ele>237.1</ele>
        <time>2017-02-23T10:21:54Z</time>
      </trkpt>
      <trkpt lat="43.76733" lon="5.23195">
        <ele>238.06</ele>
        <time>2017-02-23T10:22:03Z</time>
      </trkpt>
      <trkpt lat="43.76725" lon="5.2321">
        <ele>238.06</ele>
        <time>2017-02-23T10:22:15Z</time>
      </trkpt>
      <trkpt lat="43.76722" lon="5.23221">
        <ele>237.58</ele>
        <time>2017-02-23T10:22:24Z</time>
      </trkpt>
      <trkpt lat="43.7672" lon="5.23225">
        <ele>237.1</ele>
        <time>2017-02-23T10:22:27Z</time>
      </trkpt>
      <trkpt lat="43.76716" lon="5.23239">
        <ele>237.1</ele>
        <time>2017-02-23T10:22:41Z</time>
      </trkpt>
      <trkpt lat="43.76716" lon="5.23241">
        <ele>236.62</ele>
        <time>2017-02-23T10:22:43Z</time>
      </trkpt>
      <trkpt lat="43.76714" lon="5.23247">
        <ele>236.62</ele>
        <time>2017-02-23T10:22:49Z</time>
      </trkpt>
      <trkpt lat="43.76713" lon="5.23253">
        <ele>236.14</ele>
        <time>2017-02-23T10:22:52Z</time>
      </trkpt>
      <trkpt lat="43.76714" lon="5.23263">
        <ele>236.62</ele>
        <time>2017-02-23T10:22:58Z</time>
      </trkpt>
      <trkpt lat="43.76714" lon="5.23266">
        <ele>235.66</ele>
        <time>2017-02-23T10:23:00Z</time>
      </trkpt>
      <trkpt lat="43.76712" lon="5.23276">
        <ele>235.66</ele>
        <time>2017-02-23T10:23:07Z</time>
      </trkpt>
      <trkpt lat="43.76707" lon="5.23297">
        <ele>235.18</ele>
        <time>2017-02-23T10:23:22Z</time>
      </trkpt>
      <trkpt lat="43.76707" lon="5.2331">
        <ele>235.18</ele>
        <time>2017-02-23T10:23:32Z</time>
      </trkpt>
      <trkpt lat="43.76708" lon="5.23326">
        <ele>232.78</ele>
        <time>2017-02-23T10:23:47Z</time>
      </trkpt>
      <trkpt lat="43.76707" lon="5.23346">
        <ele>233.26</ele>
        <time>2017-02-23T10:24:03Z</time>
      </trkpt>
      <trkpt lat="43.76702" lon="5.23362">
        <ele>232.78</ele>
        <time>2017-02-23T10:24:16Z</time>
      </trkpt>
      <trkpt lat="43.76702" lon="5.23364">
        <ele>232.78</ele>
        <time>2017-02-23T10:24:17Z</time>
      </trkpt>
      <trkpt lat="43.76701" lon="5.23368">
        <ele>232.3</ele>
        <time>2017-02-23T10:24:20Z</time>
      </trkpt>
      <trkpt lat="43.76694" lon="5.23385">
        <ele>232.3</ele>
        <time>2017-02-23T10:24:35Z</time>
      </trkpt>
      <trkpt lat="43.76691" lon="5.2339">
        <ele>233.26</ele>
        <time>2017-02-23T10:24:40Z</time>
      </trkpt>
      <trkpt lat="43.76688" lon="5.23409">
        <ele>231.81</ele>
        <time>2017-02-23T10:24:54Z</time>
      </trkpt>
      <trkpt lat="43.76688" lon="5.23424">
        <ele>231.33</ele>
        <time>2017-02-23T10:25:06Z</time>
      </trkpt>
      <trkpt lat="43.76691" lon="5.23434">
        <ele>231.33</ele>
        <time>2017-02-23T10:25:14Z</time>
      </trkpt>
      <trkpt lat="43.76694" lon="5.23453">
        <ele>231.33</ele>
        <time>2017-02-23T10:25:30Z</time>
      </trkpt>
      <trkpt lat="43.76695" lon="5.23459">
        <ele>229.89</ele>
        <time>2017-02-23T10:25:35Z</time>
      </trkpt>
      <trkpt lat="43.76696" lon="5.23466">
        <ele>229.89</ele>
        <time>2017-02-23T10:25:40Z</time>
      </trkpt>
      <trkpt lat="43.76692" lon="5.23487">
        <ele>228.93</ele>
        <time>2017-02-23T10:25:55Z</time>
      </trkpt>
      <trkpt lat="43.76685" lon="5.23502">
        <ele>228.45</ele>
        <time>2017-02-23T10:26:09Z</time>
      </trkpt>
      <trkpt lat="43.76679" lon="5.23518">
        <ele>227.97</ele>
        <time>2017-02-23T10:26:23Z</time>
      </trkpt>
      <trkpt lat="43.76674" lon="5.23537">
        <ele>227.49</ele>
        <time>2017-02-23T10:26:37Z</time>
      </trkpt>
      <trkpt lat="43.76673" lon="5.23544">
        <ele>227.01</ele>
        <time>2017-02-23T10:26:43Z</time>
      </trkpt>
      <trkpt lat="43.76673" lon="5.23558">
        <ele>226.53</ele>
        <time>2017-02-23T10:26:54Z</time>
      </trkpt>
      <trkpt lat="43.76671" lon="5.2356">
        <ele>226.53</ele>
        <time>2017-02-23T10:26:58Z</time>
      </trkpt>
      <trkpt lat="43.76669" lon="5.23561">
        <ele>226.53</ele>
        <time>2017-02-23T10:27:04Z</time>
      </trkpt>
      <trkpt lat="43.76666" lon="5.23563">
        <ele>226.05</ele>
        <time>2017-02-23T10:27:07Z</time>
      </trkpt>
      <trkpt lat="43.76657" lon="5.23581">
        <ele>225.57</ele>
        <time>2017-02-23T10:27:21Z</time>
      </trkpt>
      <trkpt lat="43.76654" lon="5.23591">
        <ele>225.09</ele>
        <time>2017-02-23T10:27:29Z</time>
      </trkpt>
      <trkpt lat="43.76649" lon="5.23611">
        <ele>223.16</ele>
        <time>2017-02-23T10:27:44Z</time>
      </trkpt>
      <trkpt lat="43.76648" lon="5.23615">
        <ele>223.16</ele>
        <time>2017-02-23T10:27:47Z</time>
      </trkpt>
      <trkpt lat="43.76647" lon="5.2362">
        <ele>222.68</ele>
        <time>2017-02-23T10:27:51Z</time>
      </trkpt>
      <trkpt lat="43.76648" lon="5.23639">
        <ele>221.72</ele>
        <time>2017-02-23T10:28:04Z</time>
      </trkpt>
      <trkpt lat="43.76648" lon="5.23642">
        <ele>221.24</ele>
        <time>2017-02-23T10:28:07Z</time>
      </trkpt>
      <trkpt lat="43.7665" lon="5.23648">
        <ele>221.24</ele>
        <time>2017-02-23T10:28:22Z</time>
      </trkpt>
      <trkpt lat="43.7665" lon="5.23654">
        <ele>220.76</ele>
        <time>2017-02-23T10:28:28Z</time>
      </trkpt>
      <trkpt lat="43.76655" lon="5.23673">
        <ele>219.8</ele>
        <time>2017-02-23T10:28:44Z</time>
      </trkpt>
      <trkpt lat="43.76661" lon="5.23688">
        <ele>219.32</ele>
        <time>2017-02-23T10:29:00Z</time>
      </trkpt>
      <trkpt lat="43.76662" lon="5.2369">
        <ele>219.32</ele>
        <time>2017-02-23T10:29:03Z</time>
      </trkpt>
      <trkpt lat="43.76671" lon="5.23702">
        <ele>218.36</ele>
        <time>2017-02-23T10:29:19Z</time>
      </trkpt>
      <trkpt lat="43.76681" lon="5.237">
        <ele>217.4</ele>
        <time>2017-02-23T10:29:33Z</time>
      </trkpt>
      <trkpt lat="43.76682" lon="5.23699">
        <ele>216.91</ele>
        <time>2017-02-23T10:29:35Z</time>
      </trkpt>
      <trkpt lat="43.76689" lon="5.23694">
        <ele>215.95</ele>
        <time>2017-02-23T10:29:43Z</time>
      </trkpt>
      <trkpt lat="43.76695" lon="5.23693">
        <ele>214.99</ele>
        <time>2017-02-23T10:29:50Z</time>
      </trkpt>
      <trkpt lat="43.76702" lon="5.23695">
        <ele>214.03</ele>
        <time>2017-02-23T10:29:59Z</time>
      </trkpt>
      <trkpt lat="43.76702" lon="5.23695">
        <ele>214.03</ele>
        <time>2017-02-23T10:30:01Z</time>
      </trkpt>
      <trkpt lat="43.76702" lon="5.237">
        <ele>213.55</ele>
        <time>2017-02-23T10:30:04Z</time>
      </trkpt>
      <trkpt lat="43.767" lon="5.23707">
        <ele>213.55</ele>
        <time>2017-02-23T10:30:09Z</time>
      </trkpt>
      <trkpt lat="43.76692" lon="5.23718">
        <ele>212.59</ele>
        <time>2017-02-23T10:30:18Z</time>
      </trkpt>
      <trkpt lat="43.76692" lon="5.23718">
        <ele>212.11</ele>
        <time>2017-02-23T10:30:20Z</time>
      </trkpt>
      <trkpt lat="43.76689" lon="5.23724">
        <ele>212.11</ele>
        <time>2017-02-23T10:30:26Z</time>
      </trkpt>
      <trkpt lat="43.76685" lon="5.23729">
        <ele>211.63</ele>
        <time>2017-02-23T10:30:30Z</time>
      </trkpt>
      <trkpt lat="43.76682" lon="5.23734">
        <ele>211.63</ele>
        <time>2017-02-23T10:30:34Z</time>
      </trkpt>
      <trkpt lat="43.76674" lon="5.23746">
        <ele>210.67</ele>
        <time>2017-02-23T10:30:45Z</time>
      </trkpt>
      <trkpt lat="43.76668" lon="5.23751">
        <ele>209.22</ele>
        <time>2017-02-23T10:30:55Z</time>
      </trkpt>
      <trkpt lat="43.76665" lon="5.23753">
        <ele>207.78</ele>
        <time>2017-02-23T10:31:02Z</time>
      </trkpt>
      <trkpt lat="43.76658" lon="5.23762">
        <ele>206.34</ele>
        <time>2017-02-23T10:31:17Z</time>
      </trkpt>
      <trkpt lat="43.76659" lon="5.23764">
        <ele>205.38</ele>
        <time>2017-02-23T10:31:22Z</time>
      </trkpt>
      <trkpt lat="43.76658" lon="5.23772">
        <ele>204.42</ele>
        <time>2017-02-23T10:31:34Z</time>
      </trkpt>
      <trkpt lat="43.76658" lon="5.23775">
        <ele>203.94</ele>
        <time>2017-02-23T10:31:38Z</time>
      </trkpt>
      <trkpt lat="43.76657" lon="5.23788">
        <ele>202.49</ele>
        <time>2017-02-23T10:31:52Z</time>
      </trkpt>
      <trkpt lat="43.76656" lon="5.23797">
        <ele>201.53</ele>
        <time>2017-02-23T10:32:03Z</time>
      </trkpt>
      <trkpt lat="43.76653" lon="5.23804">
        <ele>201.05</ele>
        <time>2017-02-23T10:32:15Z</time>
      </trkpt>
      <trkpt lat="43.76653" lon="5.23807">
        <ele>199.61</ele>
        <time>2017-02-23T10:32:34Z</time>
      </trkpt>
      <trkpt lat="43.76651" lon="5.23818">
        <ele>197.21</ele>
        <time>2017-02-23T10:32:47Z</time>
      </trkpt>
      <trkpt lat="43.76645" lon="5.23835">
        <ele>196.25</ele>
        <time>2017-02-23T10:33:03Z</time>
      </trkpt>
      <trkpt lat="43.76639" lon="5.23843">
        <ele>193.84</ele>
        <time>2017-02-23T10:33:20Z</time>
      </trkpt>
      <trkpt lat="43.76637" lon="5.2386">
        <ele>192.88</ele>
        <time>2017-02-23T10:33:34Z</time>
      </trkpt>
      <trkpt lat="43.76632" lon="5.23873">
        <ele>191.92</ele>
        <time>2017-02-23T10:33:50Z</time>
      </trkpt>
      <trkpt lat="43.76623" lon="5.23885">
        <ele>190.96</ele>
        <time>2017-02-23T10:34:07Z</time>
      </trkpt>
      <trkpt lat="43.76618" lon="5.23889">
        <ele>190</ele>
        <time>2017-02-23T10:34:26Z</time>
      </trkpt>
      <trkpt lat="43.76606" lon="5.23891">
        <ele>189.04</ele>
        <time>2017-02-23T10:34:43Z</time>
      </trkpt>
      <trkpt lat="43.76594" lon="5.23896">
        <ele>188.56</ele>
        <time>2017-02-23T10:35:00Z</time>
      </trkpt>
      <trkpt lat="43.76586" lon="5.23901">
        <ele>188.08</ele>
        <time>2017-02-23T10:35:13Z</time>
      </trkpt>
      <trkpt lat="43.76562" lon="5.23906">
        <ele>185.67</ele>
        <time>2017-02-23T10:35:32Z</time>
      </trkpt>
      <trkpt lat="43.76557" lon="5.23907">
        <ele>185.19</ele>
        <time>2017-02-23T10:35:50Z</time>
      </trkpt>
      <trkpt lat="43.76554" lon="5.23907">
        <ele>185.19</ele>
        <time>2017-02-23T10:36:09Z</time>
      </trkpt>
      <trkpt lat="43.76552" lon="5.23907">
        <ele>185.19</ele>
        <time>2017-02-23T10:36:29Z</time>
      </trkpt>
      <trkpt lat="43.76552" lon="5.2391">
        <ele>185.19</ele>
        <time>2017-02-23T10:36:49Z</time>
      </trkpt>
      <trkpt lat="43.76552" lon="5.2391">
        <ele>185.19</ele>
        <time>2017-02-23T10:37:17Z</time>
      </trkpt>
      <trkpt lat="43.76551" lon="5.23912">
        <ele>184.71</ele>
        <time>2017-02-23T10:37:38Z</time>
      </trkpt>
      <trkpt lat="43.76538" lon="5.23931">
        <ele>184.23</ele>
        <time>2017-02-23T10:37:57Z</time>
      </trkpt>
      <trkpt lat="43.76535" lon="5.23952">
        <ele>183.27</ele>
        <time>2017-02-23T10:38:15Z</time>
      </trkpt>
      <trkpt lat="43.7653" lon="5.23969">
        <ele>182.79</ele>
        <time>2017-02-23T10:38:34Z</time>
      </trkpt>
      <trkpt lat="43.76526" lon="5.23982">
        <ele>182.31</ele>
        <time>2017-02-23T10:38:45Z</time>
      </trkpt>
      <trkpt lat="43.7653" lon="5.23997">
        <ele>180.87</ele>
        <time>2017-02-23T10:38:57Z</time>
      </trkpt>
      <trkpt lat="43.76527" lon="5.24004">
        <ele>179.9</ele>
        <time>2017-02-23T10:39:16Z</time>
      </trkpt>
      <trkpt lat="43.76524" lon="5.24018">
        <ele>179.42</ele>
        <time>2017-02-23T10:39:30Z</time>
      </trkpt>
      <trkpt lat="43.76538" lon="5.24023">
        <ele>179.9</ele>
        <time>2017-02-23T10:39:41Z</time>
      </trkpt>
      <trkpt lat="43.7654" lon="5.24026">
        <ele>179.9</ele>
        <time>2017-02-23T10:39:44Z</time>
      </trkpt>
      <trkpt lat="43.76549" lon="5.24033">
        <ele>180.87</ele>
        <time>2017-02-23T10:39:55Z</time>
      </trkpt>
      <trkpt lat="43.76549" lon="5.24034">
        <ele>180.87</ele>
        <time>2017-02-23T10:39:56Z</time>
      </trkpt>
      <trkpt lat="43.76563" lon="5.24041">
        <ele>181.35</ele>
        <time>2017-02-23T10:40:08Z</time>
      </trkpt>
      <trkpt lat="43.76577" lon="5.24044">
        <ele>182.31</ele>
        <time>2017-02-23T10:40:21Z</time>
      </trkpt>
      <trkpt lat="43.76587" lon="5.24045">
        <ele>182.79</ele>
        <time>2017-02-23T10:40:33Z</time>
      </trkpt>
      <trkpt lat="43.76592" lon="5.24048">
        <ele>182.79</ele>
        <time>2017-02-23T10:40:37Z</time>
      </trkpt>
      <trkpt lat="43.766" lon="5.24054">
        <ele>183.75</ele>
        <time>2017-02-23T10:40:48Z</time>
      </trkpt>
      <trkpt lat="43.76603" lon="5.24063">
        <ele>184.71</ele>
        <time>2017-02-23T10:40:59Z</time>
      </trkpt>
      <trkpt lat="43.76604" lon="5.24066">
        <ele>184.71</ele>
        <time>2017-02-23T10:41:13Z</time>
      </trkpt>
      <trkpt lat="43.76604" lon="5.24067">
        <ele>184.23</ele>
        <time>2017-02-23T10:41:28Z</time>
      </trkpt>
      <trkpt lat="43.76607" lon="5.24079">
        <ele>185.19</ele>
        <time>2017-02-23T10:41:50Z</time>
      </trkpt>
      <trkpt lat="43.76607" lon="5.2408">
        <ele>184.71</ele>
        <time>2017-02-23T10:41:52Z</time>
      </trkpt>
      <trkpt lat="43.76608" lon="5.24082">
        <ele>185.19</ele>
        <time>2017-02-23T10:41:54Z</time>
      </trkpt>
      <trkpt lat="43.76611" lon="5.24092">
        <ele>186.15</ele>
        <time>2017-02-23T10:42:04Z</time>
      </trkpt>
      <trkpt lat="43.76616" lon="5.24098">
        <ele>187.11</ele>
        <time>2017-02-23T10:42:17Z</time>
      </trkpt>
      <trkpt lat="43.7662" lon="5.24108">
        <ele>188.08</ele>
        <time>2017-02-23T10:42:29Z</time>
      </trkpt>
      <trkpt lat="43.76622" lon="5.24111">
        <ele>188.56</ele>
        <time>2017-02-23T10:42:42Z</time>
      </trkpt>
      <trkpt lat="43.76625" lon="5.24118">
        <ele>190.48</ele>
        <time>2017-02-23T10:42:57Z</time>
      </trkpt>
      <trkpt lat="43.76629" lon="5.2412">
        <ele>190.48</ele>
        <time>2017-02-23T10:43:13Z</time>
      </trkpt>
      <trkpt lat="43.76633" lon="5.24125">
        <ele>193.36</ele>
        <time>2017-02-23T10:43:27Z</time>
      </trkpt>
      <trkpt lat="43.76642" lon="5.24132">
        <ele>194.32</ele>
        <time>2017-02-23T10:43:38Z</time>
      </trkpt>
      <trkpt lat="43.76647" lon="5.24143">
        <ele>195.28</ele>
        <time>2017-02-23T10:43:49Z</time>
      </trkpt>
      <trkpt lat="43.7665" lon="5.24158">
        <ele>195.77</ele>
        <time>2017-02-23T10:43:59Z</time>
      </trkpt>
      <trkpt lat="43.76655" lon="5.24172">
        <ele>197.69</ele>
        <time>2017-02-23T10:44:15Z</time>
      </trkpt>
      <trkpt lat="43.76656" lon="5.24185">
        <ele>198.65</ele>
        <time>2017-02-23T10:44:30Z</time>
      </trkpt>
      <trkpt lat="43.76657" lon="5.24188">
        <ele>199.13</ele>
        <time>2017-02-23T10:44:33Z</time>
      </trkpt>
      <trkpt lat="43.76663" lon="5.24195">
        <ele>200.57</ele>
        <time>2017-02-23T10:44:46Z</time>
      </trkpt>
      <trkpt lat="43.76664" lon="5.24198">
        <ele>200.57</ele>
        <time>2017-02-23T10:44:49Z</time>
      </trkpt>
      <trkpt lat="43.76666" lon="5.24201">
        <ele>200.57</ele>
        <time>2017-02-23T10:44:51Z</time>
      </trkpt>
      <trkpt lat="43.76672" lon="5.24212">
        <ele>201.05</ele>
        <time>2017-02-23T10:45:05Z</time>
      </trkpt>
      <trkpt lat="43.76681" lon="5.24214">
        <ele>201.53</ele>
        <time>2017-02-23T10:45:15Z</time>
      </trkpt>
      <trkpt lat="43.76683" lon="5.24216">
        <ele>202.01</ele>
        <time>2017-02-23T10:45:21Z</time>
      </trkpt>
      <trkpt lat="43.76689" lon="5.24217">
        <ele>202.49</ele>
        <time>2017-02-23T10:45:24Z</time>
      </trkpt>
      <trkpt lat="43.76698" lon="5.24216">
        <ele>202.98</ele>
        <time>2017-02-23T10:45:37Z</time>
      </trkpt>
      <trkpt lat="43.767" lon="5.24218">
        <ele>203.46</ele>
        <time>2017-02-23T10:45:43Z</time>
      </trkpt>
      <trkpt lat="43.76712" lon="5.24225">
        <ele>204.42</ele>
        <time>2017-02-23T10:45:54Z</time>
      </trkpt>
      <trkpt lat="43.76724" lon="5.24219">
        <ele>205.38</ele>
        <time>2017-02-23T10:46:08Z</time>
      </trkpt>
      <trkpt lat="43.76737" lon="5.24226">
        <ele>205.86</ele>
        <time>2017-02-23T10:46:22Z</time>
      </trkpt>
      <trkpt lat="43.76745" lon="5.24236">
        <ele>206.34</ele>
        <time>2017-02-23T10:46:33Z</time>
      </trkpt>
      <trkpt lat="43.76746" lon="5.24238">
        <ele>206.82</ele>
        <time>2017-02-23T10:46:35Z</time>
      </trkpt>
      <trkpt lat="43.76742" lon="5.24254">
        <ele>207.3</ele>
        <time>2017-02-23T10:46:48Z</time>
      </trkpt>
      <trkpt lat="43.76737" lon="5.24272">
        <ele>208.74</ele>
        <time>2017-02-23T10:47:02Z</time>
      </trkpt>
      <trkpt lat="43.76744" lon="5.24272">
        <ele>209.7</ele>
        <time>2017-02-23T10:47:15Z</time>
      </trkpt>
      <trkpt lat="43.76751" lon="5.24264">
        <ele>212.59</ele>
        <time>2017-02-23T10:47:31Z</time>
      </trkpt>
      <trkpt lat="43.76759" lon="5.24253">
        <ele>214.51</ele>
        <time>2017-02-23T10:47:44Z</time>
      </trkpt>
      <trkpt lat="43.76766" lon="5.24244">
        <ele>216.43</ele>
        <time>2017-02-23T10:47:57Z</time>
      </trkpt>
      <trkpt lat="43.76771" lon="5.24239">
        <ele>217.88</ele>
        <time>2017-02-23T10:48:09Z</time>
      </trkpt>
      <trkpt lat="43.76775" lon="5.24246">
        <ele>218.36</ele>
        <time>2017-02-23T10:48:18Z</time>
      </trkpt>
      <trkpt lat="43.76781" lon="5.24257">
        <ele>219.32</ele>
        <time>2017-02-23T10:48:30Z</time>
      </trkpt>
      <trkpt lat="43.76781" lon="5.24258">
        <ele>219.32</ele>
        <time>2017-02-23T10:48:31Z</time>
      </trkpt>
      <trkpt lat="43.76782" lon="5.24261">
        <ele>219.8</ele>
        <time>2017-02-23T10:48:33Z</time>
      </trkpt>
      <trkpt lat="43.76788" lon="5.2427">
        <ele>220.76</ele>
        <time>2017-02-23T10:48:44Z</time>
      </trkpt>
      <trkpt lat="43.76789" lon="5.24272">
        <ele>220.28</ele>
        <time>2017-02-23T10:48:46Z</time>
      </trkpt>
      <trkpt lat="43.76792" lon="5.24276">
        <ele>220.28</ele>
        <time>2017-02-23T10:48:50Z</time>
      </trkpt>
      <trkpt lat="43.76796" lon="5.24283">
        <ele>221.24</ele>
        <time>2017-02-23T10:48:57Z</time>
      </trkpt>
      <trkpt lat="43.76804" lon="5.24294">
        <ele>221.72</ele>
        <time>2017-02-23T10:49:12Z</time>
      </trkpt>
      <trkpt lat="43.76813" lon="5.24302">
        <ele>222.68</ele>
        <time>2017-02-23T10:49:24Z</time>
      </trkpt>
      <trkpt lat="43.76818" lon="5.24312">
        <ele>223.16</ele>
        <time>2017-02-23T10:49:37Z</time>
      </trkpt>
      <trkpt lat="43.76823" lon="5.24331">
        <ele>224.12</ele>
        <time>2017-02-23T10:49:52Z</time>
      </trkpt>
      <trkpt lat="43.76824" lon="5.24346">
        <ele>225.09</ele>
        <time>2017-02-23T10:50:06Z</time>
      </trkpt>
      <trkpt lat="43.76829" lon="5.24362">
        <ele>226.53</ele>
        <time>2017-02-23T10:50:21Z</time>
      </trkpt>
      <trkpt lat="43.76831" lon="5.24369">
        <ele>227.01</ele>
        <time>2017-02-23T10:50:31Z</time>
      </trkpt>
      <trkpt lat="43.76836" lon="5.24374">
        <ele>227.97</ele>
        <time>2017-02-23T10:50:38Z</time>
      </trkpt>
      <trkpt lat="43.76841" lon="5.24388">
        <ele>228.93</ele>
        <time>2017-02-23T10:50:50Z</time>
      </trkpt>
      <trkpt lat="43.76846" lon="5.244">
        <ele>229.41</ele>
        <time>2017-02-23T10:51:03Z</time>
      </trkpt>
      <trkpt lat="43.76852" lon="5.24409">
        <ele>230.37</ele>
        <time>2017-02-23T10:51:14Z</time>
      </trkpt>
      <trkpt lat="43.7685" lon="5.24421">
        <ele>230.85</ele>
        <time>2017-02-23T10:51:25Z</time>
      </trkpt>
      <trkpt lat="43.76849" lon="5.24435">
        <ele>230.85</ele>
        <time>2017-02-23T10:51:37Z</time>
      </trkpt>
      <trkpt lat="43.76841" lon="5.24451">
        <ele>231.33</ele>
        <time>2017-02-23T10:51:50Z</time>
      </trkpt>
      <trkpt lat="43.7684" lon="5.24466">
        <ele>231.33</ele>
        <time>2017-02-23T10:52:03Z</time>
      </trkpt>
      <trkpt lat="43.76841" lon="5.24473">
        <ele>231.81</ele>
        <time>2017-02-23T10:52:16Z</time>
      </trkpt>
      <trkpt lat="43.76843" lon="5.24478">
        <ele>232.3</ele>
        <time>2017-02-23T10:52:31Z</time>
      </trkpt>
      <trkpt lat="43.76843" lon="5.2448">
        <ele>232.3</ele>
        <time>2017-02-23T10:52:52Z</time>
      </trkpt>
      <trkpt lat="43.76843" lon="5.24481">
        <ele>231.33</ele>
        <time>2017-02-23T10:53:04Z</time>
      </trkpt>
      <trkpt lat="43.76844" lon="5.24483">
        <ele>231.81</ele>
        <time>2017-02-23T10:53:22Z</time>
      </trkpt>
      <trkpt lat="43.76844" lon="5.24489">
        <ele>232.3</ele>
        <time>2017-02-23T10:53:36Z</time>
      </trkpt>
      <trkpt lat="43.76847" lon="5.24501">
        <ele>233.26</ele>
        <time>2017-02-23T10:53:53Z</time>
      </trkpt>
      <trkpt lat="43.76847" lon="5.24503">
        <ele>232.78</ele>
        <time>2017-02-23T10:53:55Z</time>
      </trkpt>
      <trkpt lat="43.7685" lon="5.24509">
        <ele>233.26</ele>
        <time>2017-02-23T10:53:59Z</time>
      </trkpt>
      <trkpt lat="43.76852" lon="5.24517">
        <ele>233.74</ele>
        <time>2017-02-23T10:54:04Z</time>
      </trkpt>
      <trkpt lat="43.76857" lon="5.24523">
        <ele>233.74</ele>
        <time>2017-02-23T10:54:13Z</time>
      </trkpt>
      <trkpt lat="43.76864" lon="5.24534">
        <ele>234.7</ele>
        <time>2017-02-23T10:54:22Z</time>
      </trkpt>
      <trkpt lat="43.76867" lon="5.24537">
        <ele>235.66</ele>
        <time>2017-02-23T10:54:27Z</time>
      </trkpt>
      <trkpt lat="43.7687" lon="5.24543">
        <ele>235.66</ele>
        <time>2017-02-23T10:54:31Z</time>
      </trkpt>
      <trkpt lat="43.76875" lon="5.24545">
        <ele>236.14</ele>
        <time>2017-02-23T10:54:36Z</time>
      </trkpt>
      <trkpt lat="43.76884" lon="5.24563">
        <ele>237.1</ele>
        <time>2017-02-23T10:54:48Z</time>
      </trkpt>
      <trkpt lat="43.76894" lon="5.24569">
        <ele>238.54</ele>
        <time>2017-02-23T10:54:56Z</time>
      </trkpt>
      <trkpt lat="43.76901" lon="5.24576">
        <ele>239.02</ele>
        <time>2017-02-23T10:55:04Z</time>
      </trkpt>
      <trkpt lat="43.76903" lon="5.24582">
        <ele>239.99</ele>
        <time>2017-02-23T10:55:08Z</time>
      </trkpt>
      <trkpt lat="43.76907" lon="5.24585">
        <ele>240.47</ele>
        <time>2017-02-23T10:55:12Z</time>
      </trkpt>
      <trkpt lat="43.76911" lon="5.24589">
        <ele>240.95</ele>
        <time>2017-02-23T10:55:16Z</time>
      </trkpt>
      <trkpt lat="43.76912" lon="5.24591">
        <ele>240.95</ele>
        <time>2017-02-23T10:55:18Z</time>
      </trkpt>
      <trkpt lat="43.76916" lon="5.24595">
        <ele>241.43</ele>
        <time>2017-02-23T10:55:22Z</time>
      </trkpt>
      <trkpt lat="43.7692" lon="5.246">
        <ele>241.91</ele>
        <time>2017-02-23T10:55:27Z</time>
      </trkpt>
      <trkpt lat="43.76923" lon="5.24604">
        <ele>242.39</ele>
        <time>2017-02-23T10:55:31Z</time>
      </trkpt>
      <trkpt lat="43.76925" lon="5.24606">
        <ele>242.39</ele>
        <time>2017-02-23T10:55:33Z</time>
      </trkpt>
      <trkpt lat="43.76927" lon="5.24607">
        <ele>241.91</ele>
        <time>2017-02-23T10:55:35Z</time>
      </trkpt>
      <trkpt lat="43.76929" lon="5.24609">
        <ele>241.91</ele>
        <time>2017-02-23T10:55:37Z</time>
      </trkpt>
      <trkpt lat="43.76933" lon="5.24612">
        <ele>241.91</ele>
        <time>2017-02-23T10:55:41Z</time>
      </trkpt>
      <trkpt lat="43.76937" lon="5.24619">
        <ele>242.39</ele>
        <time>2017-02-23T10:55:47Z</time>
      </trkpt>
      <trkpt lat="43.7694" lon="5.24622">
        <ele>242.39</ele>
        <time>2017-02-23T10:55:50Z</time>
      </trkpt>
      <trkpt lat="43.76942" lon="5.24626">
        <ele>242.87</ele>
        <time>2017-02-23T10:55:54Z</time>
      </trkpt>
      <trkpt lat="43.76945" lon="5.24629">
        <ele>242.87</ele>
        <time>2017-02-23T10:55:57Z</time>
      </trkpt>
      <trkpt lat="43.76952" lon="5.24636">
        <ele>243.83</ele>
        <time>2017-02-23T10:56:06Z</time>
      </trkpt>
      <trkpt lat="43.76957" lon="5.24637">
        <ele>244.31</ele>
        <time>2017-02-23T10:56:12Z</time>
      </trkpt>
      <trkpt lat="43.76968" lon="5.24643">
        <ele>245.75</ele>
        <time>2017-02-23T10:56:23Z</time>
      </trkpt>
      <trkpt lat="43.76973" lon="5.24647">
        <ele>246.23</ele>
        <time>2017-02-23T10:56:28Z</time>
      </trkpt>
      <trkpt lat="43.76979" lon="5.24655">
        <ele>247.2</ele>
        <time>2017-02-23T10:56:37Z</time>
      </trkpt>
      <trkpt lat="43.76983" lon="5.24663">
        <ele>248.16</ele>
        <time>2017-02-23T10:56:43Z</time>
      </trkpt>
      <trkpt lat="43.76985" lon="5.24666">
        <ele>248.64</ele>
        <time>2017-02-23T10:56:46Z</time>
      </trkpt>
      <trkpt lat="43.76989" lon="5.24675">
        <ele>249.6</ele>
        <time>2017-02-23T10:56:53Z</time>
      </trkpt>
      <trkpt lat="43.76989" lon="5.24689">
        <ele>250.56</ele>
        <time>2017-02-23T10:57:02Z</time>
      </trkpt>
      <trkpt lat="43.76989" lon="5.24689">
        <ele>250.08</ele>
        <time>2017-02-23T10:57:21Z</time>
      </trkpt>
      <trkpt lat="43.76991" lon="5.24699">
        <ele>249.12</ele>
        <time>2017-02-23T10:57:43Z</time>
      </trkpt>
      <trkpt lat="43.76992" lon="5.247">
        <ele>252</ele>
        <time>2017-02-23T10:57:44Z</time>
      </trkpt>
      <trkpt lat="43.76991" lon="5.24691">
        <ele>250.56</ele>
        <time>2017-02-23T10:57:54Z</time>
      </trkpt>
      <trkpt lat="43.76991" lon="5.24688">
        <ele>251.04</ele>
        <time>2017-02-23T10:58:10Z</time>
      </trkpt>
      <trkpt lat="43.76991" lon="5.24687">
        <ele>251.04</ele>
        <time>2017-02-23T10:58:29Z</time>
      </trkpt>
      <trkpt lat="43.76991" lon="5.24684">
        <ele>251.04</ele>
        <time>2017-02-23T10:58:37Z</time>
      </trkpt>
      <trkpt lat="43.7699" lon="5.24685">
        <ele>251.04</ele>
        <time>2017-02-23T10:58:47Z</time>
      </trkpt>
      <trkpt lat="43.7699" lon="5.24686">
        <ele>251.52</ele>
        <time>2017-02-23T10:59:07Z</time>
      </trkpt>
      <trkpt lat="43.7699" lon="5.24686">
        <ele>251.52</ele>
        <time>2017-02-23T10:59:35Z</time>
      </trkpt>
      <trkpt lat="43.7699" lon="5.24686">
        <ele>250.56</ele>
        <time>2017-02-23T10:59:53Z</time>
      </trkpt>
      <trkpt lat="43.76991" lon="5.24689">
        <ele>252</ele>
        <time>2017-02-23T11:00:05Z</time>
      </trkpt>
      <trkpt lat="43.76991" lon="5.2469">
        <ele>252</ele>
        <time>2017-02-23T11:00:08Z</time>
      </trkpt>
      <trkpt lat="43.76992" lon="5.24704">
        <ele>252.48</ele>
        <time>2017-02-23T11:00:20Z</time>
      </trkpt>
      <trkpt lat="43.76992" lon="5.24703">
        <ele>252.48</ele>
        <time>2017-02-23T11:00:33Z</time>
      </trkpt>
      <trkpt lat="43.7699" lon="5.24708">
        <ele>252.48</ele>
        <time>2017-02-23T11:00:47Z</time>
      </trkpt>
      <trkpt lat="43.76989" lon="5.2471">
        <ele>252.96</ele>
        <time>2017-02-23T11:01:00Z</time>
      </trkpt>
      <trkpt lat="43.76987" lon="5.24717">
        <ele>252.48</ele>
        <time>2017-02-23T11:01:06Z</time>
      </trkpt>
      <trkpt lat="43.7698" lon="5.24734">
        <ele>252</ele>
        <time>2017-02-23T11:01:21Z</time>
      </trkpt>
      <trkpt lat="43.7698" lon="5.24735">
        <ele>252.48</ele>
        <time>2017-02-23T11:01:22Z</time>
      </trkpt>
      <trkpt lat="43.76978" lon="5.24739">
        <ele>252.48</ele>
        <time>2017-02-23T11:01:26Z</time>
      </trkpt>
      <trkpt lat="43.76975" lon="5.24744">
        <ele>252.48</ele>
        <time>2017-02-23T11:01:31Z</time>
      </trkpt>
      <trkpt lat="43.76972" lon="5.24751">
        <ele>252.48</ele>
        <time>2017-02-23T11:01:37Z</time>
      </trkpt>
      <trkpt lat="43.76964" lon="5.24768">
        <ele>252.48</ele>
        <time>2017-02-23T11:01:51Z</time>
      </trkpt>
      <trkpt lat="43.76961" lon="5.24774">
        <ele>252.96</ele>
        <time>2017-02-23T11:01:57Z</time>
      </trkpt>
      <trkpt lat="43.76953" lon="5.24789">
        <ele>252.96</ele>
        <time>2017-02-23T11:02:09Z</time>
      </trkpt>
      <trkpt lat="43.76945" lon="5.2481">
        <ele>252.96</ele>
        <time>2017-02-23T11:02:24Z</time>
      </trkpt>
      <trkpt lat="43.7694" lon="5.24824">
        <ele>252.96</ele>
        <time>2017-02-23T11:02:35Z</time>
      </trkpt>
      <trkpt lat="43.76934" lon="5.24846">
        <ele>252.48</ele>
        <time>2017-02-23T11:02:52Z</time>
      </trkpt>
      <trkpt lat="43.76934" lon="5.24847">
        <ele>252.48</ele>
        <time>2017-02-23T11:02:53Z</time>
      </trkpt>
      <trkpt lat="43.76931" lon="5.24855">
        <ele>252.48</ele>
        <time>2017-02-23T11:03:00Z</time>
      </trkpt>
      <trkpt lat="43.76925" lon="5.24875">
        <ele>252.48</ele>
        <time>2017-02-23T11:03:14Z</time>
      </trkpt>
      <trkpt lat="43.76924" lon="5.24877">
        <ele>252.48</ele>
        <time>2017-02-23T11:03:16Z</time>
      </trkpt>
      <trkpt lat="43.76922" lon="5.24886">
        <ele>252.48</ele>
        <time>2017-02-23T11:03:23Z</time>
      </trkpt>
      <trkpt lat="43.76916" lon="5.24906">
        <ele>252.48</ele>
        <time>2017-02-23T11:03:37Z</time>
      </trkpt>
      <trkpt lat="43.7691" lon="5.24927">
        <ele>252.48</ele>
        <time>2017-02-23T11:03:52Z</time>
      </trkpt>
      <trkpt lat="43.76909" lon="5.24929">
        <ele>252.48</ele>
        <time>2017-02-23T11:03:53Z</time>
      </trkpt>
      <trkpt lat="43.76902" lon="5.24943">
        <ele>252.96</ele>
        <time>2017-02-23T11:04:05Z</time>
      </trkpt>
      <trkpt lat="43.76901" lon="5.2495">
        <ele>252.48</ele>
        <time>2017-02-23T11:04:09Z</time>
      </trkpt>
      <trkpt lat="43.76893" lon="5.2498">
        <ele>252.96</ele>
        <time>2017-02-23T11:04:25Z</time>
      </trkpt>
      <trkpt lat="43.76889" lon="5.24997">
        <ele>253.44</ele>
        <time>2017-02-23T11:04:37Z</time>
      </trkpt>
      <trkpt lat="43.76887" lon="5.25009">
        <ele>253.93</ele>
        <time>2017-02-23T11:04:46Z</time>
      </trkpt>
      <trkpt lat="43.76886" lon="5.25023">
        <ele>253.93</ele>
        <time>2017-02-23T11:04:55Z</time>
      </trkpt>
      <trkpt lat="43.76887" lon="5.25033">
        <ele>253.93</ele>
        <time>2017-02-23T11:05:01Z</time>
      </trkpt>
      <trkpt lat="43.76888" lon="5.25039">
        <ele>253.93</ele>
        <time>2017-02-23T11:05:05Z</time>
      </trkpt>
      <trkpt lat="43.76895" lon="5.25058">
        <ele>252.96</ele>
        <time>2017-02-23T11:05:19Z</time>
      </trkpt>
      <trkpt lat="43.76895" lon="5.25059">
        <ele>252.96</ele>
        <time>2017-02-23T11:05:20Z</time>
      </trkpt>
      <trkpt lat="43.76904" lon="5.25069">
        <ele>252</ele>
        <time>2017-02-23T11:05:31Z</time>
      </trkpt>
      <trkpt lat="43.76915" lon="5.25077">
        <ele>250.56</ele>
        <time>2017-02-23T11:05:49Z</time>
      </trkpt>
      <trkpt lat="43.76919" lon="5.25081">
        <ele>250.08</ele>
        <time>2017-02-23T11:06:01Z</time>
      </trkpt>
      <trkpt lat="43.76935" lon="5.25093">
        <ele>248.64</ele>
        <time>2017-02-23T11:06:16Z</time>
      </trkpt>
      <trkpt lat="43.76939" lon="5.25096">
        <ele>247.68</ele>
        <time>2017-02-23T11:06:21Z</time>
      </trkpt>
      <trkpt lat="43.76956" lon="5.25098">
        <ele>245.75</ele>
        <time>2017-02-23T11:06:38Z</time>
      </trkpt>
      <trkpt lat="43.76957" lon="5.25099">
        <ele>245.75</ele>
        <time>2017-02-23T11:06:40Z</time>
      </trkpt>
      <trkpt lat="43.76977" lon="5.25109">
        <ele>243.83</ele>
        <time>2017-02-23T11:06:56Z</time>
      </trkpt>
      <trkpt lat="43.76987" lon="5.25111">
        <ele>242.87</ele>
        <time>2017-02-23T11:07:06Z</time>
      </trkpt>
      <trkpt lat="43.77009" lon="5.251">
        <ele>240.95</ele>
        <time>2017-02-23T11:07:24Z</time>
      </trkpt>
      <trkpt lat="43.7701" lon="5.25099">
        <ele>240.47</ele>
        <time>2017-02-23T11:07:25Z</time>
      </trkpt>
      <trkpt lat="43.77024" lon="5.25092">
        <ele>239.51</ele>
        <time>2017-02-23T11:07:36Z</time>
      </trkpt>
      <trkpt lat="43.77033" lon="5.25089">
        <ele>238.54</ele>
        <time>2017-02-23T11:07:43Z</time>
      </trkpt>
      <trkpt lat="43.77039" lon="5.25088">
        <ele>238.06</ele>
        <time>2017-02-23T11:07:48Z</time>
      </trkpt>
      <trkpt lat="43.77055" lon="5.25087">
        <ele>236.14</ele>
        <time>2017-02-23T11:08:03Z</time>
      </trkpt>
      <trkpt lat="43.77071" lon="5.25088">
        <ele>234.7</ele>
        <time>2017-02-23T11:08:16Z</time>
      </trkpt>
      <trkpt lat="43.77072" lon="5.25088">
        <ele>234.22</ele>
        <time>2017-02-23T11:08:17Z</time>
      </trkpt>
      <trkpt lat="43.77075" lon="5.25089">
        <ele>234.22</ele>
        <time>2017-02-23T11:08:20Z</time>
      </trkpt>
      <trkpt lat="43.77082" lon="5.25092">
        <ele>233.26</ele>
        <time>2017-02-23T11:08:27Z</time>
      </trkpt>
      <trkpt lat="43.77097" lon="5.251">
        <ele>231.33</ele>
        <time>2017-02-23T11:08:42Z</time>
      </trkpt>
      <trkpt lat="43.77104" lon="5.25106">
        <ele>230.85</ele>
        <time>2017-02-23T11:08:50Z</time>
      </trkpt>
      <trkpt lat="43.77106" lon="5.25108">
        <ele>230.37</ele>
        <time>2017-02-23T11:08:52Z</time>
      </trkpt>
      <trkpt lat="43.77108" lon="5.25111">
        <ele>230.37</ele>
        <time>2017-02-23T11:08:55Z</time>
      </trkpt>
      <trkpt lat="43.7712" lon="5.25126">
        <ele>228.45</ele>
        <time>2017-02-23T11:09:09Z</time>
      </trkpt>
      <trkpt lat="43.77122" lon="5.25129">
        <ele>228.45</ele>
        <time>2017-02-23T11:09:13Z</time>
      </trkpt>
      <trkpt lat="43.77124" lon="5.25133">
        <ele>227.97</ele>
        <time>2017-02-23T11:09:16Z</time>
      </trkpt>
      <trkpt lat="43.77127" lon="5.25137">
        <ele>227.49</ele>
        <time>2017-02-23T11:09:20Z</time>
      </trkpt>
      <trkpt lat="43.77135" lon="5.25147">
        <ele>226.53</ele>
        <time>2017-02-23T11:09:31Z</time>
      </trkpt>
      <trkpt lat="43.77138" lon="5.25148">
        <ele>226.05</ele>
        <time>2017-02-23T11:09:33Z</time>
      </trkpt>
      <trkpt lat="43.77152" lon="5.25156">
        <ele>225.09</ele>
        <time>2017-02-23T11:09:47Z</time>
      </trkpt>
      <trkpt lat="43.77154" lon="5.25156">
        <ele>225.09</ele>
        <time>2017-02-23T11:10:04Z</time>
      </trkpt>
      <trkpt lat="43.77156" lon="5.25157">
        <ele>225.57</ele>
        <time>2017-02-23T11:10:19Z</time>
      </trkpt>
      <trkpt lat="43.77154" lon="5.25156">
        <ele>225.57</ele>
        <time>2017-02-23T11:10:38Z</time>
      </trkpt>
      <trkpt lat="43.77154" lon="5.25155">
        <ele>225.57</ele>
        <time>2017-02-23T11:10:50Z</time>
      </trkpt>
      <trkpt lat="43.77155" lon="5.25155">
        <ele>225.57</ele>
        <time>2017-02-23T11:11:03Z</time>
      </trkpt>
      <trkpt lat="43.77158" lon="5.25154">
        <ele>226.05</ele>
        <time>2017-02-23T11:11:13Z</time>
      </trkpt>
      <trkpt lat="43.77169" lon="5.25157">
        <ele>226.05</ele>
        <time>2017-02-23T11:11:21Z</time>
      </trkpt>
      <trkpt lat="43.77177" lon="5.25158">
        <ele>226.05</ele>
        <time>2017-02-23T11:11:30Z</time>
      </trkpt>
      <trkpt lat="43.7719" lon="5.25165">
        <ele>226.53</ele>
        <time>2017-02-23T11:11:41Z</time>
      </trkpt>
      <trkpt lat="43.77198" lon="5.25173">
        <ele>227.01</ele>
        <time>2017-02-23T11:11:49Z</time>
      </trkpt>
      <trkpt lat="43.77203" lon="5.25175">
        <ele>227.01</ele>
        <time>2017-02-23T11:11:53Z</time>
      </trkpt>
      <trkpt lat="43.7721" lon="5.25181">
        <ele>227.49</ele>
        <time>2017-02-23T11:12:01Z</time>
      </trkpt>
      <trkpt lat="43.77216" lon="5.25185">
        <ele>227.97</ele>
        <time>2017-02-23T11:12:06Z</time>
      </trkpt>
      <trkpt lat="43.77218" lon="5.25188">
        <ele>227.97</ele>
        <time>2017-02-23T11:12:09Z</time>
      </trkpt>
      <trkpt lat="43.77224" lon="5.25192">
        <ele>228.45</ele>
        <time>2017-02-23T11:12:16Z</time>
      </trkpt>
      <trkpt lat="43.77228" lon="5.2519">
        <ele>228.45</ele>
        <time>2017-02-23T11:12:19Z</time>
      </trkpt>
      <trkpt lat="43.77237" lon="5.25195">
        <ele>229.41</ele>
        <time>2017-02-23T11:12:29Z</time>
      </trkpt>
      <trkpt lat="43.77239" lon="5.25201">
        <ele>229.41</ele>
        <time>2017-02-23T11:12:35Z</time>
      </trkpt>
      <trkpt lat="43.77246" lon="5.25206">
        <ele>229.89</ele>
        <time>2017-02-23T11:12:44Z</time>
      </trkpt>
      <trkpt lat="43.77247" lon="5.25206">
        <ele>229.89</ele>
        <time>2017-02-23T11:12:45Z</time>
      </trkpt>
      <trkpt lat="43.7726" lon="5.25208">
        <ele>230.37</ele>
        <time>2017-02-23T11:12:55Z</time>
      </trkpt>
      <trkpt lat="43.77272" lon="5.25213">
        <ele>230.37</ele>
        <time>2017-02-23T11:13:06Z</time>
      </trkpt>
      <trkpt lat="43.77274" lon="5.25217">
        <ele>230.85</ele>
        <time>2017-02-23T11:13:10Z</time>
      </trkpt>
      <trkpt lat="43.77282" lon="5.25221">
        <ele>231.33</ele>
        <time>2017-02-23T11:13:19Z</time>
      </trkpt>
      <trkpt lat="43.77283" lon="5.25221">
        <ele>231.33</ele>
        <time>2017-02-23T11:13:20Z</time>
      </trkpt>
      <trkpt lat="43.77286" lon="5.25221">
        <ele>231.33</ele>
        <time>2017-02-23T11:13:23Z</time>
      </trkpt>
      <trkpt lat="43.77295" lon="5.25225">
        <ele>231.81</ele>
        <time>2017-02-23T11:13:32Z</time>
      </trkpt>
      <trkpt lat="43.77299" lon="5.25226">
        <ele>231.81</ele>
        <time>2017-02-23T11:13:36Z</time>
      </trkpt>
      <trkpt lat="43.77312" lon="5.25228">
        <ele>232.3</ele>
        <time>2017-02-23T11:13:49Z</time>
      </trkpt>
      <trkpt lat="43.77321" lon="5.25222">
        <ele>233.26</ele>
        <time>2017-02-23T11:14:00Z</time>
      </trkpt>
      <trkpt lat="43.77327" lon="5.25214">
        <ele>233.74</ele>
        <time>2017-02-23T11:14:12Z</time>
      </trkpt>
      <trkpt lat="43.77337" lon="5.25207">
        <ele>234.22</ele>
        <time>2017-02-23T11:14:24Z</time>
      </trkpt>
      <trkpt lat="43.77348" lon="5.25208">
        <ele>234.7</ele>
        <time>2017-02-23T11:14:36Z</time>
      </trkpt>
      <trkpt lat="43.77351" lon="5.25209">
        <ele>235.18</ele>
        <time>2017-02-23T11:14:40Z</time>
      </trkpt>
      <trkpt lat="43.77365" lon="5.25211">
        <ele>235.66</ele>
        <time>2017-02-23T11:14:53Z</time>
      </trkpt>
      <trkpt lat="43.77376" lon="5.25208">
        <ele>236.14</ele>
        <time>2017-02-23T11:15:04Z</time>
      </trkpt>
      <trkpt lat="43.77384" lon="5.25207">
        <ele>236.62</ele>
        <time>2017-02-23T11:15:16Z</time>
      </trkpt>
      <trkpt lat="43.77384" lon="5.25206">
        <ele>236.62</ele>
        <time>2017-02-23T11:15:17Z</time>
      </trkpt>
      <trkpt lat="43.77388" lon="5.25206">
        <ele>236.62</ele>
        <time>2017-02-23T11:15:21Z</time>
      </trkpt>
      <trkpt lat="43.7739" lon="5.25205">
        <ele>237.1</ele>
        <time>2017-02-23T11:15:24Z</time>
      </trkpt>
      <trkpt lat="43.7739" lon="5.25207">
        <ele>237.1</ele>
        <time>2017-02-23T11:15:31Z</time>
      </trkpt>
      <trkpt lat="43.77398" lon="5.25205">
        <ele>237.58</ele>
        <time>2017-02-23T11:15:41Z</time>
      </trkpt>
      <trkpt lat="43.77398" lon="5.25206">
        <ele>238.06</ele>
        <time>2017-02-23T11:15:44Z</time>
      </trkpt>
      <trkpt lat="43.77399" lon="5.25207">
        <ele>238.06</ele>
        <time>2017-02-23T11:15:49Z</time>
      </trkpt>
      <trkpt lat="43.77433" lon="5.25194">
        <ele>239.02</ele>
        <time>2017-02-23T11:16:01Z</time>
      </trkpt>
      <trkpt lat="43.77447" lon="5.25197">
        <ele>239.51</ele>
        <time>2017-02-23T11:16:12Z</time>
      </trkpt>
      <trkpt lat="43.77459" lon="5.25205">
        <ele>239.99</ele>
        <time>2017-02-23T11:16:23Z</time>
      </trkpt>
      <trkpt lat="43.77468" lon="5.25216">
        <ele>240.47</ele>
        <time>2017-02-23T11:16:34Z</time>
      </trkpt>
      <trkpt lat="43.77469" lon="5.25217">
        <ele>240.95</ele>
        <time>2017-02-23T11:16:35Z</time>
      </trkpt>
      <trkpt lat="43.77472" lon="5.25228">
        <ele>240.95</ele>
        <time>2017-02-23T11:16:43Z</time>
      </trkpt>
      <trkpt lat="43.77477" lon="5.2524">
        <ele>241.43</ele>
        <time>2017-02-23T11:16:52Z</time>
      </trkpt>
      <trkpt lat="43.77483" lon="5.25251">
        <ele>241.43</ele>
        <time>2017-02-23T11:17:03Z</time>
      </trkpt>
      <trkpt lat="43.7749" lon="5.2526">
        <ele>241.91</ele>
        <time>2017-02-23T11:17:13Z</time>
      </trkpt>
      <trkpt lat="43.77493" lon="5.25265">
        <ele>241.91</ele>
        <time>2017-02-23T11:17:17Z</time>
      </trkpt>
      <trkpt lat="43.77496" lon="5.25273">
        <ele>242.39</ele>
        <time>2017-02-23T11:17:23Z</time>
      </trkpt>
      <trkpt lat="43.77501" lon="5.25284">
        <ele>242.87</ele>
        <time>2017-02-23T11:17:32Z</time>
      </trkpt>
      <trkpt lat="43.77505" lon="5.25299">
        <ele>243.83</ele>
        <time>2017-02-23T11:17:44Z</time>
      </trkpt>
      <trkpt lat="43.77512" lon="5.25317">
        <ele>244.31</ele>
        <time>2017-02-23T11:17:58Z</time>
      </trkpt>
      <trkpt lat="43.77512" lon="5.25324">
        <ele>244.79</ele>
        <time>2017-02-23T11:18:03Z</time>
      </trkpt>
      <trkpt lat="43.77516" lon="5.2534">
        <ele>245.27</ele>
        <time>2017-02-23T11:18:16Z</time>
      </trkpt>
      <trkpt lat="43.77517" lon="5.25344">
        <ele>245.75</ele>
        <time>2017-02-23T11:18:18Z</time>
      </trkpt>
      <trkpt lat="43.77518" lon="5.25348">
        <ele>245.75</ele>
        <time>2017-02-23T11:18:21Z</time>
      </trkpt>
      <trkpt lat="43.77522" lon="5.25369">
        <ele>246.23</ele>
        <time>2017-02-23T11:18:35Z</time>
      </trkpt>
      <trkpt lat="43.77524" lon="5.25388">
        <ele>247.2</ele>
        <time>2017-02-23T11:18:49Z</time>
      </trkpt>
      <trkpt lat="43.77526" lon="5.25402">
        <ele>247.68</ele>
        <time>2017-02-23T11:18:58Z</time>
      </trkpt>
      <trkpt lat="43.77527" lon="5.25406">
        <ele>247.68</ele>
        <time>2017-02-23T11:19:01Z</time>
      </trkpt>
      <trkpt lat="43.77528" lon="5.2541">
        <ele>247.68</ele>
        <time>2017-02-23T11:19:04Z</time>
      </trkpt>
      <trkpt lat="43.7753" lon="5.25414">
        <ele>248.16</ele>
        <time>2017-02-23T11:19:07Z</time>
      </trkpt>
      <trkpt lat="43.77535" lon="5.25434">
        <ele>248.64</ele>
        <time>2017-02-23T11:19:21Z</time>
      </trkpt>
      <trkpt lat="43.7754" lon="5.25442">
        <ele>249.12</ele>
        <time>2017-02-23T11:19:28Z</time>
      </trkpt>
      <trkpt lat="43.77541" lon="5.25444">
        <ele>249.12</ele>
        <time>2017-02-23T11:19:30Z</time>
      </trkpt>
      <trkpt lat="43.7755" lon="5.25457">
        <ele>250.08</ele>
        <time>2017-02-23T11:19:43Z</time>
      </trkpt>
      <trkpt lat="43.77553" lon="5.2546">
        <ele>250.08</ele>
        <time>2017-02-23T11:19:46Z</time>
      </trkpt>
      <trkpt lat="43.77555" lon="5.25462">
        <ele>250.08</ele>
        <time>2017-02-23T11:19:49Z</time>
      </trkpt>
      <trkpt lat="43.77566" lon="5.25475">
        <ele>251.04</ele>
        <time>2017-02-23T11:20:03Z</time>
      </trkpt>
      <trkpt lat="43.77575" lon="5.25488">
        <ele>251.52</ele>
        <time>2017-02-23T11:20:15Z</time>
      </trkpt>
      <trkpt lat="43.77581" lon="5.25496">
        <ele>252</ele>
        <time>2017-02-23T11:20:25Z</time>
      </trkpt>
      <trkpt lat="43.77585" lon="5.25498">
        <ele>252</ele>
        <time>2017-02-23T11:20:27Z</time>
      </trkpt>
      <trkpt lat="43.7759" lon="5.25503">
        <ele>252</ele>
        <time>2017-02-23T11:20:32Z</time>
      </trkpt>
      <trkpt lat="43.77591" lon="5.25506">
        <ele>252.48</ele>
        <time>2017-02-23T11:20:34Z</time>
      </trkpt>
      <trkpt lat="43.77593" lon="5.25516">
        <ele>252.96</ele>
        <time>2017-02-23T11:20:42Z</time>
      </trkpt>
      <trkpt lat="43.77601" lon="5.25529">
        <ele>253.93</ele>
        <time>2017-02-23T11:20:54Z</time>
      </trkpt>
      <trkpt lat="43.77601" lon="5.2553">
        <ele>253.44</ele>
        <time>2017-02-23T11:20:55Z</time>
      </trkpt>
      <trkpt lat="43.77601" lon="5.25538">
        <ele>254.41</ele>
        <time>2017-02-23T11:21:06Z</time>
      </trkpt>
      <trkpt lat="43.7761" lon="5.25547">
        <ele>255.37</ele>
        <time>2017-02-23T11:21:17Z</time>
      </trkpt>
      <trkpt lat="43.77619" lon="5.2555">
        <ele>255.85</ele>
        <time>2017-02-23T11:21:34Z</time>
      </trkpt>
      <trkpt lat="43.7762" lon="5.25552">
        <ele>255.85</ele>
        <time>2017-02-23T11:21:36Z</time>
      </trkpt>
      <trkpt lat="43.77626" lon="5.25562">
        <ele>255.85</ele>
        <time>2017-02-23T11:21:42Z</time>
      </trkpt>
      <trkpt lat="43.77636" lon="5.25569">
        <ele>256.33</ele>
        <time>2017-02-23T11:21:51Z</time>
      </trkpt>
      <trkpt lat="43.77639" lon="5.25569">
        <ele>256.33</ele>
        <time>2017-02-23T11:21:54Z</time>
      </trkpt>
      <trkpt lat="43.77641" lon="5.2557">
        <ele>256.33</ele>
        <time>2017-02-23T11:21:56Z</time>
      </trkpt>
      <trkpt lat="43.77647" lon="5.25576">
        <ele>257.29</ele>
        <time>2017-02-23T11:22:10Z</time>
      </trkpt>
      <trkpt lat="43.77651" lon="5.25583">
        <ele>257.77</ele>
        <time>2017-02-23T11:22:24Z</time>
      </trkpt>
      <trkpt lat="43.77659" lon="5.25588">
        <ele>258.25</ele>
        <time>2017-02-23T11:22:37Z</time>
      </trkpt>
      <trkpt lat="43.77668" lon="5.2559">
        <ele>259.69</ele>
        <time>2017-02-23T11:22:50Z</time>
      </trkpt>
      <trkpt lat="43.77671" lon="5.25586">
        <ele>259.21</ele>
        <time>2017-02-23T11:23:03Z</time>
      </trkpt>
      <trkpt lat="43.77674" lon="5.25585">
        <ele>258.73</ele>
        <time>2017-02-23T11:23:37Z</time>
      </trkpt>
      <trkpt lat="43.77676" lon="5.25584">
        <ele>259.21</ele>
        <time>2017-02-23T11:24:09Z</time>
      </trkpt>
      <trkpt lat="43.77674" lon="5.25588">
        <ele>260.17</ele>
        <time>2017-02-23T11:24:35Z</time>
      </trkpt>
      <trkpt lat="43.77675" lon="5.25588">
        <ele>259.21</ele>
        <time>2017-02-23T11:24:55Z</time>
      </trkpt>
      <trkpt lat="43.77675" lon="5.25587">
        <ele>259.21</ele>
        <time>2017-02-23T11:25:17Z</time>
      </trkpt>
      <trkpt lat="43.77672" lon="5.25587">
        <ele>259.21</ele>
        <time>2017-02-23T11:25:43Z</time>
      </trkpt>
      <trkpt lat="43.77672" lon="5.25585">
        <ele>259.69</ele>
        <time>2017-02-23T11:26:08Z</time>
      </trkpt>
      <trkpt lat="43.77671" lon="5.25587">
        <ele>259.21</ele>
        <time>2017-02-23T11:26:42Z</time>
      </trkpt>
      <trkpt lat="43.77672" lon="5.25587">
        <ele>259.21</ele>
        <time>2017-02-23T11:27:09Z</time>
      </trkpt>
      <trkpt lat="43.77672" lon="5.25587">
        <ele>260.17</ele>
        <time>2017-02-23T11:27:34Z</time>
      </trkpt>
      <trkpt lat="43.77673" lon="5.25586">
        <ele>259.69</ele>
        <time>2017-02-23T11:28:05Z</time>
      </trkpt>
      <trkpt lat="43.77673" lon="5.25587">
        <ele>259.69</ele>
        <time>2017-02-23T11:28:33Z</time>
      </trkpt>
      <trkpt lat="43.77674" lon="5.25588">
        <ele>259.69</ele>
        <time>2017-02-23T11:29:04Z</time>
      </trkpt>
      <trkpt lat="43.77673" lon="5.25585">
        <ele>260.17</ele>
        <time>2017-02-23T11:29:32Z</time>
      </trkpt>
      <trkpt lat="43.77674" lon="5.25586">
        <ele>260.17</ele>
        <time>2017-02-23T11:29:58Z</time>
      </trkpt>
      <trkpt lat="43.77674" lon="5.25585">
        <ele>260.17</ele>
        <time>2017-02-23T11:30:21Z</time>
      </trkpt>
      <trkpt lat="43.77674" lon="5.25585">
        <ele>260.17</ele>
        <time>2017-02-23T11:30:48Z</time>
      </trkpt>
      <trkpt lat="43.77674" lon="5.25585">
        <ele>260.17</ele>
        <time>2017-02-23T11:31:13Z</time>
      </trkpt>
      <trkpt lat="43.77673" lon="5.25585">
        <ele>260.17</ele>
        <time>2017-02-23T11:31:43Z</time>
      </trkpt>
      <trkpt lat="43.77673" lon="5.25585">
        <ele>260.65</ele>
        <time>2017-02-23T11:32:14Z</time>
      </trkpt>
      <trkpt lat="43.77672" lon="5.25583">
        <ele>260.65</ele>
        <time>2017-02-23T11:32:40Z</time>
      </trkpt>
      <trkpt lat="43.77673" lon="5.25584">
        <ele>260.65</ele>
        <time>2017-02-23T11:33:04Z</time>
      </trkpt>
      <trkpt lat="43.77673" lon="5.25584">
        <ele>260.65</ele>
        <time>2017-02-23T11:33:34Z</time>
      </trkpt>
      <trkpt lat="43.77673" lon="5.25585">
        <ele>261.14</ele>
        <time>2017-02-23T11:34:04Z</time>
      </trkpt>
      <trkpt lat="43.77673" lon="5.25587">
        <ele>261.14</ele>
        <time>2017-02-23T11:34:34Z</time>
      </trkpt>
      <trkpt lat="43.77672" lon="5.25587">
        <ele>261.62</ele>
        <time>2017-02-23T11:35:01Z</time>
      </trkpt>
      <trkpt lat="43.77672" lon="5.25587">
        <ele>261.62</ele>
        <time>2017-02-23T11:35:35Z</time>
      </trkpt>
      <trkpt lat="43.77672" lon="5.25586">
        <ele>261.14</ele>
        <time>2017-02-23T11:36:04Z</time>
      </trkpt>
      <trkpt lat="43.77672" lon="5.25587">
        <ele>261.62</ele>
        <time>2017-02-23T11:36:37Z</time>
      </trkpt>
      <trkpt lat="43.77671" lon="5.25586">
        <ele>261.14</ele>
        <time>2017-02-23T11:37:09Z</time>
      </trkpt>
      <trkpt lat="43.77671" lon="5.25586">
        <ele>261.14</ele>
        <time>2017-02-23T11:37:43Z</time>
      </trkpt>
      <trkpt lat="43.77671" lon="5.25586">
        <ele>261.62</ele>
        <time>2017-02-23T11:38:18Z</time>
      </trkpt>
      <trkpt lat="43.77671" lon="5.25587">
        <ele>261.62</ele>
        <time>2017-02-23T11:38:51Z</time>
      </trkpt>
      <trkpt lat="43.77671" lon="5.25587">
        <ele>261.62</ele>
        <time>2017-02-23T11:39:24Z</time>
      </trkpt>
      <trkpt lat="43.77672" lon="5.25588">
        <ele>261.62</ele>
        <time>2017-02-23T11:39:55Z</time>
      </trkpt>
      <trkpt lat="43.77673" lon="5.25588">
        <ele>262.1</ele>
        <time>2017-02-23T11:40:26Z</time>
      </trkpt>
      <trkpt lat="43.77673" lon="5.25588">
        <ele>262.1</ele>
        <time>2017-02-23T11:40:53Z</time>
      </trkpt>
      <trkpt lat="43.77672" lon="5.25588">
        <ele>262.58</ele>
        <time>2017-02-23T11:41:21Z</time>
      </trkpt>
      <trkpt lat="43.77674" lon="5.25587">
        <ele>262.58</ele>
        <time>2017-02-23T11:41:50Z</time>
      </trkpt>
      <trkpt lat="43.77673" lon="5.25586">
        <ele>262.58</ele>
        <time>2017-02-23T11:42:20Z</time>
      </trkpt>
      <trkpt lat="43.77672" lon="5.25585">
        <ele>262.58</ele>
        <time>2017-02-23T11:42:46Z</time>
      </trkpt>
      <trkpt lat="43.77672" lon="5.25585">
        <ele>263.06</ele>
        <time>2017-02-23T11:43:12Z</time>
      </trkpt>
      <trkpt lat="43.77673" lon="5.25584">
        <ele>262.58</ele>
        <time>2017-02-23T11:43:42Z</time>
      </trkpt>
      <trkpt lat="43.77674" lon="5.25585">
        <ele>263.54</ele>
        <time>2017-02-23T11:44:13Z</time>
      </trkpt>
      <trkpt lat="43.77674" lon="5.25584">
        <ele>263.54</ele>
        <time>2017-02-23T11:44:43Z</time>
      </trkpt>
      <trkpt lat="43.77674" lon="5.25585">
        <ele>263.54</ele>
        <time>2017-02-23T11:45:11Z</time>
      </trkpt>
      <trkpt lat="43.77674" lon="5.25585">
        <ele>263.54</ele>
        <time>2017-02-23T11:45:40Z</time>
      </trkpt>
      <trkpt lat="43.77674" lon="5.25585">
        <ele>263.54</ele>
        <time>2017-02-23T11:46:06Z</time>
      </trkpt>
      <trkpt lat="43.77673" lon="5.25586">
        <ele>264.02</ele>
        <time>2017-02-23T11:46:34Z</time>
      </trkpt>
      <trkpt lat="43.77673" lon="5.25587">
        <ele>264.02</ele>
        <time>2017-02-23T11:46:59Z</time>
      </trkpt>
      <trkpt lat="43.77673" lon="5.25586">
        <ele>264.02</ele>
        <time>2017-02-23T11:47:29Z</time>
      </trkpt>
      <trkpt lat="43.77674" lon="5.25587">
        <ele>264.5</ele>
        <time>2017-02-23T11:47:57Z</time>
      </trkpt>
      <trkpt lat="43.77674" lon="5.25588">
        <ele>264.5</ele>
        <time>2017-02-23T11:48:28Z</time>
      </trkpt>
      <trkpt lat="43.77673" lon="5.25588">
        <ele>264.5</ele>
        <time>2017-02-23T11:48:58Z</time>
      </trkpt>
      <trkpt lat="43.77672" lon="5.25586">
        <ele>264.98</ele>
        <time>2017-02-23T11:49:23Z</time>
      </trkpt>
      <trkpt lat="43.77673" lon="5.25586">
        <ele>264.5</ele>
        <time>2017-02-23T11:49:54Z</time>
      </trkpt>
      <trkpt lat="43.77673" lon="5.25587">
        <ele>264.5</ele>
        <time>2017-02-23T11:50:26Z</time>
      </trkpt>
      <trkpt lat="43.77673" lon="5.25586">
        <ele>264.98</ele>
        <time>2017-02-23T11:50:56Z</time>
      </trkpt>
      <trkpt lat="43.77674" lon="5.25584">
        <ele>265.46</ele>
        <time>2017-02-23T11:51:26Z</time>
      </trkpt>
      <trkpt lat="43.77674" lon="5.25583">
        <ele>265.46</ele>
        <time>2017-02-23T11:51:57Z</time>
      </trkpt>
      <trkpt lat="43.77673" lon="5.25584">
        <ele>265.94</ele>
        <time>2017-02-23T11:52:31Z</time>
      </trkpt>
      <trkpt lat="43.77673" lon="5.25586">
        <ele>265.94</ele>
        <time>2017-02-23T11:53:02Z</time>
      </trkpt>
      <trkpt lat="43.77674" lon="5.25586">
        <ele>265.94</ele>
        <time>2017-02-23T11:53:30Z</time>
      </trkpt>
      <trkpt lat="43.77674" lon="5.25585">
        <ele>265.94</ele>
        <time>2017-02-23T11:53:55Z</time>
      </trkpt>
      <trkpt lat="43.77675" lon="5.25586">
        <ele>266.42</ele>
        <time>2017-02-23T11:54:13Z</time>
      </trkpt>
      <trkpt lat="43.77675" lon="5.25586">
        <ele>266.42</ele>
        <time>2017-02-23T11:54:26Z</time>
      </trkpt>
      <trkpt lat="43.77673" lon="5.25586">
        <ele>266.9</ele>
        <time>2017-02-23T11:54:54Z</time>
      </trkpt>
      <trkpt lat="43.77672" lon="5.25585">
        <ele>266.9</ele>
        <time>2017-02-23T11:55:23Z</time>
      </trkpt>
      <trkpt lat="43.77673" lon="5.25586">
        <ele>266.9</ele>
        <time>2017-02-23T11:55:56Z</time>
      </trkpt>
      <trkpt lat="43.77673" lon="5.25586">
        <ele>266.9</ele>
        <time>2017-02-23T11:56:25Z</time>
      </trkpt>
      <trkpt lat="43.77673" lon="5.25587">
        <ele>266.42</ele>
        <time>2017-02-23T11:56:53Z</time>
      </trkpt>
      <trkpt lat="43.77673" lon="5.25588">
        <ele>266.42</ele>
        <time>2017-02-23T11:57:26Z</time>
      </trkpt>
      <trkpt lat="43.77673" lon="5.25587">
        <ele>266.42</ele>
        <time>2017-02-23T11:57:56Z</time>
      </trkpt>
      <trkpt lat="43.77673" lon="5.25588">
        <ele>266.42</ele>
        <time>2017-02-23T11:58:23Z</time>
      </trkpt>
      <trkpt lat="43.77672" lon="5.25588">
        <ele>266.9</ele>
        <time>2017-02-23T11:58:54Z</time>
      </trkpt>
      <trkpt lat="43.77673" lon="5.25589">
        <ele>266.9</ele>
        <time>2017-02-23T11:59:29Z</time>
      </trkpt>
      <trkpt lat="43.77672" lon="5.25588">
        <ele>266.9</ele>
        <time>2017-02-23T11:59:59Z</time>
      </trkpt>
      <trkpt lat="43.77674" lon="5.25588">
        <ele>266.42</ele>
        <time>2017-02-23T12:00:32Z</time>
      </trkpt>
      <trkpt lat="43.77674" lon="5.25588">
        <ele>266.9</ele>
        <time>2017-02-23T12:01:10Z</time>
      </trkpt>
      <trkpt lat="43.77673" lon="5.25589">
        <ele>267.38</ele>
        <time>2017-02-23T12:01:47Z</time>
      </trkpt>
      <trkpt lat="43.77674" lon="5.25589">
        <ele>267.38</ele>
        <time>2017-02-23T12:02:20Z</time>
      </trkpt>
      <trkpt lat="43.77674" lon="5.25589">
        <ele>267.38</ele>
        <time>2017-02-23T12:02:51Z</time>
      </trkpt>
      <trkpt lat="43.77674" lon="5.25589">
        <ele>267.38</ele>
        <time>2017-02-23T12:03:20Z</time>
      </trkpt>
      <trkpt lat="43.77674" lon="5.25589">
        <ele>267.38</ele>
        <time>2017-02-23T12:03:52Z</time>
      </trkpt>
      <trkpt lat="43.77673" lon="5.25588">
        <ele>267.86</ele>
        <time>2017-02-23T12:04:24Z</time>
      </trkpt>
      <trkpt lat="43.77672" lon="5.25589">
        <ele>267.38</ele>
        <time>2017-02-23T12:04:54Z</time>
      </trkpt>
      <trkpt lat="43.77671" lon="5.25589">
        <ele>267.38</ele>
        <time>2017-02-23T12:05:24Z</time>
      </trkpt>
      <trkpt lat="43.77672" lon="5.2559">
        <ele>267.38</ele>
        <time>2017-02-23T12:05:57Z</time>
      </trkpt>
      <trkpt lat="43.77672" lon="5.2559">
        <ele>267.86</ele>
        <time>2017-02-23T12:06:29Z</time>
      </trkpt>
      <trkpt lat="43.77673" lon="5.25588">
        <ele>267.38</ele>
        <time>2017-02-23T12:07:01Z</time>
      </trkpt>
      <trkpt lat="43.77673" lon="5.25588">
        <ele>267.38</ele>
        <time>2017-02-23T12:07:36Z</time>
      </trkpt>
      <trkpt lat="43.77673" lon="5.25588">
        <ele>267.38</ele>
        <time>2017-02-23T12:08:08Z</time>
      </trkpt>
      <trkpt lat="43.77673" lon="5.25588">
        <ele>267.38</ele>
        <time>2017-02-23T12:08:39Z</time>
      </trkpt>
      <trkpt lat="43.77672" lon="5.25585">
        <ele>267.38</ele>
        <time>2017-02-23T12:09:11Z</time>
      </trkpt>
      <trkpt lat="43.77674" lon="5.25586">
        <ele>267.38</ele>
        <time>2017-02-23T12:09:43Z</time>
      </trkpt>
      <trkpt lat="43.77673" lon="5.25586">
        <ele>267.38</ele>
        <time>2017-02-23T12:10:22Z</time>
      </trkpt>
      <trkpt lat="43.77673" lon="5.25589">
        <ele>267.38</ele>
        <time>2017-02-23T12:10:59Z</time>
      </trkpt>
      <trkpt lat="43.77671" lon="5.25587">
        <ele>267.38</ele>
        <time>2017-02-23T12:11:33Z</time>
      </trkpt>
      <trkpt lat="43.77672" lon="5.25588">
        <ele>267.38</ele>
        <time>2017-02-23T12:12:07Z</time>
      </trkpt>
      <trkpt lat="43.77672" lon="5.25589">
        <ele>267.38</ele>
        <time>2017-02-23T12:12:36Z</time>
      </trkpt>
      <trkpt lat="43.77672" lon="5.25589">
        <ele>267.38</ele>
        <time>2017-02-23T12:13:05Z</time>
      </trkpt>
      <trkpt lat="43.77673" lon="5.25588">
        <ele>267.38</ele>
        <time>2017-02-23T12:13:35Z</time>
      </trkpt>
      <trkpt lat="43.77672" lon="5.25587">
        <ele>267.38</ele>
        <time>2017-02-23T12:14:08Z</time>
      </trkpt>
      <trkpt lat="43.77673" lon="5.25588">
        <ele>267.38</ele>
        <time>2017-02-23T12:14:44Z</time>
      </trkpt>
      <trkpt lat="43.77671" lon="5.25585">
        <ele>266.9</ele>
        <time>2017-02-23T12:15:23Z</time>
      </trkpt>
      <trkpt lat="43.7767" lon="5.25586">
        <ele>266.42</ele>
        <time>2017-02-23T12:15:58Z</time>
      </trkpt>
      <trkpt lat="43.77671" lon="5.25587">
        <ele>266.9</ele>
        <time>2017-02-23T12:16:33Z</time>
      </trkpt>
      <trkpt lat="43.77672" lon="5.25587">
        <ele>266.9</ele>
        <time>2017-02-23T12:17:03Z</time>
      </trkpt>
      <trkpt lat="43.77672" lon="5.25587">
        <ele>266.42</ele>
        <time>2017-02-23T12:17:35Z</time>
      </trkpt>
      <trkpt lat="43.77672" lon="5.25586">
        <ele>266.9</ele>
        <time>2017-02-23T12:18:10Z</time>
      </trkpt>
      <trkpt lat="43.77672" lon="5.25586">
        <ele>266.9</ele>
        <time>2017-02-23T12:18:43Z</time>
      </trkpt>
      <trkpt lat="43.77672" lon="5.25586">
        <ele>266.9</ele>
        <time>2017-02-23T12:19:15Z</time>
      </trkpt>
      <trkpt lat="43.77672" lon="5.25587">
        <ele>266.42</ele>
        <time>2017-02-23T12:19:48Z</time>
      </trkpt>
      <trkpt lat="43.77672" lon="5.25587">
        <ele>266.42</ele>
        <time>2017-02-23T12:20:18Z</time>
      </trkpt>
      <trkpt lat="43.77673" lon="5.25589">
        <ele>266.42</ele>
        <time>2017-02-23T12:20:47Z</time>
      </trkpt>
      <trkpt lat="43.77671" lon="5.25587">
        <ele>266.42</ele>
        <time>2017-02-23T12:21:22Z</time>
      </trkpt>
      <trkpt lat="43.77672" lon="5.25586">
        <ele>266.42</ele>
        <time>2017-02-23T12:21:52Z</time>
      </trkpt>
      <trkpt lat="43.77673" lon="5.25588">
        <ele>266.42</ele>
        <time>2017-02-23T12:22:22Z</time>
      </trkpt>
      <trkpt lat="43.77673" lon="5.25588">
        <ele>265.94</ele>
        <time>2017-02-23T12:22:52Z</time>
      </trkpt>
      <trkpt lat="43.77673" lon="5.25589">
        <ele>265.94</ele>
        <time>2017-02-23T12:23:24Z</time>
      </trkpt>
      <trkpt lat="43.77673" lon="5.25589">
        <ele>265.94</ele>
        <time>2017-02-23T12:23:53Z</time>
      </trkpt>
      <trkpt lat="43.77672" lon="5.25588">
        <ele>265.94</ele>
        <time>2017-02-23T12:24:28Z</time>
      </trkpt>
      <trkpt lat="43.77672" lon="5.25587">
        <ele>265.94</ele>
        <time>2017-02-23T12:25:01Z</time>
      </trkpt>
      <trkpt lat="43.77672" lon="5.25588">
        <ele>265.94</ele>
        <time>2017-02-23T12:25:37Z</time>
      </trkpt>
      <trkpt lat="43.77673" lon="5.2559">
        <ele>265.94</ele>
        <time>2017-02-23T12:26:10Z</time>
      </trkpt>
      <trkpt lat="43.77672" lon="5.25588">
        <ele>265.94</ele>
        <time>2017-02-23T12:26:48Z</time>
      </trkpt>
      <trkpt lat="43.77672" lon="5.25588">
        <ele>265.46</ele>
        <time>2017-02-23T12:27:26Z</time>
      </trkpt>
      <trkpt lat="43.77671" lon="5.25587">
        <ele>264.5</ele>
        <time>2017-02-23T12:27:58Z</time>
      </trkpt>
      <trkpt lat="43.77672" lon="5.2559">
        <ele>264.5</ele>
        <time>2017-02-23T12:28:30Z</time>
      </trkpt>
      <trkpt lat="43.77672" lon="5.25589">
        <ele>265.46</ele>
        <time>2017-02-23T12:29:09Z</time>
      </trkpt>
      <trkpt lat="43.77671" lon="5.25588">
        <ele>265.46</ele>
        <time>2017-02-23T12:29:44Z</time>
      </trkpt>
      <trkpt lat="43.77672" lon="5.2559">
        <ele>264.98</ele>
        <time>2017-02-23T12:30:18Z</time>
      </trkpt>
      <trkpt lat="43.77672" lon="5.2559">
        <ele>264.5</ele>
        <time>2017-02-23T12:30:58Z</time>
      </trkpt>
      <trkpt lat="43.77673" lon="5.25589">
        <ele>264.02</ele>
        <time>2017-02-23T12:31:32Z</time>
      </trkpt>
      <trkpt lat="43.77673" lon="5.25588">
        <ele>263.54</ele>
        <time>2017-02-23T12:32:01Z</time>
      </trkpt>
      <trkpt lat="43.77672" lon="5.25589">
        <ele>263.54</ele>
        <time>2017-02-23T12:32:31Z</time>
      </trkpt>
      <trkpt lat="43.77672" lon="5.25588">
        <ele>263.54</ele>
        <time>2017-02-23T12:33:06Z</time>
      </trkpt>
      <trkpt lat="43.77672" lon="5.25589">
        <ele>263.54</ele>
        <time>2017-02-23T12:33:34Z</time>
      </trkpt>
      <trkpt lat="43.77672" lon="5.25588">
        <ele>263.06</ele>
        <time>2017-02-23T12:34:12Z</time>
      </trkpt>
      <trkpt lat="43.77674" lon="5.25589">
        <ele>263.06</ele>
        <time>2017-02-23T12:34:45Z</time>
      </trkpt>
      <trkpt lat="43.77674" lon="5.25588">
        <ele>263.54</ele>
        <time>2017-02-23T12:35:19Z</time>
      </trkpt>
      <trkpt lat="43.77675" lon="5.25589">
        <ele>263.06</ele>
        <time>2017-02-23T12:35:55Z</time>
      </trkpt>
      <trkpt lat="43.77675" lon="5.25588">
        <ele>263.54</ele>
        <time>2017-02-23T12:36:14Z</time>
      </trkpt>
      <trkpt lat="43.77674" lon="5.25588">
        <ele>264.02</ele>
        <time>2017-02-23T12:36:21Z</time>
      </trkpt>
      <trkpt lat="43.77672" lon="5.2559">
        <ele>264.02</ele>
        <time>2017-02-23T12:36:25Z</time>
      </trkpt>
      <trkpt lat="43.7767" lon="5.25591">
        <ele>264.02</ele>
        <time>2017-02-23T12:36:40Z</time>
      </trkpt>
      <trkpt lat="43.77669" lon="5.25592">
        <ele>263.54</ele>
        <time>2017-02-23T12:37:06Z</time>
      </trkpt>
      <trkpt lat="43.77669" lon="5.25591">
        <ele>263.54</ele>
        <time>2017-02-23T12:37:29Z</time>
      </trkpt>
      <trkpt lat="43.77669" lon="5.2559">
        <ele>263.06</ele>
        <time>2017-02-23T12:37:59Z</time>
      </trkpt>
      <trkpt lat="43.77669" lon="5.25589">
        <ele>263.06</ele>
        <time>2017-02-23T12:38:30Z</time>
      </trkpt>
      <trkpt lat="43.77672" lon="5.25588">
        <ele>263.54</ele>
        <time>2017-02-23T12:39:05Z</time>
      </trkpt>
      <trkpt lat="43.77672" lon="5.25589">
        <ele>263.54</ele>
        <time>2017-02-23T12:39:37Z</time>
      </trkpt>
      <trkpt lat="43.77672" lon="5.25589">
        <ele>263.54</ele>
        <time>2017-02-23T12:40:04Z</time>
      </trkpt>
      <trkpt lat="43.77672" lon="5.2559">
        <ele>263.54</ele>
        <time>2017-02-23T12:40:39Z</time>
      </trkpt>
      <trkpt lat="43.77672" lon="5.25588">
        <ele>263.54</ele>
        <time>2017-02-23T12:41:20Z</time>
      </trkpt>
      <trkpt lat="43.77672" lon="5.25587">
        <ele>263.06</ele>
        <time>2017-02-23T12:41:54Z</time>
      </trkpt>
      <trkpt lat="43.77673" lon="5.25587">
        <ele>262.58</ele>
        <time>2017-02-23T12:42:23Z</time>
      </trkpt>
      <trkpt lat="43.77674" lon="5.25587">
        <ele>263.06</ele>
        <time>2017-02-23T12:42:57Z</time>
      </trkpt>
      <trkpt lat="43.77671" lon="5.25589">
        <ele>264.02</ele>
        <time>2017-02-23T12:43:12Z</time>
      </trkpt>
      <trkpt lat="43.77665" lon="5.25594">
        <ele>264.02</ele>
        <time>2017-02-23T12:43:26Z</time>
      </trkpt>
      <trkpt lat="43.77663" lon="5.25605">
        <ele>264.02</ele>
        <time>2017-02-23T12:43:40Z</time>
      </trkpt>
      <trkpt lat="43.77663" lon="5.25608">
        <ele>263.54</ele>
        <time>2017-02-23T12:43:55Z</time>
      </trkpt>
      <trkpt lat="43.77668" lon="5.25608">
        <ele>264.02</ele>
        <time>2017-02-23T12:44:10Z</time>
      </trkpt>
      <trkpt lat="43.77673" lon="5.25619">
        <ele>264.02</ele>
        <time>2017-02-23T12:44:24Z</time>
      </trkpt>
      <trkpt lat="43.77675" lon="5.25632">
        <ele>264.98</ele>
        <time>2017-02-23T12:44:38Z</time>
      </trkpt>
      <trkpt lat="43.77676" lon="5.25634">
        <ele>264.98</ele>
        <time>2017-02-23T12:44:39Z</time>
      </trkpt>
      <trkpt lat="43.77677" lon="5.25638">
        <ele>264.98</ele>
        <time>2017-02-23T12:44:43Z</time>
      </trkpt>
      <trkpt lat="43.77678" lon="5.25653">
        <ele>265.94</ele>
        <time>2017-02-23T12:44:56Z</time>
      </trkpt>
      <trkpt lat="43.77678" lon="5.25661">
        <ele>266.42</ele>
        <time>2017-02-23T12:45:06Z</time>
      </trkpt>
      <trkpt lat="43.77685" lon="5.2567">
        <ele>267.38</ele>
        <time>2017-02-23T12:45:20Z</time>
      </trkpt>
      <trkpt lat="43.77684" lon="5.25673">
        <ele>266.9</ele>
        <time>2017-02-23T12:45:36Z</time>
      </trkpt>
      <trkpt lat="43.77684" lon="5.25671">
        <ele>266.42</ele>
        <time>2017-02-23T12:45:56Z</time>
      </trkpt>
      <trkpt lat="43.77684" lon="5.25671">
        <ele>266.9</ele>
        <time>2017-02-23T12:46:11Z</time>
      </trkpt>
      <trkpt lat="43.77686" lon="5.25673">
        <ele>267.38</ele>
        <time>2017-02-23T12:46:29Z</time>
      </trkpt>
      <trkpt lat="43.77688" lon="5.25675">
        <ele>267.38</ele>
        <time>2017-02-23T12:46:31Z</time>
      </trkpt>
      <trkpt lat="43.77693" lon="5.25693">
        <ele>268.83</ele>
        <time>2017-02-23T12:46:44Z</time>
      </trkpt>
      <trkpt lat="43.77694" lon="5.25694">
        <ele>268.83</ele>
        <time>2017-02-23T12:46:45Z</time>
      </trkpt>
      <trkpt lat="43.77697" lon="5.25698">
        <ele>268.83</ele>
        <time>2017-02-23T12:46:48Z</time>
      </trkpt>
      <trkpt lat="43.77704" lon="5.25717">
        <ele>269.79</ele>
        <time>2017-02-23T12:47:02Z</time>
      </trkpt>
      <trkpt lat="43.77704" lon="5.25719">
        <ele>270.27</ele>
        <time>2017-02-23T12:47:03Z</time>
      </trkpt>
      <trkpt lat="43.7771" lon="5.25732">
        <ele>271.23</ele>
        <time>2017-02-23T12:47:15Z</time>
      </trkpt>
      <trkpt lat="43.77716" lon="5.25743">
        <ele>272.19</ele>
        <time>2017-02-23T12:47:26Z</time>
      </trkpt>
      <trkpt lat="43.77718" lon="5.25749">
        <ele>272.19</ele>
        <time>2017-02-23T12:47:32Z</time>
      </trkpt>
      <trkpt lat="43.77723" lon="5.2576">
        <ele>273.63</ele>
        <time>2017-02-23T12:47:44Z</time>
      </trkpt>
      <trkpt lat="43.77728" lon="5.25771">
        <ele>274.11</ele>
        <time>2017-02-23T12:47:55Z</time>
      </trkpt>
      <trkpt lat="43.77732" lon="5.25783">
        <ele>275.07</ele>
        <time>2017-02-23T12:48:06Z</time>
      </trkpt>
      <trkpt lat="43.77736" lon="5.25794">
        <ele>276.52</ele>
        <time>2017-02-23T12:48:18Z</time>
      </trkpt>
      <trkpt lat="43.77742" lon="5.25805">
        <ele>277.48</ele>
        <time>2017-02-23T12:48:29Z</time>
      </trkpt>
      <trkpt lat="43.77745" lon="5.25815">
        <ele>278.92</ele>
        <time>2017-02-23T12:48:43Z</time>
      </trkpt>
      <trkpt lat="43.77754" lon="5.25825">
        <ele>280.84</ele>
        <time>2017-02-23T12:48:57Z</time>
      </trkpt>
      <trkpt lat="43.77762" lon="5.25834">
        <ele>282.28</ele>
        <time>2017-02-23T12:49:11Z</time>
      </trkpt>
      <trkpt lat="43.77768" lon="5.25841">
        <ele>284.21</ele>
        <time>2017-02-23T12:49:23Z</time>
      </trkpt>
      <trkpt lat="43.77774" lon="5.25848">
        <ele>285.65</ele>
        <time>2017-02-23T12:49:36Z</time>
      </trkpt>
      <trkpt lat="43.77781" lon="5.25855">
        <ele>287.09</ele>
        <time>2017-02-23T12:49:49Z</time>
      </trkpt>
      <trkpt lat="43.77788" lon="5.25865">
        <ele>288.53</ele>
        <time>2017-02-23T12:50:02Z</time>
      </trkpt>
      <trkpt lat="43.77796" lon="5.25876">
        <ele>289.97</ele>
        <time>2017-02-23T12:50:16Z</time>
      </trkpt>
      <trkpt lat="43.778" lon="5.25885">
        <ele>291.42</ele>
        <time>2017-02-23T12:50:29Z</time>
      </trkpt>
      <trkpt lat="43.77806" lon="5.25896">
        <ele>292.38</ele>
        <time>2017-02-23T12:50:41Z</time>
      </trkpt>
      <trkpt lat="43.77812" lon="5.25905">
        <ele>293.34</ele>
        <time>2017-02-23T12:50:52Z</time>
      </trkpt>
      <trkpt lat="43.77821" lon="5.25921">
        <ele>294.3</ele>
        <time>2017-02-23T12:51:07Z</time>
      </trkpt>
      <trkpt lat="43.77827" lon="5.25933">
        <ele>295.74</ele>
        <time>2017-02-23T12:51:20Z</time>
      </trkpt>
      <trkpt lat="43.77829" lon="5.25946">
        <ele>296.7</ele>
        <time>2017-02-23T12:51:34Z</time>
      </trkpt>
      <trkpt lat="43.77835" lon="5.25963">
        <ele>298.63</ele>
        <time>2017-02-23T12:51:50Z</time>
      </trkpt>
      <trkpt lat="43.77838" lon="5.25975">
        <ele>300.07</ele>
        <time>2017-02-23T12:52:03Z</time>
      </trkpt>
      <trkpt lat="43.77842" lon="5.25988">
        <ele>301.03</ele>
        <time>2017-02-23T12:52:16Z</time>
      </trkpt>
      <trkpt lat="43.77846" lon="5.25998">
        <ele>302.47</ele>
        <time>2017-02-23T12:52:28Z</time>
      </trkpt>
      <trkpt lat="43.77848" lon="5.26009">
        <ele>302.95</ele>
        <time>2017-02-23T12:52:40Z</time>
      </trkpt>
      <trkpt lat="43.77853" lon="5.26022">
        <ele>303.91</ele>
        <time>2017-02-23T12:52:52Z</time>
      </trkpt>
      <trkpt lat="43.77854" lon="5.2603">
        <ele>304.88</ele>
        <time>2017-02-23T12:53:00Z</time>
      </trkpt>
      <trkpt lat="43.77856" lon="5.26042">
        <ele>306.32</ele>
        <time>2017-02-23T12:53:12Z</time>
      </trkpt>
      <trkpt lat="43.77857" lon="5.26054">
        <ele>307.76</ele>
        <time>2017-02-23T12:53:25Z</time>
      </trkpt>
      <trkpt lat="43.77857" lon="5.26057">
        <ele>307.76</ele>
        <time>2017-02-23T12:53:42Z</time>
      </trkpt>
      <trkpt lat="43.77857" lon="5.26059">
        <ele>307.76</ele>
        <time>2017-02-23T12:54:00Z</time>
      </trkpt>
      <trkpt lat="43.77858" lon="5.26058">
        <ele>306.8</ele>
        <time>2017-02-23T12:54:10Z</time>
      </trkpt>
      <trkpt lat="43.77857" lon="5.2606">
        <ele>307.76</ele>
        <time>2017-02-23T12:54:35Z</time>
      </trkpt>
      <trkpt lat="43.77857" lon="5.26062">
        <ele>308.24</ele>
        <time>2017-02-23T12:54:36Z</time>
      </trkpt>
      <trkpt lat="43.77857" lon="5.26069">
        <ele>309.2</ele>
        <time>2017-02-23T12:54:43Z</time>
      </trkpt>
      <trkpt lat="43.77858" lon="5.26073">
        <ele>309.68</ele>
        <time>2017-02-23T12:54:45Z</time>
      </trkpt>
      <trkpt lat="43.7786" lon="5.26082">
        <ele>310.64</ele>
        <time>2017-02-23T12:54:51Z</time>
      </trkpt>
      <trkpt lat="43.77863" lon="5.26098">
        <ele>313.05</ele>
        <time>2017-02-23T12:54:57Z</time>
      </trkpt>
      <trkpt lat="43.77865" lon="5.26127">
        <ele>316.89</ele>
        <time>2017-02-23T12:55:06Z</time>
      </trkpt>
      <trkpt lat="43.77866" lon="5.26133">
        <ele>317.85</ele>
        <time>2017-02-23T12:55:08Z</time>
      </trkpt>
      <trkpt lat="43.77871" lon="5.26149">
        <ele>319.3</ele>
        <time>2017-02-23T12:55:20Z</time>
      </trkpt>
      <trkpt lat="43.77871" lon="5.26153">
        <ele>319.3</ele>
        <time>2017-02-23T12:55:38Z</time>
      </trkpt>
      <trkpt lat="43.77868" lon="5.26154">
        <ele>319.3</ele>
        <time>2017-02-23T12:55:52Z</time>
      </trkpt>
      <trkpt lat="43.77867" lon="5.26155">
        <ele>319.3</ele>
        <time>2017-02-23T12:56:15Z</time>
      </trkpt>
      <trkpt lat="43.77867" lon="5.26155">
        <ele>319.3</ele>
        <time>2017-02-23T12:56:31Z</time>
      </trkpt>
      <trkpt lat="43.77866" lon="5.26154">
        <ele>319.3</ele>
        <time>2017-02-23T12:56:47Z</time>
      </trkpt>
      <trkpt lat="43.77866" lon="5.26154">
        <ele>319.3</ele>
        <time>2017-02-23T12:57:10Z</time>
      </trkpt>
      <trkpt lat="43.77868" lon="5.26154">
        <ele>318.81</ele>
        <time>2017-02-23T12:57:27Z</time>
      </trkpt>
      <trkpt lat="43.77868" lon="5.26154">
        <ele>318.81</ele>
        <time>2017-02-23T12:57:49Z</time>
      </trkpt>
      <trkpt lat="43.77866" lon="5.26153">
        <ele>319.3</ele>
        <time>2017-02-23T12:58:09Z</time>
      </trkpt>
      <trkpt lat="43.77862" lon="5.26161">
        <ele>320.26</ele>
        <time>2017-02-23T12:58:21Z</time>
      </trkpt>
      <trkpt lat="43.77851" lon="5.26167">
        <ele>321.7</ele>
        <time>2017-02-23T12:58:34Z</time>
      </trkpt>
      <trkpt lat="43.77845" lon="5.26169">
        <ele>322.18</ele>
        <time>2017-02-23T12:58:42Z</time>
      </trkpt>
      <trkpt lat="43.77833" lon="5.26169">
        <ele>324.1</ele>
        <time>2017-02-23T12:58:55Z</time>
      </trkpt>
      <trkpt lat="43.77826" lon="5.26169">
        <ele>325.06</ele>
        <time>2017-02-23T12:59:06Z</time>
      </trkpt>
      <trkpt lat="43.7782" lon="5.26165">
        <ele>326.5</ele>
        <time>2017-02-23T12:59:18Z</time>
      </trkpt>
      <trkpt lat="43.77807" lon="5.26161">
        <ele>327.47</ele>
        <time>2017-02-23T12:59:30Z</time>
      </trkpt>
      <trkpt lat="43.77796" lon="5.26156">
        <ele>329.39</ele>
        <time>2017-02-23T12:59:41Z</time>
      </trkpt>
      <trkpt lat="43.77788" lon="5.26149">
        <ele>331.31</ele>
        <time>2017-02-23T12:59:54Z</time>
      </trkpt>
      <trkpt lat="43.77778" lon="5.26146">
        <ele>333.23</ele>
        <time>2017-02-23T13:00:06Z</time>
      </trkpt>
      <trkpt lat="43.77777" lon="5.26145">
        <ele>333.71</ele>
        <time>2017-02-23T13:00:08Z</time>
      </trkpt>
      <trkpt lat="43.77772" lon="5.26142">
        <ele>334.68</ele>
        <time>2017-02-23T13:00:15Z</time>
      </trkpt>
      <trkpt lat="43.77762" lon="5.26145">
        <ele>336.12</ele>
        <time>2017-02-23T13:00:29Z</time>
      </trkpt>
      <trkpt lat="43.7776" lon="5.26146">
        <ele>336.6</ele>
        <time>2017-02-23T13:00:31Z</time>
      </trkpt>
      <trkpt lat="43.77756" lon="5.26157">
        <ele>338.04</ele>
        <time>2017-02-23T13:00:47Z</time>
      </trkpt>
      <trkpt lat="43.77758" lon="5.26161">
        <ele>338.52</ele>
        <time>2017-02-23T13:00:54Z</time>
      </trkpt>
      <trkpt lat="43.77766" lon="5.26167">
        <ele>339.96</ele>
        <time>2017-02-23T13:01:05Z</time>
      </trkpt>
      <trkpt lat="43.77767" lon="5.26169">
        <ele>339.96</ele>
        <time>2017-02-23T13:01:07Z</time>
      </trkpt>
      <trkpt lat="43.77774" lon="5.26177">
        <ele>340.92</ele>
        <time>2017-02-23T13:01:17Z</time>
      </trkpt>
      <trkpt lat="43.77779" lon="5.2619">
        <ele>343.33</ele>
        <time>2017-02-23T13:01:30Z</time>
      </trkpt>
      <trkpt lat="43.77782" lon="5.26202">
        <ele>345.25</ele>
        <time>2017-02-23T13:01:43Z</time>
      </trkpt>
      <trkpt lat="43.77783" lon="5.26213">
        <ele>347.65</ele>
        <time>2017-02-23T13:01:55Z</time>
      </trkpt>
      <trkpt lat="43.77782" lon="5.26217">
        <ele>348.13</ele>
        <time>2017-02-23T13:01:58Z</time>
      </trkpt>
      <trkpt lat="43.77775" lon="5.26234">
        <ele>350.06</ele>
        <time>2017-02-23T13:02:12Z</time>
      </trkpt>
      <trkpt lat="43.77771" lon="5.26253">
        <ele>352.46</ele>
        <time>2017-02-23T13:02:28Z</time>
      </trkpt>
      <trkpt lat="43.77766" lon="5.2627">
        <ele>354.38</ele>
        <time>2017-02-23T13:02:41Z</time>
      </trkpt>
      <trkpt lat="43.77762" lon="5.26284">
        <ele>356.31</ele>
        <time>2017-02-23T13:02:54Z</time>
      </trkpt>
      <trkpt lat="43.77756" lon="5.263">
        <ele>358.23</ele>
        <time>2017-02-23T13:03:08Z</time>
      </trkpt>
      <trkpt lat="43.77752" lon="5.26315">
        <ele>360.15</ele>
        <time>2017-02-23T13:03:21Z</time>
      </trkpt>
      <trkpt lat="43.7775" lon="5.26325">
        <ele>361.11</ele>
        <time>2017-02-23T13:03:29Z</time>
      </trkpt>
      <trkpt lat="43.77747" lon="5.26335">
        <ele>363.04</ele>
        <time>2017-02-23T13:03:41Z</time>
      </trkpt>
      <trkpt lat="43.77741" lon="5.26347">
        <ele>364.48</ele>
        <time>2017-02-23T13:03:54Z</time>
      </trkpt>
      <trkpt lat="43.77735" lon="5.26358">
        <ele>365.44</ele>
        <time>2017-02-23T13:04:06Z</time>
      </trkpt>
      <trkpt lat="43.77729" lon="5.26366">
        <ele>365.44</ele>
        <time>2017-02-23T13:04:21Z</time>
      </trkpt>
      <trkpt lat="43.77724" lon="5.26368">
        <ele>366.4</ele>
        <time>2017-02-23T13:04:29Z</time>
      </trkpt>
      <trkpt lat="43.77718" lon="5.26371">
        <ele>366.88</ele>
        <time>2017-02-23T13:04:34Z</time>
      </trkpt>
      <trkpt lat="43.77713" lon="5.26376">
        <ele>367.84</ele>
        <time>2017-02-23T13:04:39Z</time>
      </trkpt>
      <trkpt lat="43.77703" lon="5.26401">
        <ele>368.8</ele>
        <time>2017-02-23T13:04:54Z</time>
      </trkpt>
      <trkpt lat="43.777" lon="5.26425">
        <ele>370.24</ele>
        <time>2017-02-23T13:05:08Z</time>
      </trkpt>
      <trkpt lat="43.77699" lon="5.26444">
        <ele>371.69</ele>
        <time>2017-02-23T13:05:19Z</time>
      </trkpt>
      <trkpt lat="43.77699" lon="5.26446">
        <ele>371.69</ele>
        <time>2017-02-23T13:05:20Z</time>
      </trkpt>
      <trkpt lat="43.77698" lon="5.26453">
        <ele>372.65</ele>
        <time>2017-02-23T13:05:24Z</time>
      </trkpt>
      <trkpt lat="43.77692" lon="5.26479">
        <ele>375.53</ele>
        <time>2017-02-23T13:05:38Z</time>
      </trkpt>
      <trkpt lat="43.77691" lon="5.26488">
        <ele>376.49</ele>
        <time>2017-02-23T13:05:44Z</time>
      </trkpt>
      <trkpt lat="43.77691" lon="5.26493">
        <ele>376.97</ele>
        <time>2017-02-23T13:05:47Z</time>
      </trkpt>
      <trkpt lat="43.77685" lon="5.26506">
        <ele>377.94</ele>
        <time>2017-02-23T13:05:58Z</time>
      </trkpt>
      <trkpt lat="43.77685" lon="5.26506">
        <ele>377.94</ele>
        <time>2017-02-23T13:06:09Z</time>
      </trkpt>
      <trkpt lat="43.77685" lon="5.2651">
        <ele>378.42</ele>
        <time>2017-02-23T13:06:14Z</time>
      </trkpt>
      <trkpt lat="43.77686" lon="5.26514">
        <ele>378.9</ele>
        <time>2017-02-23T13:06:17Z</time>
      </trkpt>
      <trkpt lat="43.77691" lon="5.26534">
        <ele>381.3</ele>
        <time>2017-02-23T13:06:32Z</time>
      </trkpt>
      <trkpt lat="43.77689" lon="5.26553">
        <ele>383.22</ele>
        <time>2017-02-23T13:06:46Z</time>
      </trkpt>
      <trkpt lat="43.77689" lon="5.26558">
        <ele>383.7</ele>
        <time>2017-02-23T13:06:49Z</time>
      </trkpt>
      <trkpt lat="43.77689" lon="5.26563">
        <ele>384.18</ele>
        <time>2017-02-23T13:06:53Z</time>
      </trkpt>
      <trkpt lat="43.77688" lon="5.26566">
        <ele>384.18</ele>
        <time>2017-02-23T13:06:55Z</time>
      </trkpt>
      <trkpt lat="43.77683" lon="5.26581">
        <ele>384.18</ele>
        <time>2017-02-23T13:07:10Z</time>
      </trkpt>
      <trkpt lat="43.77682" lon="5.26583">
        <ele>383.22</ele>
        <time>2017-02-23T13:07:23Z</time>
      </trkpt>
      <trkpt lat="43.77681" lon="5.26585">
        <ele>383.22</ele>
        <time>2017-02-23T13:07:46Z</time>
      </trkpt>
      <trkpt lat="43.77682" lon="5.26585">
        <ele>383.7</ele>
        <time>2017-02-23T13:08:06Z</time>
      </trkpt>
      <trkpt lat="43.77681" lon="5.26584">
        <ele>384.18</ele>
        <time>2017-02-23T13:08:28Z</time>
      </trkpt>
      <trkpt lat="43.77682" lon="5.26586">
        <ele>383.7</ele>
        <time>2017-02-23T13:08:46Z</time>
      </trkpt>
      <trkpt lat="43.77681" lon="5.26587">
        <ele>383.22</ele>
        <time>2017-02-23T13:08:59Z</time>
      </trkpt>
      <trkpt lat="43.77681" lon="5.26587">
        <ele>383.22</ele>
        <time>2017-02-23T13:09:23Z</time>
      </trkpt>
      <trkpt lat="43.7768" lon="5.26588">
        <ele>383.22</ele>
        <time>2017-02-23T13:09:46Z</time>
      </trkpt>
      <trkpt lat="43.7768" lon="5.2659">
        <ele>383.22</ele>
        <time>2017-02-23T13:10:19Z</time>
      </trkpt>
      <trkpt lat="43.7768" lon="5.26589">
        <ele>383.22</ele>
        <time>2017-02-23T13:10:40Z</time>
      </trkpt>
      <trkpt lat="43.7768" lon="5.26589">
        <ele>383.22</ele>
        <time>2017-02-23T13:11:06Z</time>
      </trkpt>
      <trkpt lat="43.7768" lon="5.26589">
        <ele>383.22</ele>
        <time>2017-02-23T13:11:31Z</time>
      </trkpt>
      <trkpt lat="43.7768" lon="5.26589">
        <ele>383.22</ele>
        <time>2017-02-23T13:11:46Z</time>
      </trkpt>
      <trkpt lat="43.77682" lon="5.2659">
        <ele>383.7</ele>
        <time>2017-02-23T13:12:03Z</time>
      </trkpt>
      <trkpt lat="43.77681" lon="5.26591">
        <ele>383.7</ele>
        <time>2017-02-23T13:12:15Z</time>
      </trkpt>
      <trkpt lat="43.77681" lon="5.26602">
        <ele>382.26</ele>
        <time>2017-02-23T13:12:29Z</time>
      </trkpt>
      <trkpt lat="43.77679" lon="5.26617">
        <ele>380.34</ele>
        <time>2017-02-23T13:12:43Z</time>
      </trkpt>
      <trkpt lat="43.77679" lon="5.26625">
        <ele>378.9</ele>
        <time>2017-02-23T13:12:56Z</time>
      </trkpt>
      <trkpt lat="43.7768" lon="5.26625">
        <ele>378.9</ele>
        <time>2017-02-23T13:13:08Z</time>
      </trkpt>
      <trkpt lat="43.7768" lon="5.26627">
        <ele>378.42</ele>
        <time>2017-02-23T13:13:24Z</time>
      </trkpt>
      <trkpt lat="43.77683" lon="5.26642">
        <ele>377.45</ele>
        <time>2017-02-23T13:13:37Z</time>
      </trkpt>
      <trkpt lat="43.77689" lon="5.26658">
        <ele>376.97</ele>
        <time>2017-02-23T13:13:52Z</time>
      </trkpt>
      <trkpt lat="43.77692" lon="5.26679">
        <ele>376.01</ele>
        <time>2017-02-23T13:14:08Z</time>
      </trkpt>
      <trkpt lat="43.77693" lon="5.26689">
        <ele>376.01</ele>
        <time>2017-02-23T13:14:16Z</time>
      </trkpt>
      <trkpt lat="43.77693" lon="5.26695">
        <ele>376.01</ele>
        <time>2017-02-23T13:14:20Z</time>
      </trkpt>
      <trkpt lat="43.77698" lon="5.26716">
        <ele>375.53</ele>
        <time>2017-02-23T13:14:37Z</time>
      </trkpt>
      <trkpt lat="43.77702" lon="5.26734">
        <ele>375.53</ele>
        <time>2017-02-23T13:14:51Z</time>
      </trkpt>
      <trkpt lat="43.77706" lon="5.26753">
        <ele>375.53</ele>
        <time>2017-02-23T13:15:04Z</time>
      </trkpt>
      <trkpt lat="43.77711" lon="5.26768">
        <ele>375.53</ele>
        <time>2017-02-23T13:15:16Z</time>
      </trkpt>
      <trkpt lat="43.77712" lon="5.26769">
        <ele>375.53</ele>
        <time>2017-02-23T13:15:18Z</time>
      </trkpt>
      <trkpt lat="43.77713" lon="5.26772">
        <ele>375.05</ele>
        <time>2017-02-23T13:15:20Z</time>
      </trkpt>
      <trkpt lat="43.77718" lon="5.2678">
        <ele>375.05</ele>
        <time>2017-02-23T13:15:27Z</time>
      </trkpt>
      <trkpt lat="43.77723" lon="5.268">
        <ele>374.57</ele>
        <time>2017-02-23T13:15:43Z</time>
      </trkpt>
      <trkpt lat="43.77726" lon="5.26814">
        <ele>373.61</ele>
        <time>2017-02-23T13:15:54Z</time>
      </trkpt>
      <trkpt lat="43.7773" lon="5.26828">
        <ele>372.17</ele>
        <time>2017-02-23T13:16:05Z</time>
      </trkpt>
      <trkpt lat="43.77734" lon="5.26846">
        <ele>370.73</ele>
        <time>2017-02-23T13:16:20Z</time>
      </trkpt>
      <trkpt lat="43.77737" lon="5.26857">
        <ele>369.28</ele>
        <time>2017-02-23T13:16:30Z</time>
      </trkpt>
      <trkpt lat="43.77738" lon="5.26872">
        <ele>368.32</ele>
        <time>2017-02-23T13:16:41Z</time>
      </trkpt>
      <trkpt lat="43.77738" lon="5.26896">
        <ele>366.4</ele>
        <time>2017-02-23T13:16:58Z</time>
      </trkpt>
      <trkpt lat="43.77734" lon="5.26914">
        <ele>366.4</ele>
        <time>2017-02-23T13:17:11Z</time>
      </trkpt>
      <trkpt lat="43.77728" lon="5.26918">
        <ele>366.4</ele>
        <time>2017-02-23T13:17:17Z</time>
      </trkpt>
      <trkpt lat="43.7771" lon="5.26918">
        <ele>364.96</ele>
        <time>2017-02-23T13:17:34Z</time>
      </trkpt>
      <trkpt lat="43.77708" lon="5.26917">
        <ele>364.48</ele>
        <time>2017-02-23T13:17:36Z</time>
      </trkpt>
      <trkpt lat="43.77703" lon="5.26919">
        <ele>364</ele>
        <time>2017-02-23T13:17:51Z</time>
      </trkpt>
      <trkpt lat="43.77701" lon="5.26919">
        <ele>364</ele>
        <time>2017-02-23T13:17:55Z</time>
      </trkpt>
      <trkpt lat="43.77698" lon="5.26918">
        <ele>363.52</ele>
        <time>2017-02-23T13:17:58Z</time>
      </trkpt>
      <trkpt lat="43.77686" lon="5.26912">
        <ele>361.59</ele>
        <time>2017-02-23T13:18:12Z</time>
      </trkpt>
      <trkpt lat="43.77674" lon="5.26907">
        <ele>360.15</ele>
        <time>2017-02-23T13:18:25Z</time>
      </trkpt>
      <trkpt lat="43.77662" lon="5.26902">
        <ele>358.23</ele>
        <time>2017-02-23T13:18:38Z</time>
      </trkpt>
      <trkpt lat="43.77657" lon="5.26901">
        <ele>357.75</ele>
        <time>2017-02-23T13:18:44Z</time>
      </trkpt>
      <trkpt lat="43.77649" lon="5.26898">
        <ele>356.31</ele>
        <time>2017-02-23T13:18:52Z</time>
      </trkpt>
      <trkpt lat="43.77647" lon="5.26896">
        <ele>356.31</ele>
        <time>2017-02-23T13:18:55Z</time>
      </trkpt>
      <trkpt lat="43.77638" lon="5.26893">
        <ele>355.34</ele>
        <time>2017-02-23T13:19:05Z</time>
      </trkpt>
      <trkpt lat="43.77631" lon="5.26891">
        <ele>354.38</ele>
        <time>2017-02-23T13:19:12Z</time>
      </trkpt>
      <trkpt lat="43.77617" lon="5.26888">
        <ele>351.98</ele>
        <time>2017-02-23T13:19:26Z</time>
      </trkpt>
      <trkpt lat="43.77602" lon="5.26892">
        <ele>350.54</ele>
        <time>2017-02-23T13:19:41Z</time>
      </trkpt>
      <trkpt lat="43.77591" lon="5.269">
        <ele>349.1</ele>
        <time>2017-02-23T13:19:54Z</time>
      </trkpt>
      <trkpt lat="43.7758" lon="5.26915">
        <ele>346.69</ele>
        <time>2017-02-23T13:20:10Z</time>
      </trkpt>
      <trkpt lat="43.77575" lon="5.26924">
        <ele>345.25</ele>
        <time>2017-02-23T13:20:18Z</time>
      </trkpt>
      <trkpt lat="43.77568" lon="5.26942">
        <ele>344.29</ele>
        <time>2017-02-23T13:20:32Z</time>
      </trkpt>
      <trkpt lat="43.77561" lon="5.26959">
        <ele>343.33</ele>
        <time>2017-02-23T13:20:45Z</time>
      </trkpt>
      <trkpt lat="43.77556" lon="5.26974">
        <ele>341.89</ele>
        <time>2017-02-23T13:20:56Z</time>
      </trkpt>
      <trkpt lat="43.77555" lon="5.26977">
        <ele>341.89</ele>
        <time>2017-02-23T13:20:58Z</time>
      </trkpt>
      <trkpt lat="43.77553" lon="5.2698">
        <ele>341.41</ele>
        <time>2017-02-23T13:21:00Z</time>
      </trkpt>
      <trkpt lat="43.77546" lon="5.26995">
        <ele>340.92</ele>
        <time>2017-02-23T13:21:13Z</time>
      </trkpt>
      <trkpt lat="43.77535" lon="5.27009">
        <ele>339.48</ele>
        <time>2017-02-23T13:21:29Z</time>
      </trkpt>
      <trkpt lat="43.77528" lon="5.27026">
        <ele>337.56</ele>
        <time>2017-02-23T13:21:43Z</time>
      </trkpt>
      <trkpt lat="43.77519" lon="5.27043">
        <ele>335.64</ele>
        <time>2017-02-23T13:22:00Z</time>
      </trkpt>
      <trkpt lat="43.77516" lon="5.27048">
        <ele>335.16</ele>
        <time>2017-02-23T13:22:08Z</time>
      </trkpt>
      <trkpt lat="43.77513" lon="5.27065">
        <ele>333.71</ele>
        <time>2017-02-23T13:22:22Z</time>
      </trkpt>
      <trkpt lat="43.77514" lon="5.27069">
        <ele>333.23</ele>
        <time>2017-02-23T13:22:26Z</time>
      </trkpt>
      <trkpt lat="43.77514" lon="5.27074">
        <ele>332.75</ele>
        <time>2017-02-23T13:22:29Z</time>
      </trkpt>
      <trkpt lat="43.77518" lon="5.27096">
        <ele>330.83</ele>
        <time>2017-02-23T13:22:44Z</time>
      </trkpt>
      <trkpt lat="43.77519" lon="5.27115">
        <ele>329.87</ele>
        <time>2017-02-23T13:22:58Z</time>
      </trkpt>
      <trkpt lat="43.77505" lon="5.27122">
        <ele>327.95</ele>
        <time>2017-02-23T13:23:12Z</time>
      </trkpt>
      <trkpt lat="43.7749" lon="5.27113">
        <ele>325.06</ele>
        <time>2017-02-23T13:23:29Z</time>
      </trkpt>
      <trkpt lat="43.77476" lon="5.27105">
        <ele>322.18</ele>
        <time>2017-02-23T13:23:44Z</time>
      </trkpt>
      <trkpt lat="43.77465" lon="5.271">
        <ele>320.74</ele>
        <time>2017-02-23T13:23:58Z</time>
      </trkpt>
      <trkpt lat="43.77455" lon="5.27096">
        <ele>319.3</ele>
        <time>2017-02-23T13:24:11Z</time>
      </trkpt>
      <trkpt lat="43.77451" lon="5.27096">
        <ele>318.81</ele>
        <time>2017-02-23T13:24:23Z</time>
      </trkpt>
      <trkpt lat="43.77453" lon="5.27093">
        <ele>319.3</ele>
        <time>2017-02-23T13:24:26Z</time>
      </trkpt>
      <trkpt lat="43.77459" lon="5.27083">
        <ele>319.3</ele>
        <time>2017-02-23T13:24:35Z</time>
      </trkpt>
      <trkpt lat="43.77461" lon="5.27078">
        <ele>319.78</ele>
        <time>2017-02-23T13:24:50Z</time>
      </trkpt>
      <trkpt lat="43.77463" lon="5.27071">
        <ele>320.26</ele>
        <time>2017-02-23T13:25:06Z</time>
      </trkpt>
      <trkpt lat="43.77464" lon="5.27068">
        <ele>320.26</ele>
        <time>2017-02-23T13:25:08Z</time>
      </trkpt>
      <trkpt lat="43.7747" lon="5.27054">
        <ele>320.74</ele>
        <time>2017-02-23T13:25:20Z</time>
      </trkpt>
      <trkpt lat="43.77472" lon="5.27047">
        <ele>321.7</ele>
        <time>2017-02-23T13:25:27Z</time>
      </trkpt>
      <trkpt lat="43.77474" lon="5.27043">
        <ele>321.7</ele>
        <time>2017-02-23T13:25:31Z</time>
      </trkpt>
      <trkpt lat="43.7748" lon="5.27029">
        <ele>322.18</ele>
        <time>2017-02-23T13:25:44Z</time>
      </trkpt>
      <trkpt lat="43.77482" lon="5.27019">
        <ele>322.66</ele>
        <time>2017-02-23T13:25:57Z</time>
      </trkpt>
      <trkpt lat="43.77475" lon="5.27024">
        <ele>321.7</ele>
        <time>2017-02-23T13:26:10Z</time>
      </trkpt>
      <trkpt lat="43.77468" lon="5.27038">
        <ele>320.26</ele>
        <time>2017-02-23T13:26:24Z</time>
      </trkpt>
      <trkpt lat="43.7746" lon="5.27045">
        <ele>319.78</ele>
        <time>2017-02-23T13:26:34Z</time>
      </trkpt>
      <trkpt lat="43.77452" lon="5.27059">
        <ele>318.33</ele>
        <time>2017-02-23T13:26:46Z</time>
      </trkpt>
      <trkpt lat="43.77449" lon="5.27066">
        <ele>317.85</ele>
        <time>2017-02-23T13:26:53Z</time>
      </trkpt>
      <trkpt lat="43.77439" lon="5.27079">
        <ele>315.45</ele>
        <time>2017-02-23T13:27:04Z</time>
      </trkpt>
      <trkpt lat="43.77423" lon="5.27085">
        <ele>314.01</ele>
        <time>2017-02-23T13:27:17Z</time>
      </trkpt>
      <trkpt lat="43.7741" lon="5.27086">
        <ele>313.05</ele>
        <time>2017-02-23T13:27:33Z</time>
      </trkpt>
      <trkpt lat="43.77404" lon="5.27083">
        <ele>312.09</ele>
        <time>2017-02-23T13:27:46Z</time>
      </trkpt>
      <trkpt lat="43.77397" lon="5.2708">
        <ele>311.12</ele>
        <time>2017-02-23T13:28:04Z</time>
      </trkpt>
      <trkpt lat="43.77397" lon="5.27079">
        <ele>311.12</ele>
        <time>2017-02-23T13:28:05Z</time>
      </trkpt>
      <trkpt lat="43.77381" lon="5.27076">
        <ele>310.16</ele>
        <time>2017-02-23T13:28:21Z</time>
      </trkpt>
      <trkpt lat="43.77375" lon="5.27075">
        <ele>309.2</ele>
        <time>2017-02-23T13:28:29Z</time>
      </trkpt>
      <trkpt lat="43.77375" lon="5.27072">
        <ele>309.2</ele>
        <time>2017-02-23T13:28:42Z</time>
      </trkpt>
      <trkpt lat="43.77374" lon="5.27072">
        <ele>309.2</ele>
        <time>2017-02-23T13:28:57Z</time>
      </trkpt>
      <trkpt lat="43.77365" lon="5.2707">
        <ele>308.72</ele>
        <time>2017-02-23T13:29:13Z</time>
      </trkpt>
      <trkpt lat="43.77362" lon="5.27069">
        <ele>308.24</ele>
        <time>2017-02-23T13:29:16Z</time>
      </trkpt>
      <trkpt lat="43.77355" lon="5.27066">
        <ele>308.24</ele>
        <time>2017-02-23T13:29:24Z</time>
      </trkpt>
      <trkpt lat="43.77345" lon="5.27065">
        <ele>307.28</ele>
        <time>2017-02-23T13:29:36Z</time>
      </trkpt>
      <trkpt lat="43.77337" lon="5.27062">
        <ele>306.8</ele>
        <time>2017-02-23T13:29:45Z</time>
      </trkpt>
      <trkpt lat="43.77334" lon="5.27061">
        <ele>306.32</ele>
        <time>2017-02-23T13:29:48Z</time>
      </trkpt>
      <trkpt lat="43.77331" lon="5.27059">
        <ele>306.32</ele>
        <time>2017-02-23T13:29:52Z</time>
      </trkpt>
      <trkpt lat="43.77317" lon="5.27057">
        <ele>304.88</ele>
        <time>2017-02-23T13:30:06Z</time>
      </trkpt>
      <trkpt lat="43.77311" lon="5.27056">
        <ele>304.39</ele>
        <time>2017-02-23T13:30:14Z</time>
      </trkpt>
      <trkpt lat="43.77307" lon="5.27055">
        <ele>303.91</ele>
        <time>2017-02-23T13:30:17Z</time>
      </trkpt>
      <trkpt lat="43.77292" lon="5.27052">
        <ele>302.95</ele>
        <time>2017-02-23T13:30:33Z</time>
      </trkpt>
      <trkpt lat="43.77278" lon="5.27054">
        <ele>301.03</ele>
        <time>2017-02-23T13:30:49Z</time>
      </trkpt>
      <trkpt lat="43.77266" lon="5.27054">
        <ele>300.55</ele>
        <time>2017-02-23T13:31:04Z</time>
      </trkpt>
      <trkpt lat="43.77249" lon="5.27054">
        <ele>298.63</ele>
        <time>2017-02-23T13:31:20Z</time>
      </trkpt>
      <trkpt lat="43.77234" lon="5.27051">
        <ele>296.22</ele>
        <time>2017-02-23T13:31:39Z</time>
      </trkpt>
      <trkpt lat="43.77217" lon="5.27046">
        <ele>294.78</ele>
        <time>2017-02-23T13:31:56Z</time>
      </trkpt>
      <trkpt lat="43.77209" lon="5.27046">
        <ele>293.82</ele>
        <time>2017-02-23T13:32:09Z</time>
      </trkpt>
      <trkpt lat="43.77197" lon="5.27045">
        <ele>293.34</ele>
        <time>2017-02-23T13:32:22Z</time>
      </trkpt>
      <trkpt lat="43.77185" lon="5.27045">
        <ele>291.9</ele>
        <time>2017-02-23T13:32:36Z</time>
      </trkpt>
      <trkpt lat="43.77173" lon="5.27045">
        <ele>290.94</ele>
        <time>2017-02-23T13:32:48Z</time>
      </trkpt>
      <trkpt lat="43.7716" lon="5.27045">
        <ele>289.49</ele>
        <time>2017-02-23T13:33:03Z</time>
      </trkpt>
      <trkpt lat="43.77146" lon="5.27044">
        <ele>288.05</ele>
        <time>2017-02-23T13:33:18Z</time>
      </trkpt>
      <trkpt lat="43.77135" lon="5.27046">
        <ele>287.09</ele>
        <time>2017-02-23T13:33:32Z</time>
      </trkpt>
      <trkpt lat="43.77122" lon="5.27047">
        <ele>286.13</ele>
        <time>2017-02-23T13:33:45Z</time>
      </trkpt>
      <trkpt lat="43.77108" lon="5.27044">
        <ele>285.65</ele>
        <time>2017-02-23T13:33:59Z</time>
      </trkpt>
      <trkpt lat="43.77096" lon="5.2704">
        <ele>284.21</ele>
        <time>2017-02-23T13:34:13Z</time>
      </trkpt>
      <trkpt lat="43.77085" lon="5.27035">
        <ele>283.73</ele>
        <time>2017-02-23T13:34:26Z</time>
      </trkpt>
      <trkpt lat="43.77073" lon="5.27036">
        <ele>282.77</ele>
        <time>2017-02-23T13:34:41Z</time>
      </trkpt>
      <trkpt lat="43.77061" lon="5.27036">
        <ele>282.28</ele>
        <time>2017-02-23T13:34:56Z</time>
      </trkpt>
      <trkpt lat="43.77048" lon="5.27036">
        <ele>281.32</ele>
        <time>2017-02-23T13:35:10Z</time>
      </trkpt>
      <trkpt lat="43.77034" lon="5.27032">
        <ele>280.36</ele>
        <time>2017-02-23T13:35:26Z</time>
      </trkpt>
      <trkpt lat="43.77024" lon="5.27027">
        <ele>279.88</ele>
        <time>2017-02-23T13:35:38Z</time>
      </trkpt>
      <trkpt lat="43.77014" lon="5.27016">
        <ele>279.4</ele>
        <time>2017-02-23T13:35:50Z</time>
      </trkpt>
      <trkpt lat="43.77004" lon="5.27">
        <ele>278.92</ele>
        <time>2017-02-23T13:36:03Z</time>
      </trkpt>
      <trkpt lat="43.77002" lon="5.26996">
        <ele>278.44</ele>
        <time>2017-02-23T13:36:06Z</time>
      </trkpt>
      <trkpt lat="43.77" lon="5.26991">
        <ele>278.44</ele>
        <time>2017-02-23T13:36:11Z</time>
      </trkpt>
      <trkpt lat="43.76993" lon="5.26976">
        <ele>277.48</ele>
        <time>2017-02-23T13:36:24Z</time>
      </trkpt>
      <trkpt lat="43.76987" lon="5.26966">
        <ele>276.52</ele>
        <time>2017-02-23T13:36:36Z</time>
      </trkpt>
      <trkpt lat="43.7698" lon="5.26952">
        <ele>275.07</ele>
        <time>2017-02-23T13:36:50Z</time>
      </trkpt>
      <trkpt lat="43.76971" lon="5.26937">
        <ele>274.11</ele>
        <time>2017-02-23T13:37:03Z</time>
      </trkpt>
      <trkpt lat="43.7697" lon="5.26935">
        <ele>273.63</ele>
        <time>2017-02-23T13:37:05Z</time>
      </trkpt>
      <trkpt lat="43.76962" lon="5.26921">
        <ele>272.19</ele>
        <time>2017-02-23T13:37:17Z</time>
      </trkpt>
      <trkpt lat="43.76961" lon="5.26919">
        <ele>272.19</ele>
        <time>2017-02-23T13:37:18Z</time>
      </trkpt>
      <trkpt lat="43.76947" lon="5.26902">
        <ele>269.31</ele>
        <time>2017-02-23T13:37:35Z</time>
      </trkpt>
      <trkpt lat="43.76937" lon="5.26895">
        <ele>268.35</ele>
        <time>2017-02-23T13:37:48Z</time>
      </trkpt>
      <trkpt lat="43.76923" lon="5.26882">
        <ele>266.9</ele>
        <time>2017-02-23T13:38:06Z</time>
      </trkpt>
      <trkpt lat="43.76918" lon="5.2687">
        <ele>265.94</ele>
        <time>2017-02-23T13:38:16Z</time>
      </trkpt>
      <trkpt lat="43.76914" lon="5.26852">
        <ele>264.02</ele>
        <time>2017-02-23T13:38:31Z</time>
      </trkpt>
      <trkpt lat="43.76909" lon="5.26832">
        <ele>262.58</ele>
        <time>2017-02-23T13:38:44Z</time>
      </trkpt>
      <trkpt lat="43.76902" lon="5.26817">
        <ele>261.62</ele>
        <time>2017-02-23T13:38:56Z</time>
      </trkpt>
      <trkpt lat="43.76896" lon="5.26801">
        <ele>260.17</ele>
        <time>2017-02-23T13:39:11Z</time>
      </trkpt>
      <trkpt lat="43.76889" lon="5.26787">
        <ele>259.69</ele>
        <time>2017-02-23T13:39:25Z</time>
      </trkpt>
      <trkpt lat="43.76884" lon="5.26775">
        <ele>257.77</ele>
        <time>2017-02-23T13:39:41Z</time>
      </trkpt>
      <trkpt lat="43.76881" lon="5.26772">
        <ele>257.77</ele>
        <time>2017-02-23T13:39:50Z</time>
      </trkpt>
      <trkpt lat="43.76874" lon="5.26766">
        <ele>256.33</ele>
        <time>2017-02-23T13:40:08Z</time>
      </trkpt>
      <trkpt lat="43.76871" lon="5.26764">
        <ele>255.85</ele>
        <time>2017-02-23T13:40:21Z</time>
      </trkpt>
      <trkpt lat="43.76869" lon="5.26762">
        <ele>255.37</ele>
        <time>2017-02-23T13:40:23Z</time>
      </trkpt>
      <trkpt lat="43.76866" lon="5.26761">
        <ele>254.89</ele>
        <time>2017-02-23T13:40:26Z</time>
      </trkpt>
      <trkpt lat="43.76862" lon="5.26757">
        <ele>254.89</ele>
        <time>2017-02-23T13:40:30Z</time>
      </trkpt>
      <trkpt lat="43.76849" lon="5.2675">
        <ele>253.44</ele>
        <time>2017-02-23T13:40:44Z</time>
      </trkpt>
      <trkpt lat="43.76848" lon="5.2675">
        <ele>252.96</ele>
        <time>2017-02-23T13:40:47Z</time>
      </trkpt>
      <trkpt lat="43.76846" lon="5.26749">
        <ele>252.96</ele>
        <time>2017-02-23T13:40:49Z</time>
      </trkpt>
      <trkpt lat="43.76842" lon="5.26747">
        <ele>252.48</ele>
        <time>2017-02-23T13:40:52Z</time>
      </trkpt>
      <trkpt lat="43.76834" lon="5.26744">
        <ele>252</ele>
        <time>2017-02-23T13:41:00Z</time>
      </trkpt>
      <trkpt lat="43.76819" lon="5.26742">
        <ele>251.52</ele>
        <time>2017-02-23T13:41:16Z</time>
      </trkpt>
      <trkpt lat="43.76808" lon="5.26744">
        <ele>251.04</ele>
        <time>2017-02-23T13:41:28Z</time>
      </trkpt>
      <trkpt lat="43.76797" lon="5.2674">
        <ele>250.08</ele>
        <time>2017-02-23T13:41:38Z</time>
      </trkpt>
      <trkpt lat="43.76784" lon="5.26735">
        <ele>249.12</ele>
        <time>2017-02-23T13:41:50Z</time>
      </trkpt>
      <trkpt lat="43.76772" lon="5.26731">
        <ele>248.16</ele>
        <time>2017-02-23T13:42:02Z</time>
      </trkpt>
      <trkpt lat="43.7676" lon="5.26724">
        <ele>247.68</ele>
        <time>2017-02-23T13:42:14Z</time>
      </trkpt>
      <trkpt lat="43.76758" lon="5.26721">
        <ele>247.68</ele>
        <time>2017-02-23T13:42:16Z</time>
      </trkpt>
      <trkpt lat="43.7675" lon="5.26707">
        <ele>247.2</ele>
        <time>2017-02-23T13:42:27Z</time>
      </trkpt>
      <trkpt lat="43.76737" lon="5.26696">
        <ele>245.75</ele>
        <time>2017-02-23T13:42:42Z</time>
      </trkpt>
      <trkpt lat="43.76719" lon="5.26697">
        <ele>244.31</ele>
        <time>2017-02-23T13:42:57Z</time>
      </trkpt>
      <trkpt lat="43.76717" lon="5.26697">
        <ele>244.31</ele>
        <time>2017-02-23T13:42:59Z</time>
      </trkpt>
      <trkpt lat="43.76705" lon="5.267">
        <ele>242.87</ele>
        <time>2017-02-23T13:43:11Z</time>
      </trkpt>
      <trkpt lat="43.767" lon="5.26701">
        <ele>242.87</ele>
        <time>2017-02-23T13:43:16Z</time>
      </trkpt>
      <trkpt lat="43.76688" lon="5.26694">
        <ele>241.43</ele>
        <time>2017-02-23T13:43:31Z</time>
      </trkpt>
      <trkpt lat="43.76686" lon="5.26695">
        <ele>241.43</ele>
        <time>2017-02-23T13:43:45Z</time>
      </trkpt>
      <trkpt lat="43.76686" lon="5.26695">
        <ele>241.43</ele>
        <time>2017-02-23T13:44:05Z</time>
      </trkpt>
      <trkpt lat="43.76689" lon="5.26689">
        <ele>241.43</ele>
        <time>2017-02-23T13:44:20Z</time>
      </trkpt>
      <trkpt lat="43.76689" lon="5.26689">
        <ele>241.43</ele>
        <time>2017-02-23T13:44:21Z</time>
      </trkpt>
      <trkpt lat="43.7669" lon="5.26697">
        <ele>241.43</ele>
        <time>2017-02-23T13:44:34Z</time>
      </trkpt>
      <trkpt lat="43.76688" lon="5.26695">
        <ele>241.43</ele>
        <time>2017-02-23T13:44:46Z</time>
      </trkpt>
      <trkpt lat="43.76688" lon="5.26695">
        <ele>241.43</ele>
        <time>2017-02-23T13:45:05Z</time>
      </trkpt>
      <trkpt lat="43.76687" lon="5.26694">
        <ele>240.95</ele>
        <time>2017-02-23T13:45:22Z</time>
      </trkpt>
      <trkpt lat="43.76686" lon="5.26694">
        <ele>241.43</ele>
        <time>2017-02-23T13:45:46Z</time>
      </trkpt>
      <trkpt lat="43.76686" lon="5.26694">
        <ele>240.47</ele>
        <time>2017-02-23T13:46:02Z</time>
      </trkpt>
      <trkpt lat="43.76685" lon="5.26693">
        <ele>239.99</ele>
        <time>2017-02-23T13:46:18Z</time>
      </trkpt>
      <trkpt lat="43.76686" lon="5.26694">
        <ele>239.99</ele>
        <time>2017-02-23T13:46:44Z</time>
      </trkpt>
      <trkpt lat="43.76685" lon="5.26694">
        <ele>239.99</ele>
        <time>2017-02-23T13:47:17Z</time>
      </trkpt>
      <trkpt lat="43.76685" lon="5.26693">
        <ele>240.47</ele>
        <time>2017-02-23T13:47:46Z</time>
      </trkpt>
      <trkpt lat="43.76684" lon="5.26694">
        <ele>240.47</ele>
        <time>2017-02-23T13:48:11Z</time>
      </trkpt>
      <trkpt lat="43.76684" lon="5.26693">
        <ele>239.99</ele>
        <time>2017-02-23T13:48:38Z</time>
      </trkpt>
      <trkpt lat="43.76685" lon="5.26693">
        <ele>240.47</ele>
        <time>2017-02-23T13:49:12Z</time>
      </trkpt>
      <trkpt lat="43.76684" lon="5.26693">
        <ele>240.47</ele>
        <time>2017-02-23T13:49:43Z</time>
      </trkpt>
      <trkpt lat="43.76684" lon="5.26691">
        <ele>240.47</ele>
        <time>2017-02-23T13:50:15Z</time>
      </trkpt>
      <trkpt lat="43.76684" lon="5.26691">
        <ele>240.47</ele>
        <time>2017-02-23T13:50:42Z</time>
      </trkpt>
      <trkpt lat="43.76684" lon="5.26691">
        <ele>240.47</ele>
        <time>2017-02-23T13:51:16Z</time>
      </trkpt>
      <trkpt lat="43.76684" lon="5.2669">
        <ele>240.47</ele>
        <time>2017-02-23T13:51:49Z</time>
      </trkpt>
      <trkpt lat="43.76683" lon="5.26691">
        <ele>240.47</ele>
        <time>2017-02-23T13:52:18Z</time>
      </trkpt>
      <trkpt lat="43.76682" lon="5.2669">
        <ele>240.95</ele>
        <time>2017-02-23T13:52:53Z</time>
      </trkpt>
      <trkpt lat="43.76682" lon="5.26691">
        <ele>241.91</ele>
        <time>2017-02-23T13:53:23Z</time>
      </trkpt>
      <trkpt lat="43.76684" lon="5.26693">
        <ele>242.39</ele>
        <time>2017-02-23T13:53:35Z</time>
      </trkpt>
      <trkpt lat="43.76685" lon="5.26693">
        <ele>241.91</ele>
        <time>2017-02-23T13:53:52Z</time>
      </trkpt>
      <trkpt lat="43.76686" lon="5.26692">
        <ele>242.39</ele>
        <time>2017-02-23T13:54:11Z</time>
      </trkpt>
      <trkpt lat="43.76686" lon="5.26692">
        <ele>242.39</ele>
        <time>2017-02-23T13:54:37Z</time>
      </trkpt>
      <trkpt lat="43.76686" lon="5.26692">
        <ele>242.39</ele>
        <time>2017-02-23T13:54:52Z</time>
      </trkpt>
      <trkpt lat="43.76685" lon="5.26692">
        <ele>242.39</ele>
        <time>2017-02-23T13:55:17Z</time>
      </trkpt>
      <trkpt lat="43.76685" lon="5.26692">
        <ele>242.39</ele>
        <time>2017-02-23T13:55:30Z</time>
      </trkpt>
      <trkpt lat="43.76692" lon="5.26686">
        <ele>241.91</ele>
        <time>2017-02-23T13:55:46Z</time>
      </trkpt>
      <trkpt lat="43.76694" lon="5.26687">
        <ele>241.91</ele>
        <time>2017-02-23T13:56:01Z</time>
      </trkpt>
      <trkpt lat="43.76694" lon="5.26686">
        <ele>241.91</ele>
        <time>2017-02-23T13:56:15Z</time>
      </trkpt>
      <trkpt lat="43.76703" lon="5.26681">
        <ele>239.99</ele>
        <time>2017-02-23T13:56:28Z</time>
      </trkpt>
      <trkpt lat="43.76707" lon="5.26671">
        <ele>238.06</ele>
        <time>2017-02-23T13:56:40Z</time>
      </trkpt>
      <trkpt lat="43.76711" lon="5.26657">
        <ele>235.18</ele>
        <time>2017-02-23T13:56:51Z</time>
      </trkpt>
      <trkpt lat="43.76713" lon="5.26647">
        <ele>232.78</ele>
        <time>2017-02-23T13:57:02Z</time>
      </trkpt>
      <trkpt lat="43.76715" lon="5.26637">
        <ele>231.33</ele>
        <time>2017-02-23T13:57:12Z</time>
      </trkpt>
      <trkpt lat="43.76715" lon="5.26629">
        <ele>231.33</ele>
        <time>2017-02-23T13:57:25Z</time>
      </trkpt>
      <trkpt lat="43.76715" lon="5.26628">
        <ele>231.33</ele>
        <time>2017-02-23T13:57:39Z</time>
      </trkpt>
      <trkpt lat="43.76707" lon="5.26616">
        <ele>230.37</ele>
        <time>2017-02-23T13:57:53Z</time>
      </trkpt>
      <trkpt lat="43.76706" lon="5.26615">
        <ele>230.37</ele>
        <time>2017-02-23T13:57:54Z</time>
      </trkpt>
      <trkpt lat="43.76706" lon="5.26597">
        <ele>229.89</ele>
        <time>2017-02-23T13:58:07Z</time>
      </trkpt>
      <trkpt lat="43.76696" lon="5.26585">
        <ele>229.89</ele>
        <time>2017-02-23T13:58:21Z</time>
      </trkpt>
      <trkpt lat="43.76683" lon="5.26579">
        <ele>230.37</ele>
        <time>2017-02-23T13:58:35Z</time>
      </trkpt>
      <trkpt lat="43.76678" lon="5.26573">
        <ele>229.89</ele>
        <time>2017-02-23T13:58:47Z</time>
      </trkpt>
      <trkpt lat="43.76677" lon="5.26572">
        <ele>229.89</ele>
        <time>2017-02-23T13:59:04Z</time>
      </trkpt>
      <trkpt lat="43.7667" lon="5.26571">
        <ele>229.41</ele>
        <time>2017-02-23T13:59:24Z</time>
      </trkpt>
      <trkpt lat="43.76658" lon="5.26567">
        <ele>227.97</ele>
        <time>2017-02-23T13:59:41Z</time>
      </trkpt>
      <trkpt lat="43.76646" lon="5.26565">
        <ele>226.53</ele>
        <time>2017-02-23T13:59:53Z</time>
      </trkpt>
      <trkpt lat="43.76636" lon="5.26553">
        <ele>224.61</ele>
        <time>2017-02-23T14:00:07Z</time>
      </trkpt>
      <trkpt lat="43.76636" lon="5.26552">
        <ele>224.61</ele>
        <time>2017-02-23T14:00:08Z</time>
      </trkpt>
      <trkpt lat="43.76638" lon="5.26537">
        <ele>223.16</ele>
        <time>2017-02-23T14:00:19Z</time>
      </trkpt>
      <trkpt lat="43.76638" lon="5.26533">
        <ele>222.68</ele>
        <time>2017-02-23T14:00:22Z</time>
      </trkpt>
      <trkpt lat="43.76636" lon="5.26515">
        <ele>222.68</ele>
        <time>2017-02-23T14:00:35Z</time>
      </trkpt>
      <trkpt lat="43.76628" lon="5.26501">
        <ele>222.68</ele>
        <time>2017-02-23T14:00:47Z</time>
      </trkpt>
      <trkpt lat="43.76619" lon="5.26483">
        <ele>223.16</ele>
        <time>2017-02-23T14:01:01Z</time>
      </trkpt>
      <trkpt lat="43.76613" lon="5.26464">
        <ele>222.68</ele>
        <time>2017-02-23T14:01:14Z</time>
      </trkpt>
      <trkpt lat="43.76609" lon="5.26439">
        <ele>222.2</ele>
        <time>2017-02-23T14:01:29Z</time>
      </trkpt>
      <trkpt lat="43.76606" lon="5.26421">
        <ele>221.24</ele>
        <time>2017-02-23T14:01:44Z</time>
      </trkpt>
      <trkpt lat="43.76605" lon="5.26406">
        <ele>221.24</ele>
        <time>2017-02-23T14:01:57Z</time>
      </trkpt>
      <trkpt lat="43.76603" lon="5.26386">
        <ele>220.28</ele>
        <time>2017-02-23T14:02:08Z</time>
      </trkpt>
      <trkpt lat="43.766" lon="5.26378">
        <ele>220.28</ele>
        <time>2017-02-23T14:02:14Z</time>
      </trkpt>
      <trkpt lat="43.76596" lon="5.26358">
        <ele>220.28</ele>
        <time>2017-02-23T14:02:26Z</time>
      </trkpt>
      <trkpt lat="43.76593" lon="5.26336">
        <ele>220.76</ele>
        <time>2017-02-23T14:02:39Z</time>
      </trkpt>
      <trkpt lat="43.76594" lon="5.2633">
        <ele>220.76</ele>
        <time>2017-02-23T14:02:43Z</time>
      </trkpt>
      <trkpt lat="43.76594" lon="5.26326">
        <ele>220.76</ele>
        <time>2017-02-23T14:02:46Z</time>
      </trkpt>
      <trkpt lat="43.76594" lon="5.26307">
        <ele>221.24</ele>
        <time>2017-02-23T14:03:00Z</time>
      </trkpt>
      <trkpt lat="43.76594" lon="5.26304">
        <ele>221.24</ele>
        <time>2017-02-23T14:03:03Z</time>
      </trkpt>
      <trkpt lat="43.76593" lon="5.26292">
        <ele>221.24</ele>
        <time>2017-02-23T14:03:11Z</time>
      </trkpt>
      <trkpt lat="43.76591" lon="5.26271">
        <ele>221.72</ele>
        <time>2017-02-23T14:03:25Z</time>
      </trkpt>
      <trkpt lat="43.7659" lon="5.26254">
        <ele>221.72</ele>
        <time>2017-02-23T14:03:37Z</time>
      </trkpt>
      <trkpt lat="43.76587" lon="5.26235">
        <ele>222.2</ele>
        <time>2017-02-23T14:03:50Z</time>
      </trkpt>
      <trkpt lat="43.76581" lon="5.26217">
        <ele>222.2</ele>
        <time>2017-02-23T14:04:05Z</time>
      </trkpt>
      <trkpt lat="43.76579" lon="5.26209">
        <ele>222.68</ele>
        <time>2017-02-23T14:04:12Z</time>
      </trkpt>
      <trkpt lat="43.76578" lon="5.26206">
        <ele>222.68</ele>
        <time>2017-02-23T14:04:14Z</time>
      </trkpt>
      <trkpt lat="43.76569" lon="5.26189">
        <ele>223.64</ele>
        <time>2017-02-23T14:04:28Z</time>
      </trkpt>
      <trkpt lat="43.76569" lon="5.26188">
        <ele>223.64</ele>
        <time>2017-02-23T14:04:29Z</time>
      </trkpt>
      <trkpt lat="43.76565" lon="5.26181">
        <ele>224.12</ele>
        <time>2017-02-23T14:04:35Z</time>
      </trkpt>
      <trkpt lat="43.76558" lon="5.26172">
        <ele>225.57</ele>
        <time>2017-02-23T14:04:41Z</time>
      </trkpt>
      <trkpt lat="43.76552" lon="5.26166">
        <ele>226.05</ele>
        <time>2017-02-23T14:04:46Z</time>
      </trkpt>
      <trkpt lat="43.76539" lon="5.26158">
        <ele>227.49</ele>
        <time>2017-02-23T14:04:58Z</time>
      </trkpt>
      <trkpt lat="43.76535" lon="5.26154">
        <ele>227.01</ele>
        <time>2017-02-23T14:05:03Z</time>
      </trkpt>
      <trkpt lat="43.76529" lon="5.26148">
        <ele>228.45</ele>
        <time>2017-02-23T14:05:14Z</time>
      </trkpt>
      <trkpt lat="43.76529" lon="5.26148">
        <ele>228.45</ele>
        <time>2017-02-23T14:05:16Z</time>
      </trkpt>
      <trkpt lat="43.76526" lon="5.26155">
        <ele>228.45</ele>
        <time>2017-02-23T14:05:28Z</time>
      </trkpt>
      <trkpt lat="43.7652" lon="5.26158">
        <ele>227.97</ele>
        <time>2017-02-23T14:05:46Z</time>
      </trkpt>
      <trkpt lat="43.76513" lon="5.26164">
        <ele>227.97</ele>
        <time>2017-02-23T14:05:59Z</time>
      </trkpt>
      <trkpt lat="43.76514" lon="5.26165">
        <ele>227.97</ele>
        <time>2017-02-23T14:06:22Z</time>
      </trkpt>
      <trkpt lat="43.76511" lon="5.26167">
        <ele>227.97</ele>
        <time>2017-02-23T14:06:41Z</time>
      </trkpt>
      <trkpt lat="43.76507" lon="5.26167">
        <ele>227.97</ele>
        <time>2017-02-23T14:06:44Z</time>
      </trkpt>
      <trkpt lat="43.76495" lon="5.26173">
        <ele>227.97</ele>
        <time>2017-02-23T14:06:55Z</time>
      </trkpt>
      <trkpt lat="43.76485" lon="5.26178">
        <ele>228.45</ele>
        <time>2017-02-23T14:07:08Z</time>
      </trkpt>
      <trkpt lat="43.76482" lon="5.26179">
        <ele>228.45</ele>
        <time>2017-02-23T14:07:11Z</time>
      </trkpt>
      <trkpt lat="43.76472" lon="5.26184">
        <ele>228.45</ele>
        <time>2017-02-23T14:07:26Z</time>
      </trkpt>
      <trkpt lat="43.76464" lon="5.26186">
        <ele>227.49</ele>
        <time>2017-02-23T14:07:34Z</time>
      </trkpt>
      <trkpt lat="43.76447" lon="5.26191">
        <ele>226.53</ele>
        <time>2017-02-23T14:07:50Z</time>
      </trkpt>
      <trkpt lat="43.76442" lon="5.26192">
        <ele>226.53</ele>
        <time>2017-02-23T14:08:02Z</time>
      </trkpt>
      <trkpt lat="43.76439" lon="5.26193">
        <ele>226.53</ele>
        <time>2017-02-23T14:08:05Z</time>
      </trkpt>
      <trkpt lat="43.7643" lon="5.26192">
        <ele>225.57</ele>
        <time>2017-02-23T14:08:13Z</time>
      </trkpt>
      <trkpt lat="43.76419" lon="5.2619">
        <ele>225.57</ele>
        <time>2017-02-23T14:08:26Z</time>
      </trkpt>
      <trkpt lat="43.76416" lon="5.26192">
        <ele>225.09</ele>
        <time>2017-02-23T14:08:29Z</time>
      </trkpt>
      <trkpt lat="43.76401" lon="5.26193">
        <ele>224.12</ele>
        <time>2017-02-23T14:08:43Z</time>
      </trkpt>
      <trkpt lat="43.76387" lon="5.26194">
        <ele>223.64</ele>
        <time>2017-02-23T14:08:58Z</time>
      </trkpt>
      <trkpt lat="43.76386" lon="5.26194">
        <ele>223.64</ele>
        <time>2017-02-23T14:08:59Z</time>
      </trkpt>
      <trkpt lat="43.76383" lon="5.26194">
        <ele>223.16</ele>
        <time>2017-02-23T14:09:02Z</time>
      </trkpt>
      <trkpt lat="43.76366" lon="5.26194">
        <ele>221.72</ele>
        <time>2017-02-23T14:09:19Z</time>
      </trkpt>
      <trkpt lat="43.76364" lon="5.26194">
        <ele>221.24</ele>
        <time>2017-02-23T14:09:22Z</time>
      </trkpt>
      <trkpt lat="43.76358" lon="5.26194">
        <ele>221.24</ele>
        <time>2017-02-23T14:09:28Z</time>
      </trkpt>
      <trkpt lat="43.76343" lon="5.26195">
        <ele>219.8</ele>
        <time>2017-02-23T14:09:44Z</time>
      </trkpt>
      <trkpt lat="43.76331" lon="5.26194">
        <ele>218.84</ele>
        <time>2017-02-23T14:09:59Z</time>
      </trkpt>
      <trkpt lat="43.7632" lon="5.26195">
        <ele>217.88</ele>
        <time>2017-02-23T14:10:14Z</time>
      </trkpt>
      <trkpt lat="43.76314" lon="5.26196">
        <ele>216.91</ele>
        <time>2017-02-23T14:10:28Z</time>
      </trkpt>
      <trkpt lat="43.76309" lon="5.26195">
        <ele>216.91</ele>
        <time>2017-02-23T14:10:44Z</time>
      </trkpt>
      <trkpt lat="43.76307" lon="5.26198">
        <ele>216.43</ele>
        <time>2017-02-23T14:10:58Z</time>
      </trkpt>
      <trkpt lat="43.763" lon="5.26199">
        <ele>215.47</ele>
        <time>2017-02-23T14:11:08Z</time>
      </trkpt>
      <trkpt lat="43.76293" lon="5.26202">
        <ele>214.51</ele>
        <time>2017-02-23T14:11:16Z</time>
      </trkpt>
      <trkpt lat="43.76277" lon="5.26207">
        <ele>213.07</ele>
        <time>2017-02-23T14:11:32Z</time>
      </trkpt>
      <trkpt lat="43.76263" lon="5.26209">
        <ele>212.11</ele>
        <time>2017-02-23T14:11:46Z</time>
      </trkpt>
      <trkpt lat="43.76245" lon="5.26208">
        <ele>212.11</ele>
        <time>2017-02-23T14:12:03Z</time>
      </trkpt>
      <trkpt lat="43.7623" lon="5.26206">
        <ele>211.15</ele>
        <time>2017-02-23T14:12:17Z</time>
      </trkpt>
      <trkpt lat="43.76216" lon="5.26205">
        <ele>211.15</ele>
        <time>2017-02-23T14:12:30Z</time>
      </trkpt>
      <trkpt lat="43.76198" lon="5.26205">
        <ele>209.7</ele>
        <time>2017-02-23T14:12:46Z</time>
      </trkpt>
      <trkpt lat="43.76184" lon="5.26204">
        <ele>209.22</ele>
        <time>2017-02-23T14:12:59Z</time>
      </trkpt>
      <trkpt lat="43.76172" lon="5.26204">
        <ele>208.26</ele>
        <time>2017-02-23T14:13:11Z</time>
      </trkpt>
      <trkpt lat="43.76155" lon="5.26201">
        <ele>207.3</ele>
        <time>2017-02-23T14:13:27Z</time>
      </trkpt>
      <trkpt lat="43.7614" lon="5.262">
        <ele>206.34</ele>
        <time>2017-02-23T14:13:40Z</time>
      </trkpt>
      <trkpt lat="43.76123" lon="5.26201">
        <ele>205.38</ele>
        <time>2017-02-23T14:13:57Z</time>
      </trkpt>
      <trkpt lat="43.7612" lon="5.26201">
        <ele>204.9</ele>
        <time>2017-02-23T14:14:00Z</time>
      </trkpt>
      <trkpt lat="43.7611" lon="5.26191">
        <ele>204.42</ele>
        <time>2017-02-23T14:14:17Z</time>
      </trkpt>
      <trkpt lat="43.7611" lon="5.2619">
        <ele>204.42</ele>
        <time>2017-02-23T14:14:35Z</time>
      </trkpt>
      <trkpt lat="43.7611" lon="5.26191">
        <ele>204.42</ele>
        <time>2017-02-23T14:15:02Z</time>
      </trkpt>
      <trkpt lat="43.7611" lon="5.26192">
        <ele>204.9</ele>
        <time>2017-02-23T14:15:21Z</time>
      </trkpt>
      <trkpt lat="43.7611" lon="5.26191">
        <ele>204.9</ele>
        <time>2017-02-23T14:15:36Z</time>
      </trkpt>
      <trkpt lat="43.7611" lon="5.26191">
        <ele>204.9</ele>
        <time>2017-02-23T14:15:57Z</time>
      </trkpt>
      <trkpt lat="43.7611" lon="5.2619">
        <ele>204.9</ele>
        <time>2017-02-23T14:16:15Z</time>
      </trkpt>
      <trkpt lat="43.7611" lon="5.2619">
        <ele>204.9</ele>
        <time>2017-02-23T14:16:39Z</time>
      </trkpt>
      <trkpt lat="43.7611" lon="5.2619">
        <ele>204.9</ele>
        <time>2017-02-23T14:16:57Z</time>
      </trkpt>
      <trkpt lat="43.7611" lon="5.2619">
        <ele>204.9</ele>
        <time>2017-02-23T14:17:17Z</time>
      </trkpt>
      <trkpt lat="43.76108" lon="5.26184">
        <ele>204.9</ele>
        <time>2017-02-23T14:17:23Z</time>
      </trkpt>
      <trkpt lat="43.76108" lon="5.26179">
        <ele>204.9</ele>
        <time>2017-02-23T14:17:27Z</time>
      </trkpt>
      <trkpt lat="43.76108" lon="5.26155">
        <ele>204.42</ele>
        <time>2017-02-23T14:17:43Z</time>
      </trkpt>
      <trkpt lat="43.76109" lon="5.26142">
        <ele>204.42</ele>
        <time>2017-02-23T14:17:51Z</time>
      </trkpt>
      <trkpt lat="43.7611" lon="5.26139">
        <ele>204.42</ele>
        <time>2017-02-23T14:17:53Z</time>
      </trkpt>
      <trkpt lat="43.7611" lon="5.26134">
        <ele>204.42</ele>
        <time>2017-02-23T14:17:57Z</time>
      </trkpt>
      <trkpt lat="43.7611" lon="5.26129">
        <ele>204.42</ele>
        <time>2017-02-23T14:18:00Z</time>
      </trkpt>
      <trkpt lat="43.76115" lon="5.2611">
        <ele>204.42</ele>
        <time>2017-02-23T14:18:15Z</time>
      </trkpt>
      <trkpt lat="43.76122" lon="5.26096">
        <ele>204.42</ele>
        <time>2017-02-23T14:18:28Z</time>
      </trkpt>
      <trkpt lat="43.76133" lon="5.26077">
        <ele>204.42</ele>
        <time>2017-02-23T14:18:45Z</time>
      </trkpt>
      <trkpt lat="43.76143" lon="5.26055">
        <ele>204.42</ele>
        <time>2017-02-23T14:19:02Z</time>
      </trkpt>
      <trkpt lat="43.7615" lon="5.26033">
        <ele>203.94</ele>
        <time>2017-02-23T14:19:20Z</time>
      </trkpt>
      <trkpt lat="43.76154" lon="5.26013">
        <ele>203.46</ele>
        <time>2017-02-23T14:19:35Z</time>
      </trkpt>
      <trkpt lat="43.76155" lon="5.2599">
        <ele>203.46</ele>
        <time>2017-02-23T14:19:49Z</time>
      </trkpt>
      <trkpt lat="43.76155" lon="5.25986">
        <ele>203.46</ele>
        <time>2017-02-23T14:19:52Z</time>
      </trkpt>
      <trkpt lat="43.76156" lon="5.25965">
        <ele>204.9</ele>
        <time>2017-02-23T14:20:06Z</time>
      </trkpt>
      <trkpt lat="43.76156" lon="5.25962">
        <ele>205.38</ele>
        <time>2017-02-23T14:20:08Z</time>
      </trkpt>
      <trkpt lat="43.76157" lon="5.25959">
        <ele>205.38</ele>
        <time>2017-02-23T14:20:10Z</time>
      </trkpt>
      <trkpt lat="43.76157" lon="5.2595">
        <ele>205.86</ele>
        <time>2017-02-23T14:20:18Z</time>
      </trkpt>
      <trkpt lat="43.76158" lon="5.25939">
        <ele>206.34</ele>
        <time>2017-02-23T14:20:28Z</time>
      </trkpt>
      <trkpt lat="43.76159" lon="5.25932">
        <ele>206.82</ele>
        <time>2017-02-23T14:20:32Z</time>
      </trkpt>
      <trkpt lat="43.76161" lon="5.25924">
        <ele>206.82</ele>
        <time>2017-02-23T14:20:37Z</time>
      </trkpt>
      <trkpt lat="43.76163" lon="5.25908">
        <ele>207.3</ele>
        <time>2017-02-23T14:20:49Z</time>
      </trkpt>
      <trkpt lat="43.76163" lon="5.25905">
        <ele>207.3</ele>
        <time>2017-02-23T14:20:52Z</time>
      </trkpt>
      <trkpt lat="43.76164" lon="5.25888">
        <ele>208.26</ele>
        <time>2017-02-23T14:21:05Z</time>
      </trkpt>
      <trkpt lat="43.76162" lon="5.25885">
        <ele>208.26</ele>
        <time>2017-02-23T14:21:16Z</time>
      </trkpt>
      <trkpt lat="43.76162" lon="5.2589">
        <ele>207.78</ele>
        <time>2017-02-23T14:21:25Z</time>
      </trkpt>
      <trkpt lat="43.76162" lon="5.25885">
        <ele>207.78</ele>
        <time>2017-02-23T14:21:28Z</time>
      </trkpt>
      <trkpt lat="43.76163" lon="5.25871">
        <ele>208.26</ele>
        <time>2017-02-23T14:21:37Z</time>
      </trkpt>
      <trkpt lat="43.76166" lon="5.25856">
        <ele>208.26</ele>
        <time>2017-02-23T14:21:46Z</time>
      </trkpt>
      <trkpt lat="43.76167" lon="5.25853">
        <ele>207.78</ele>
        <time>2017-02-23T14:21:48Z</time>
      </trkpt>
      <trkpt lat="43.76172" lon="5.25837">
        <ele>204.9</ele>
        <time>2017-02-23T14:22:02Z</time>
      </trkpt>
      <trkpt lat="43.76178" lon="5.25826">
        <ele>202.98</ele>
        <time>2017-02-23T14:22:15Z</time>
      </trkpt>
      <trkpt lat="43.76184" lon="5.25811">
        <ele>200.09</ele>
        <time>2017-02-23T14:22:28Z</time>
      </trkpt>
      <trkpt lat="43.76191" lon="5.25796">
        <ele>198.17</ele>
        <time>2017-02-23T14:22:41Z</time>
      </trkpt>
      <trkpt lat="43.76191" lon="5.25794">
        <ele>198.17</ele>
        <time>2017-02-23T14:22:43Z</time>
      </trkpt>
      <trkpt lat="43.76196" lon="5.25782">
        <ele>196.25</ele>
        <time>2017-02-23T14:22:54Z</time>
      </trkpt>
      <trkpt lat="43.76204" lon="5.25765">
        <ele>193.84</ele>
        <time>2017-02-23T14:23:11Z</time>
      </trkpt>
      <trkpt lat="43.76209" lon="5.25755">
        <ele>191.92</ele>
        <time>2017-02-23T14:23:21Z</time>
      </trkpt>
      <trkpt lat="43.7621" lon="5.25754">
        <ele>191.92</ele>
        <time>2017-02-23T14:23:22Z</time>
      </trkpt>
      <trkpt lat="43.76211" lon="5.2575">
        <ele>191.44</ele>
        <time>2017-02-23T14:23:25Z</time>
      </trkpt>
      <trkpt lat="43.76214" lon="5.25747">
        <ele>190.96</ele>
        <time>2017-02-23T14:23:28Z</time>
      </trkpt>
      <trkpt lat="43.76216" lon="5.25741">
        <ele>190.48</ele>
        <time>2017-02-23T14:23:32Z</time>
      </trkpt>
      <trkpt lat="43.76217" lon="5.25727">
        <ele>188.56</ele>
        <time>2017-02-23T14:23:42Z</time>
      </trkpt>
      <trkpt lat="43.76219" lon="5.25706">
        <ele>187.11</ele>
        <time>2017-02-23T14:23:57Z</time>
      </trkpt>
      <trkpt lat="43.76219" lon="5.25704">
        <ele>186.63</ele>
        <time>2017-02-23T14:23:59Z</time>
      </trkpt>
      <trkpt lat="43.76219" lon="5.25682">
        <ele>185.19</ele>
        <time>2017-02-23T14:24:14Z</time>
      </trkpt>
      <trkpt lat="43.76221" lon="5.25662">
        <ele>184.23</ele>
        <time>2017-02-23T14:24:28Z</time>
      </trkpt>
      <trkpt lat="43.76221" lon="5.25645">
        <ele>183.27</ele>
        <time>2017-02-23T14:24:41Z</time>
      </trkpt>
      <trkpt lat="43.76224" lon="5.25624">
        <ele>181.83</ele>
        <time>2017-02-23T14:24:57Z</time>
      </trkpt>
      <trkpt lat="43.76225" lon="5.25605">
        <ele>180.38</ele>
        <time>2017-02-23T14:25:12Z</time>
      </trkpt>
      <trkpt lat="43.76222" lon="5.25591">
        <ele>180.38</ele>
        <time>2017-02-23T14:25:24Z</time>
      </trkpt>
      <trkpt lat="43.76216" lon="5.25575">
        <ele>181.83</ele>
        <time>2017-02-23T14:25:38Z</time>
      </trkpt>
      <trkpt lat="43.76212" lon="5.25566">
        <ele>182.79</ele>
        <time>2017-02-23T14:25:46Z</time>
      </trkpt>
      <trkpt lat="43.76209" lon="5.25557">
        <ele>183.27</ele>
        <time>2017-02-23T14:25:53Z</time>
      </trkpt>
      <trkpt lat="43.76205" lon="5.2555">
        <ele>183.75</ele>
        <time>2017-02-23T14:26:00Z</time>
      </trkpt>
      <trkpt lat="43.76199" lon="5.25537">
        <ele>185.19</ele>
        <time>2017-02-23T14:26:12Z</time>
      </trkpt>
      <trkpt lat="43.76197" lon="5.25532">
        <ele>185.19</ele>
        <time>2017-02-23T14:26:16Z</time>
      </trkpt>
      <trkpt lat="43.76191" lon="5.2552">
        <ele>186.15</ele>
        <time>2017-02-23T14:26:28Z</time>
      </trkpt>
      <trkpt lat="43.76181" lon="5.25512">
        <ele>187.11</ele>
        <time>2017-02-23T14:26:40Z</time>
      </trkpt>
      <trkpt lat="43.76173" lon="5.25506">
        <ele>188.08</ele>
        <time>2017-02-23T14:26:51Z</time>
      </trkpt>
      <trkpt lat="43.76158" lon="5.25501">
        <ele>190.48</ele>
        <time>2017-02-23T14:27:05Z</time>
      </trkpt>
      <trkpt lat="43.76149" lon="5.255">
        <ele>191.92</ele>
        <time>2017-02-23T14:27:16Z</time>
      </trkpt>
      <trkpt lat="43.76135" lon="5.25495">
        <ele>193.84</ele>
        <time>2017-02-23T14:27:31Z</time>
      </trkpt>
      <trkpt lat="43.76125" lon="5.25487">
        <ele>195.77</ele>
        <time>2017-02-23T14:27:44Z</time>
      </trkpt>
      <trkpt lat="43.76115" lon="5.25475">
        <ele>197.69</ele>
        <time>2017-02-23T14:27:58Z</time>
      </trkpt>
      <trkpt lat="43.7611" lon="5.25468">
        <ele>199.13</ele>
        <time>2017-02-23T14:28:06Z</time>
      </trkpt>
      <trkpt lat="43.76103" lon="5.25459">
        <ele>200.57</ele>
        <time>2017-02-23T14:28:17Z</time>
      </trkpt>
      <trkpt lat="43.76095" lon="5.25446">
        <ele>203.46</ele>
        <time>2017-02-23T14:28:31Z</time>
      </trkpt>
      <trkpt lat="43.76089" lon="5.25439">
        <ele>205.38</ele>
        <time>2017-02-23T14:28:42Z</time>
      </trkpt>
      <trkpt lat="43.76089" lon="5.25439">
        <ele>205.38</ele>
        <time>2017-02-23T14:29:03Z</time>
      </trkpt>
      <trkpt lat="43.76085" lon="5.25441">
        <ele>205.38</ele>
        <time>2017-02-23T14:29:18Z</time>
      </trkpt>
      <trkpt lat="43.76086" lon="5.25434">
        <ele>205.38</ele>
        <time>2017-02-23T14:29:24Z</time>
      </trkpt>
      <trkpt lat="43.76088" lon="5.25428">
        <ele>205.38</ele>
        <time>2017-02-23T14:29:29Z</time>
      </trkpt>
      <trkpt lat="43.7609" lon="5.25421">
        <ele>205.86</ele>
        <time>2017-02-23T14:29:42Z</time>
      </trkpt>
      <trkpt lat="43.7609" lon="5.25422">
        <ele>205.86</ele>
        <time>2017-02-23T14:29:56Z</time>
      </trkpt>
      <trkpt lat="43.7609" lon="5.25423">
        <ele>205.86</ele>
        <time>2017-02-23T14:30:15Z</time>
      </trkpt>
      <trkpt lat="43.7609" lon="5.25424">
        <ele>205.86</ele>
        <time>2017-02-23T14:30:18Z</time>
      </trkpt>
      <trkpt lat="43.76092" lon="5.25432">
        <ele>205.86</ele>
        <time>2017-02-23T14:30:34Z</time>
      </trkpt>
      <trkpt lat="43.76093" lon="5.2543">
        <ele>205.38</ele>
        <time>2017-02-23T14:30:50Z</time>
      </trkpt>
      <trkpt lat="43.76093" lon="5.25427">
        <ele>205.38</ele>
        <time>2017-02-23T14:31:08Z</time>
      </trkpt>
      <trkpt lat="43.76094" lon="5.25421">
        <ele>205.38</ele>
        <time>2017-02-23T14:31:18Z</time>
      </trkpt>
      <trkpt lat="43.76094" lon="5.25408">
        <ele>205.38</ele>
        <time>2017-02-23T14:31:27Z</time>
      </trkpt>
      <trkpt lat="43.76094" lon="5.25386">
        <ele>205.38</ele>
        <time>2017-02-23T14:31:41Z</time>
      </trkpt>
      <trkpt lat="43.76095" lon="5.25363">
        <ele>205.38</ele>
        <time>2017-02-23T14:31:57Z</time>
      </trkpt>
      <trkpt lat="43.76093" lon="5.25351">
        <ele>204.9</ele>
        <time>2017-02-23T14:32:05Z</time>
      </trkpt>
      <trkpt lat="43.76094" lon="5.25333">
        <ele>204.9</ele>
        <time>2017-02-23T14:32:20Z</time>
      </trkpt>
      <trkpt lat="43.76094" lon="5.25326">
        <ele>204.42</ele>
        <time>2017-02-23T14:32:33Z</time>
      </trkpt>
      <trkpt lat="43.76096" lon="5.25309">
        <ele>204.42</ele>
        <time>2017-02-23T14:32:48Z</time>
      </trkpt>
      <trkpt lat="43.76096" lon="5.25289">
        <ele>204.42</ele>
        <time>2017-02-23T14:33:02Z</time>
      </trkpt>
      <trkpt lat="43.76096" lon="5.25273">
        <ele>203.94</ele>
        <time>2017-02-23T14:33:16Z</time>
      </trkpt>
      <trkpt lat="43.76098" lon="5.25257">
        <ele>203.94</ele>
        <time>2017-02-23T14:33:28Z</time>
      </trkpt>
      <trkpt lat="43.761" lon="5.25244">
        <ele>202.98</ele>
        <time>2017-02-23T14:33:40Z</time>
      </trkpt>
      <trkpt lat="43.761" lon="5.25243">
        <ele>202.98</ele>
        <time>2017-02-23T14:33:41Z</time>
      </trkpt>
      <trkpt lat="43.761" lon="5.25223">
        <ele>202.49</ele>
        <time>2017-02-23T14:33:56Z</time>
      </trkpt>
      <trkpt lat="43.76102" lon="5.25205">
        <ele>202.01</ele>
        <time>2017-02-23T14:34:09Z</time>
      </trkpt>
      <trkpt lat="43.76103" lon="5.25196">
        <ele>201.53</ele>
        <time>2017-02-23T14:34:21Z</time>
      </trkpt>
      <trkpt lat="43.76104" lon="5.25169">
        <ele>201.05</ele>
        <time>2017-02-23T14:34:37Z</time>
      </trkpt>
      <trkpt lat="43.76104" lon="5.25155">
        <ele>200.57</ele>
        <time>2017-02-23T14:34:47Z</time>
      </trkpt>
      <trkpt lat="43.76105" lon="5.25149">
        <ele>200.09</ele>
        <time>2017-02-23T14:34:52Z</time>
      </trkpt>
      <trkpt lat="43.76107" lon="5.25128">
        <ele>199.61</ele>
        <time>2017-02-23T14:35:06Z</time>
      </trkpt>
      <trkpt lat="43.76108" lon="5.25108">
        <ele>199.13</ele>
        <time>2017-02-23T14:35:21Z</time>
      </trkpt>
      <trkpt lat="43.76108" lon="5.25098">
        <ele>198.17</ele>
        <time>2017-02-23T14:35:31Z</time>
      </trkpt>
      <trkpt lat="43.76104" lon="5.2508">
        <ele>198.17</ele>
        <time>2017-02-23T14:35:45Z</time>
      </trkpt>
      <trkpt lat="43.76104" lon="5.25079">
        <ele>198.17</ele>
        <time>2017-02-23T14:35:46Z</time>
      </trkpt>
      <trkpt lat="43.76104" lon="5.25075">
        <ele>198.17</ele>
        <time>2017-02-23T14:35:49Z</time>
      </trkpt>
      <trkpt lat="43.76103" lon="5.25059">
        <ele>197.21</ele>
        <time>2017-02-23T14:36:03Z</time>
      </trkpt>
      <trkpt lat="43.76104" lon="5.25051">
        <ele>196.73</ele>
        <time>2017-02-23T14:36:07Z</time>
      </trkpt>
      <trkpt lat="43.76104" lon="5.25026">
        <ele>196.25</ele>
        <time>2017-02-23T14:36:21Z</time>
      </trkpt>
      <trkpt lat="43.76104" lon="5.25018">
        <ele>196.25</ele>
        <time>2017-02-23T14:36:26Z</time>
      </trkpt>
      <trkpt lat="43.76105" lon="5.25014">
        <ele>196.25</ele>
        <time>2017-02-23T14:36:28Z</time>
      </trkpt>
      <trkpt lat="43.76109" lon="5.24993">
        <ele>195.77</ele>
        <time>2017-02-23T14:36:44Z</time>
      </trkpt>
      <trkpt lat="43.76113" lon="5.24977">
        <ele>194.8</ele>
        <time>2017-02-23T14:36:56Z</time>
      </trkpt>
      <trkpt lat="43.76115" lon="5.24968">
        <ele>194.32</ele>
        <time>2017-02-23T14:37:03Z</time>
      </trkpt>
      <trkpt lat="43.76118" lon="5.2495">
        <ele>193.84</ele>
        <time>2017-02-23T14:37:16Z</time>
      </trkpt>
      <trkpt lat="43.76118" lon="5.24944">
        <ele>193.36</ele>
        <time>2017-02-23T14:37:24Z</time>
      </trkpt>
      <trkpt lat="43.76123" lon="5.24921">
        <ele>190.96</ele>
        <time>2017-02-23T14:37:39Z</time>
      </trkpt>
      <trkpt lat="43.76125" lon="5.249">
        <ele>189.04</ele>
        <time>2017-02-23T14:37:52Z</time>
      </trkpt>
      <trkpt lat="43.76126" lon="5.24889">
        <ele>188.56</ele>
        <time>2017-02-23T14:38:00Z</time>
      </trkpt>
      <trkpt lat="43.76127" lon="5.24884">
        <ele>188.56</ele>
        <time>2017-02-23T14:38:03Z</time>
      </trkpt>
      <trkpt lat="43.76126" lon="5.24862">
        <ele>187.59</ele>
        <time>2017-02-23T14:38:17Z</time>
      </trkpt>
      <trkpt lat="43.76124" lon="5.24842">
        <ele>186.63</ele>
        <time>2017-02-23T14:38:30Z</time>
      </trkpt>
      <trkpt lat="43.76123" lon="5.2484">
        <ele>186.63</ele>
        <time>2017-02-23T14:38:32Z</time>
      </trkpt>
      <trkpt lat="43.76121" lon="5.24827">
        <ele>185.67</ele>
        <time>2017-02-23T14:38:42Z</time>
      </trkpt>
      <trkpt lat="43.76119" lon="5.2481">
        <ele>184.71</ele>
        <time>2017-02-23T14:38:54Z</time>
      </trkpt>
      <trkpt lat="43.7611" lon="5.24785">
        <ele>182.31</ele>
        <time>2017-02-23T14:39:11Z</time>
      </trkpt>
      <trkpt lat="43.76108" lon="5.24777">
        <ele>181.83</ele>
        <time>2017-02-23T14:39:17Z</time>
      </trkpt>
      <trkpt lat="43.76108" lon="5.24773">
        <ele>181.35</ele>
        <time>2017-02-23T14:39:19Z</time>
      </trkpt>
      <trkpt lat="43.76107" lon="5.24762">
        <ele>180.87</ele>
        <time>2017-02-23T14:39:26Z</time>
      </trkpt>
      <trkpt lat="43.76107" lon="5.24757">
        <ele>180.38</ele>
        <time>2017-02-23T14:39:29Z</time>
      </trkpt>
      <trkpt lat="43.76104" lon="5.24733">
        <ele>179.42</ele>
        <time>2017-02-23T14:39:45Z</time>
      </trkpt>
      <trkpt lat="43.76101" lon="5.24712">
        <ele>178.94</ele>
        <time>2017-02-23T14:40:00Z</time>
      </trkpt>
      <trkpt lat="43.76097" lon="5.24698">
        <ele>178.46</ele>
        <time>2017-02-23T14:40:09Z</time>
      </trkpt>
      <trkpt lat="43.76096" lon="5.24693">
        <ele>177.98</ele>
        <time>2017-02-23T14:40:12Z</time>
      </trkpt>
      <trkpt lat="43.76096" lon="5.24688">
        <ele>177.98</ele>
        <time>2017-02-23T14:40:16Z</time>
      </trkpt>
      <trkpt lat="43.76094" lon="5.24676">
        <ele>177.5</ele>
        <time>2017-02-23T14:40:24Z</time>
      </trkpt>
      <trkpt lat="43.76093" lon="5.24663">
        <ele>177.02</ele>
        <time>2017-02-23T14:40:32Z</time>
      </trkpt>
      <trkpt lat="43.76091" lon="5.24652">
        <ele>177.02</ele>
        <time>2017-02-23T14:40:40Z</time>
      </trkpt>
      <trkpt lat="43.76089" lon="5.24641">
        <ele>177.02</ele>
        <time>2017-02-23T14:40:50Z</time>
      </trkpt>
      <trkpt lat="43.76086" lon="5.2463">
        <ele>176.54</ele>
        <time>2017-02-23T14:40:58Z</time>
      </trkpt>
      <trkpt lat="43.76085" lon="5.24624">
        <ele>176.54</ele>
        <time>2017-02-23T14:41:01Z</time>
      </trkpt>
      <trkpt lat="43.7608" lon="5.24604">
        <ele>177.02</ele>
        <time>2017-02-23T14:41:14Z</time>
      </trkpt>
      <trkpt lat="43.76077" lon="5.24598">
        <ele>177.5</ele>
        <time>2017-02-23T14:41:21Z</time>
      </trkpt>
      <trkpt lat="43.76071" lon="5.24585">
        <ele>177.98</ele>
        <time>2017-02-23T14:41:31Z</time>
      </trkpt>
      <trkpt lat="43.76066" lon="5.24564">
        <ele>179.9</ele>
        <time>2017-02-23T14:41:45Z</time>
      </trkpt>
      <trkpt lat="43.76064" lon="5.24555">
        <ele>179.9</ele>
        <time>2017-02-23T14:41:52Z</time>
      </trkpt>
      <trkpt lat="43.7606" lon="5.24543">
        <ele>179.42</ele>
        <time>2017-02-23T14:41:59Z</time>
      </trkpt>
      <trkpt lat="43.7606" lon="5.24539">
        <ele>178.94</ele>
        <time>2017-02-23T14:42:02Z</time>
      </trkpt>
      <trkpt lat="43.76057" lon="5.24528">
        <ele>177.98</ele>
        <time>2017-02-23T14:42:09Z</time>
      </trkpt>
      <trkpt lat="43.76058" lon="5.24521">
        <ele>177.5</ele>
        <time>2017-02-23T14:42:13Z</time>
      </trkpt>
      <trkpt lat="43.76055" lon="5.24504">
        <ele>176.54</ele>
        <time>2017-02-23T14:42:24Z</time>
      </trkpt>
      <trkpt lat="43.76052" lon="5.24489">
        <ele>176.06</ele>
        <time>2017-02-23T14:42:34Z</time>
      </trkpt>
      <trkpt lat="43.76049" lon="5.2447">
        <ele>175.58</ele>
        <time>2017-02-23T14:42:48Z</time>
      </trkpt>
      <trkpt lat="43.76046" lon="5.2446">
        <ele>175.58</ele>
        <time>2017-02-23T14:42:55Z</time>
      </trkpt>
      <trkpt lat="43.76044" lon="5.24443">
        <ele>175.58</ele>
        <time>2017-02-23T14:43:06Z</time>
      </trkpt>
      <trkpt lat="43.76042" lon="5.24423">
        <ele>176.06</ele>
        <time>2017-02-23T14:43:20Z</time>
      </trkpt>
      <trkpt lat="43.76039" lon="5.24406">
        <ele>177.02</ele>
        <time>2017-02-23T14:43:33Z</time>
      </trkpt>
      <trkpt lat="43.76038" lon="5.24399">
        <ele>177.5</ele>
        <time>2017-02-23T14:43:38Z</time>
      </trkpt>
      <trkpt lat="43.76034" lon="5.24375">
        <ele>178.46</ele>
        <time>2017-02-23T14:43:54Z</time>
      </trkpt>
      <trkpt lat="43.76031" lon="5.2436">
        <ele>178.94</ele>
        <time>2017-02-23T14:44:06Z</time>
      </trkpt>
      <trkpt lat="43.7603" lon="5.24356">
        <ele>178.94</ele>
        <time>2017-02-23T14:44:09Z</time>
      </trkpt>
      <trkpt lat="43.76028" lon="5.24336">
        <ele>178.94</ele>
        <time>2017-02-23T14:44:23Z</time>
      </trkpt>
      <trkpt lat="43.76027" lon="5.24316">
        <ele>178.94</ele>
        <time>2017-02-23T14:44:35Z</time>
      </trkpt>
      <trkpt lat="43.76024" lon="5.24298">
        <ele>178.94</ele>
        <time>2017-02-23T14:44:46Z</time>
      </trkpt>
      <trkpt lat="43.76021" lon="5.24281">
        <ele>178.94</ele>
        <time>2017-02-23T14:44:59Z</time>
      </trkpt>
      <trkpt lat="43.76019" lon="5.24271">
        <ele>179.42</ele>
        <time>2017-02-23T14:45:10Z</time>
      </trkpt>
      <trkpt lat="43.76014" lon="5.24252">
        <ele>180.87</ele>
        <time>2017-02-23T14:45:24Z</time>
      </trkpt>
      <trkpt lat="43.76011" lon="5.24238">
        <ele>181.35</ele>
        <time>2017-02-23T14:45:36Z</time>
      </trkpt>
      <trkpt lat="43.76011" lon="5.24231">
        <ele>181.83</ele>
        <time>2017-02-23T14:45:48Z</time>
      </trkpt>
      <trkpt lat="43.76002" lon="5.24217">
        <ele>183.27</ele>
        <time>2017-02-23T14:46:01Z</time>
      </trkpt>
      <trkpt lat="43.75997" lon="5.24201">
        <ele>184.23</ele>
        <time>2017-02-23T14:46:13Z</time>
      </trkpt>
      <trkpt lat="43.75989" lon="5.24184">
        <ele>185.19</ele>
        <time>2017-02-23T14:46:26Z</time>
      </trkpt>
      <trkpt lat="43.75981" lon="5.24166">
        <ele>185.67</ele>
        <time>2017-02-23T14:46:40Z</time>
      </trkpt>
      <trkpt lat="43.75979" lon="5.2415">
        <ele>186.15</ele>
        <time>2017-02-23T14:46:54Z</time>
      </trkpt>
      <trkpt lat="43.75978" lon="5.24126">
        <ele>186.63</ele>
        <time>2017-02-23T14:47:11Z</time>
      </trkpt>
      <trkpt lat="43.75976" lon="5.24106">
        <ele>187.11</ele>
        <time>2017-02-23T14:47:26Z</time>
      </trkpt>
      <trkpt lat="43.75976" lon="5.24092">
        <ele>187.59</ele>
        <time>2017-02-23T14:47:38Z</time>
      </trkpt>
      <trkpt lat="43.75973" lon="5.24064">
        <ele>186.63</ele>
        <time>2017-02-23T14:47:55Z</time>
      </trkpt>
      <trkpt lat="43.75967" lon="5.24041">
        <ele>183.75</ele>
        <time>2017-02-23T14:48:13Z</time>
      </trkpt>
      <trkpt lat="43.7596" lon="5.2402">
        <ele>180.38</ele>
        <time>2017-02-23T14:48:28Z</time>
      </trkpt>
      <trkpt lat="43.75953" lon="5.24004">
        <ele>177.5</ele>
        <time>2017-02-23T14:48:42Z</time>
      </trkpt>
      <trkpt lat="43.75946" lon="5.23992">
        <ele>175.1</ele>
        <time>2017-02-23T14:48:55Z</time>
      </trkpt>
      <trkpt lat="43.75937" lon="5.23974">
        <ele>172.21</ele>
        <time>2017-02-23T14:49:12Z</time>
      </trkpt>
      <trkpt lat="43.75932" lon="5.23958">
        <ele>169.81</ele>
        <time>2017-02-23T14:49:26Z</time>
      </trkpt>
      <trkpt lat="43.75925" lon="5.23934">
        <ele>166.93</ele>
        <time>2017-02-23T14:49:43Z</time>
      </trkpt>
      <trkpt lat="43.75917" lon="5.23905">
        <ele>164.04</ele>
        <time>2017-02-23T14:50:00Z</time>
      </trkpt>
      <trkpt lat="43.75911" lon="5.23885">
        <ele>162.12</ele>
        <time>2017-02-23T14:50:15Z</time>
      </trkpt>
      <trkpt lat="43.75909" lon="5.2388">
        <ele>161.16</ele>
        <time>2017-02-23T14:50:19Z</time>
      </trkpt>
      <trkpt lat="43.75904" lon="5.23865">
        <ele>160.2</ele>
        <time>2017-02-23T14:50:29Z</time>
      </trkpt>
      <trkpt lat="43.75898" lon="5.23847">
        <ele>158.75</ele>
        <time>2017-02-23T14:50:42Z</time>
      </trkpt>
      <trkpt lat="43.75891" lon="5.23831">
        <ele>157.31</ele>
        <time>2017-02-23T14:50:57Z</time>
      </trkpt>
      <trkpt lat="43.75884" lon="5.23809">
        <ele>156.35</ele>
        <time>2017-02-23T14:51:13Z</time>
      </trkpt>
      <trkpt lat="43.75876" lon="5.23787">
        <ele>155.39</ele>
        <time>2017-02-23T14:51:29Z</time>
      </trkpt>
      <trkpt lat="43.75872" lon="5.2377">
        <ele>154.43</ele>
        <time>2017-02-23T14:51:43Z</time>
      </trkpt>
      <trkpt lat="43.75871" lon="5.23749">
        <ele>153.95</ele>
        <time>2017-02-23T14:51:58Z</time>
      </trkpt>
      <trkpt lat="43.75873" lon="5.23722">
        <ele>152.03</ele>
        <time>2017-02-23T14:52:13Z</time>
      </trkpt>
      <trkpt lat="43.75874" lon="5.2372">
        <ele>152.03</ele>
        <time>2017-02-23T14:52:14Z</time>
      </trkpt>
      <trkpt lat="43.75874" lon="5.23715">
        <ele>151.54</ele>
        <time>2017-02-23T14:52:17Z</time>
      </trkpt>
      <trkpt lat="43.75878" lon="5.23704">
        <ele>150.58</ele>
        <time>2017-02-23T14:52:26Z</time>
      </trkpt>
      <trkpt lat="43.75885" lon="5.23681">
        <ele>148.66</ele>
        <time>2017-02-23T14:52:43Z</time>
      </trkpt>
      <trkpt lat="43.75885" lon="5.23655">
        <ele>149.14</ele>
        <time>2017-02-23T14:52:57Z</time>
      </trkpt>
      <trkpt lat="43.75885" lon="5.23637">
        <ele>149.62</ele>
        <time>2017-02-23T14:53:09Z</time>
      </trkpt>
      <trkpt lat="43.75882" lon="5.23614">
        <ele>149.62</ele>
        <time>2017-02-23T14:53:23Z</time>
      </trkpt>
      <trkpt lat="43.75878" lon="5.23595">
        <ele>148.18</ele>
        <time>2017-02-23T14:53:36Z</time>
      </trkpt>
      <trkpt lat="43.75876" lon="5.2359">
        <ele>149.14</ele>
        <time>2017-02-23T14:53:40Z</time>
      </trkpt>
      <trkpt lat="43.7587" lon="5.2358">
        <ele>148.66</ele>
        <time>2017-02-23T14:53:53Z</time>
      </trkpt>
      <trkpt lat="43.7587" lon="5.23579">
        <ele>149.14</ele>
        <time>2017-02-23T14:54:09Z</time>
      </trkpt>
      <trkpt lat="43.75871" lon="5.23579">
        <ele>149.14</ele>
        <time>2017-02-23T14:54:37Z</time>
      </trkpt>
    </trkseg>
  </trk>
</gpx>